Provisional Data: Yellow Breeches Creek near Lisburn, PA


Please select a monitoring station.
Please select start date.
Please select start date.

Toggle Unit: C/F Toggle Unit: C/F
Sample Time Temperature (C) Temperature (F) Specific Conductivity (mS/cm) pH   Turbidity (NTU+) DO (mg/L)
10/22/2021 12:00:00 AM 14.57 58.226 0.3 7.4 122.2 8.87
10/22/2021 12:15:00 AM 14.59 58.262 0.3 7.39 101.1 8.94
10/22/2021 12:30:00 AM 14.6 58.28 0.3 7.41 102.7 8.72
10/22/2021 12:45:00 AM 14.63 58.334 0.3 7.42 105.5 8.98
10/22/2021 1:00:00 AM 14.65 58.37 0.296 7.43 99.64 8.98
10/22/2021 1:15:00 AM 14.66 58.388 0.299 7.44 106.9 9
10/22/2021 1:30:00 AM 14.67 58.406 0.299 7.4 101.3 8.68
10/22/2021 1:45:00 AM 14.67 58.406 0.299 7.43 99.47 8.76
10/22/2021 2:00:00 AM 14.67 58.406 0.299 7.43 99.76 7.84
10/22/2021 2:15:00 AM 14.67 58.406 0.291 7.42 415.5 7.08
10/22/2021 2:30:00 AM 14.67 58.406 0.299 7.38 376.6 8.49
10/22/2021 2:45:00 AM 14.67 58.406 0.296 7.36 358.6 8.27
10/22/2021 3:00:00 AM 14.65 58.37 0.3 7.37 252.9 8.18
10/22/2021 3:15:00 AM 14.65 58.37 0.301 7.36 192 8.66
10/22/2021 3:30:00 AM 14.65 58.37 0.301 7.35 144.1 8.47
10/22/2021 3:45:00 AM 14.63 58.334 0.302 7.35 98.06 8.5
10/22/2021 4:00:00 AM 14.62 58.316 0.303 7.37 97.59 8.7
10/22/2021 4:15:00 AM 14.62 58.316 0.303 7.34 99.07 8.36
10/22/2021 4:30:00 AM 14.57 58.226 0.299 7.33 101.6 8.55
10/22/2021 4:45:00 AM 14.57 58.226 0.296 7.35 101.4 8.45
10/22/2021 5:00:00 AM 14.51 58.118 0.304 7.36 114.1 8.4
10/22/2021 5:15:00 AM 14.51 58.118 0.304 7.34 112.9 7.88
10/22/2021 5:30:00 AM 14.48 58.064 0.305 7.33 116.1 8.53
10/22/2021 5:45:00 AM 14.38 57.884 0.306 7.31 114.2 8.58
10/22/2021 6:00:00 AM 14.43 57.974 0.305 7.28 115 8.4
10/22/2021 6:15:00 AM 14.35 57.83 0.296 7.33 119 8.75
10/22/2021 6:30:00 AM 14.4 57.92 0.302 7.35 120.4 8.61
10/22/2021 6:45:00 AM 14.25 57.65 0.308 7.31 177.8 7.62
10/22/2021 7:00:00 AM 14.22 57.596 0.308 7.27 155.2 8.78
10/22/2021 7:15:00 AM 14.2 57.56 0.295 7.29 173.8 8.68
10/22/2021 7:30:00 AM 14.2 57.56 0.307 7.32 567.8 8.86
10/22/2021 7:45:00 AM 14.06 57.308 0.303 7.35 653.8 8.85
10/22/2021 8:00:00 AM 14.24 57.632 0.305 7.35 749.7 8.74
10/22/2021 8:15:00 AM 14 57.2 0.306 7.33 782.3 8.85
10/22/2021 8:30:00 AM 14 57.2 0.301 7.33 811.7 9.03
10/22/2021 8:45:00 AM 13.95 57.11 0.304 7.33 787.9 8.96
10/22/2021 9:00:00 AM 14.03 57.254 0.303 7.35 776.2 9.12
10/22/2021 9:15:00 AM 14.05 57.29 0.303 7.36 683.3 9.13
10/22/2021 9:30:00 AM 13.95 57.11 0.301 7.35 624.5 9.39
10/22/2021 9:45:00 AM 14.07 57.326 0.304 7.35 562.3 9.39
10/22/2021 10:00:00 AM 14.13 57.434 0.304 7.33 560 9.24
10/22/2021 10:15:00 AM 14.18 57.524 0.304 7.34 585.4 9.63
10/22/2021 10:30:00 AM 14.21 57.578 0.305 7.35 570.8 9.91
10/22/2021 10:45:00 AM 14.21 57.578 0.304 7.36 524.7 10.11
10/22/2021 11:00:00 AM 14.24 57.632 0.304 7.37 481.5 10.13
10/22/2021 11:15:00 AM 14.22 57.596 0.304 7.41 424.5 10.24
10/22/2021 11:30:00 AM 14.28 57.704 0.304 7.43 384.3 10.18
10/22/2021 11:45:00 AM 14.3 57.74 0.303 7.44 368.4 10.51
10/22/2021 12:00:00 PM 14.3 57.74 0.29 7.44 368.7 10.78
10/22/2021 12:15:00 PM 14.35 57.83 0.3 7.47 351.2 10.76
10/22/2021 12:30:00 PM 14.38 57.884 0.292 7.5 358 10.78
10/22/2021 12:45:00 PM 14.42 57.956 0.302 7.53 347.8 11.2
10/22/2021 1:00:00 PM 14.44 57.992 0.301 7.55 350.4 10.47
10/22/2021 1:15:00 PM 14.48 58.064 0.301 7.55 355.4 11.07
10/22/2021 1:30:00 PM 14.52 58.136 0.29 7.57 341.1 11.22
10/22/2021 1:45:00 PM 14.55 58.19 0.3 7.62 341 10.67
10/22/2021 2:00:00 PM 14.62 58.316 0.299 7.68 335.9 11.62
10/22/2021 2:15:00 PM 14.68 58.424 0.297 7.69 334.4 11.73
10/22/2021 2:30:00 PM 14.67 58.406 0.295 7.72 341.3 11.92
10/22/2021 2:45:00 PM 14.71 58.478 0.291 7.74 335.9 11.62
10/22/2021 3:00:00 PM 14.72 58.496 0.287 7.77 324.9 11.6
10/22/2021 3:15:00 PM 14.75 58.55 0.296 7.8 327.3 11.64
10/22/2021 3:30:00 PM 14.82 58.676 0.296 7.79 335 11.86
10/22/2021 3:45:00 PM 14.82 58.676 0.296 7.82 366.3 11.72
10/22/2021 4:00:00 PM 14.81 58.658 0.296 7.83 345.2 11.58
10/22/2021 4:15:00 PM 14.85 58.73 0.296 7.81 331.7 11.56
10/22/2021 4:30:00 PM 14.83 58.694 0.296 7.82 322.5 11.9
10/22/2021 4:45:00 PM 14.85 58.73 0.296 7.84 190 11.1
10/22/2021 5:00:00 PM 14.82 58.676 0.294 7.87 193.3 11.34
10/22/2021 5:15:00 PM 14.81 58.658 0.296 7.89 338.4 11.57
10/22/2021 5:30:00 PM 14.79 58.622 0.289 7.9 344.9 11.55
10/22/2021 5:45:00 PM 14.79 58.622 0.293 7.88 349.4 10.67
10/22/2021 6:00:00 PM 14.77 58.586 0.293 7.86 328.6 11.14
10/22/2021 6:15:00 PM 14.76 58.568 0.294 7.87 315.2 11.1
10/22/2021 6:30:00 PM 14.75 58.55 0.294 7.87 316.4 10.99
10/22/2021 6:45:00 PM 14.74 58.532 0.294 7.85 416.4 10.46
10/22/2021 7:00:00 PM 14.67 58.406 0.294 7.83 380.7 10.2
10/22/2021 7:15:00 PM 14.68 58.424 0.288 7.83 459.6 10.29
10/22/2021 7:30:00 PM 14.68 58.424 0.295 7.79 352.3 10.41
10/22/2021 7:45:00 PM 14.67 58.406 0.297 7.75 308.9 9.93
10/22/2021 8:00:00 PM 14.65 58.37 0.297 7.73 307 10.22
10/22/2021 8:15:00 PM 14.61 58.298 0.297 7.72 296.4 10.16
10/22/2021 8:30:00 PM 14.57 58.226 0.296 7.71 270.6 10.02
10/22/2021 8:45:00 PM 14.59 58.262 0.293 7.72 254.7 9.76
10/22/2021 9:00:00 PM 14.58 58.244 0.297 7.69 253.9 9.48
10/22/2021 9:15:00 PM 14.59 58.262 0.297 7.66 248.7 9.56
10/22/2021 9:30:00 PM 14.55 58.19 0.298 7.65 240.6 9.44
10/22/2021 9:45:00 PM 14.54 58.172 0.299 7.62 245.3 9.42
10/22/2021 10:00:00 PM 14.52 58.136 0.294 7.61 249.2 9.38
10/22/2021 10:15:00 PM 14.5 58.1 0.3 7.6 238.2 9.11
10/22/2021 10:30:00 PM 14.53 58.154 0.301 7.58 233 8.67
10/22/2021 10:45:00 PM 14.49 58.082 0.302 7.56 231.5 8.64
10/22/2021 11:00:00 PM 14.42 57.956 0.299 7.54 231.3 9.06
10/22/2021 11:15:00 PM 14.44 57.992 0.303 7.53 230.1 9.11
10/22/2021 11:30:00 PM 14.41 57.938 0.303 7.52 229 9.13
10/22/2021 11:45:00 PM 14.4 57.92 0.302 7.52 227.6 9.01
10/23/2021 12:00:00 AM 14.4 57.92 0.303 7.49 224 8.23
10/23/2021 12:15:00 AM 14.41 57.938 0.297 7.48 242.9 8.48
10/23/2021 12:30:00 AM 14.37 57.866 0.303 7.46 437.1 8.93
10/23/2021 12:45:00 AM 14.34 57.812 0.303 7.46 480 8.83
10/23/2021 1:00:00 AM 14.36 57.848 0.303 7.45 357.9 8.41
10/23/2021 1:15:00 AM 14.34 57.812 0.303 7.46 407.1 8.79
10/23/2021 1:30:00 AM 14.33 57.794 0.303 7.44 889.1 8.82
10/23/2021 1:45:00 AM 14.3 57.74 0.303 7.43 596 8.62
10/23/2021 2:00:00 AM 14.31 57.758 0.304 7.42 423.6 8.74
10/23/2021 2:15:00 AM 14.29 57.722 0.303 7.41 420.9 8.87
10/23/2021 2:30:00 AM 14.27 57.686 0.303 7.44 420.9 8.94
10/23/2021 2:45:00 AM 14.28 57.704 0.302 7.42 420.4 8.87
10/23/2021 3:00:00 AM 14.26 57.668 0.302 7.41 414.5 8.64
10/23/2021 3:15:00 AM 14.25 57.65 0.301 7.4 414 8.72
10/23/2021 3:30:00 AM 14.25 57.65 0.301 7.41 413.3 8.78
10/23/2021 3:45:00 AM 14.24 57.632 0.301 7.39 407.5 8.72
10/23/2021 4:00:00 AM 14.21 57.578 0.301 7.38 405.6 8.76
10/23/2021 4:15:00 AM 14.22 57.596 0.302 7.38 404.3 8.74
10/23/2021 4:30:00 AM 14.21 57.578 0.302 7.37 402.3 8.61
10/23/2021 4:45:00 AM 14.19 57.542 0.302 7.38 658.7 8.48
10/23/2021 5:00:00 AM 14.16 57.488 0.297 7.38 636.2 8.74
10/23/2021 5:15:00 AM 14.14 57.452 0.301 7.36 631.3 8.76
10/23/2021 5:30:00 AM 14.12 57.416 0.301 7.35 623.9 8.23
10/23/2021 5:45:00 AM 14.11 57.398 0.301 7.36 632.6 8.76
10/23/2021 6:00:00 AM 14.07 57.326 0.301 7.39 612 8.81
10/23/2021 6:15:00 AM 14.09 57.362 0.292 7.38 606.3 8.75
10/23/2021 6:30:00 AM 14.08 57.344 0.301 7.38 604.8 8.7
10/23/2021 6:45:00 AM 14.04 57.272 0.302 7.37 603.2 8.69
10/23/2021 7:00:00 AM 14.04 57.272 0.301 7.3 611.3 8.78
10/23/2021 7:15:00 AM 14.05 57.29 0.288 7.33 618.2 8.1
10/23/2021 7:30:00 AM 14 57.2 0.303 7.29 615.8 8.53
10/23/2021 7:45:00 AM 13.98 57.164 0.302 7.3 481.1 8.75
10/23/2021 8:00:00 AM 13.98 57.164 0.295 7.27 455 8.85
10/23/2021 8:15:00 AM 13.97 57.146 0.297 7.28 443.3 8.81
10/23/2021 8:30:00 AM 13.94 57.092 0.294 7.28 421.7 8.85
10/23/2021 8:45:00 AM 13.98 57.164 0.304 7.26 231.6 8.69
10/23/2021 9:00:00 AM 13.87 56.966 0.305 7.27 1603 8.81
10/23/2021 9:15:00 AM 13.88 56.984 0.304 7.31 166.6 8.86
10/23/2021 9:30:00 AM 13.89 57.002 0.293 7.31 167.2 9.17
10/23/2021 9:45:00 AM 13.88 56.984 0.302 7.32 168 9.27
10/23/2021 10:00:00 AM 13.9 57.02 0.302 7.32 171.8 9.41
10/23/2021 10:15:00 AM 13.92 57.056 0.302 7.34 174.9 9.39
10/23/2021 10:30:00 AM 13.93 57.074 0.302 7.39 175.8 9.49
10/23/2021 10:45:00 AM 13.88 56.984 0.302 7.4 177.3 9.69
10/23/2021 11:00:00 AM 13.86 56.948 0.301 7.38 178.7 9.74
10/23/2021 11:15:00 AM 13.89 57.002 0.301 7.42 180.4 9.85
10/23/2021 11:30:00 AM 13.87 56.966 0.301 7.42 180.5 9.89
10/23/2021 11:45:00 AM 13.86 56.948 0.3 7.43 180.6 9.97
10/23/2021 12:00:00 PM 13.89 57.002 0.3 7.47 180.5 10.14
10/23/2021 12:15:00 PM 13.9 57.02 0.3 7.44 200.6 10.25
10/23/2021 12:30:00 PM 13.9 57.02 0.299 7.46 201 10.33
10/23/2021 12:45:00 PM 13.95 57.11 0.299 7.47 205.1 10.43
10/23/2021 1:00:00 PM 13.98 57.164 0.299 7.49 204.9 10.64
10/23/2021 1:15:00 PM 14 57.2 0.299 7.51 204 10.86
10/23/2021 1:30:00 PM 14.03 57.254 0.299 7.54 204.1 10.93
10/23/2021 1:45:00 PM 14.06 57.308 0.299 7.48 272 11
10/23/2021 2:00:00 PM 14.07 57.326 0.299 7.45 390.2 11.06
10/23/2021 2:15:00 PM 14.07 57.326 0.299 7.54 368.7 11.1
10/23/2021 2:30:00 PM 14.11 57.398 0.299 7.55 362.6 11.07
10/23/2021 2:45:00 PM 14.12 57.416 0.299 7.57 352.9 10.37
10/23/2021 3:00:00 PM 14.06 57.308 0.303 7.44 348.6 10.07
10/23/2021 3:15:00 PM 14.08 57.344 0.307 7.45 346.3 9.51
10/23/2021 3:30:00 PM 14.13 57.434 0.306 7.46 345.1 10.03
10/23/2021 3:45:00 PM 14.16 57.488 0.305 7.49 349.2 10.66
10/23/2021 4:00:00 PM 14.16 57.488 0.295 7.54 362 10.81
10/23/2021 4:15:00 PM 14.12 57.416 0.298 7.55 358.2 10.36
10/23/2021 4:30:00 PM 14.14 57.452 0.304 7.58 423.5 10.7
10/23/2021 4:45:00 PM 14.14 57.452 0.292 7.59 427.1 10.67
10/23/2021 5:00:00 PM 14.14 57.452 0.3 7.62 466.1 10.86
10/23/2021 5:15:00 PM 14.1 57.38 0.301 7.64 819.7 10.92
10/23/2021 5:30:00 PM 14.09 57.362 0.3 7.64 1022 10.75
10/23/2021 5:45:00 PM 14.09 57.362 0.289 7.62 1083 10.1
10/23/2021 6:00:00 PM 14.06 57.308 0.299 7.63 1434 10.4
10/23/2021 6:15:00 PM 14.02 57.236 0.298 7.66 634.2 10.5
10/23/2021 6:30:00 PM 13.99 57.182 0.287 7.64 656.2 10.46
10/23/2021 6:45:00 PM 13.98 57.164 0.298 7.61 478.7 10.19
10/23/2021 7:00:00 PM 13.97 57.146 0.298 7.61 324.1 10.24
10/23/2021 7:15:00 PM 13.9 57.02 0.298 7.61 333.1 10.2
10/23/2021 7:30:00 PM 13.91 57.038 0.298 7.62 332.9 10.09
10/23/2021 7:45:00 PM 13.88 56.984 0.289 7.62 331.2 10.03
10/23/2021 8:00:00 PM 13.89 57.002 0.299 7.59 330.9 9.93
10/23/2021 8:15:00 PM 13.85 56.93 0.299 7.6 327.8 9.96
10/23/2021 8:30:00 PM 13.79 56.822 0.299 7.59 334.5 9.87
10/23/2021 8:45:00 PM 13.78 56.804 0.292 7.59 328.2 9.74
10/23/2021 9:00:00 PM 13.74 56.732 0.299 7.58 332.7 9.66
10/23/2021 9:15:00 PM 13.68 56.624 0.299 7.56 335.6 9.72
10/23/2021 9:30:00 PM 13.71 56.678 0.299 7.56 331.8 9.61
10/23/2021 9:45:00 PM 13.71 56.678 0.3 7.55 323.6 9.41
10/23/2021 10:00:00 PM 13.64 56.552 0.29 7.53 357.7 9.42
10/23/2021 10:15:00 PM 13.61 56.498 0.301 7.53 357.3 9.46
10/23/2021 10:30:00 PM 13.59 56.462 0.302 7.51 348.1 9.4
10/23/2021 10:45:00 PM 13.63 56.534 0.29 7.46 347.5 9.27
10/23/2021 11:00:00 PM 13.5 56.3 0.305 7.46 359 9.36
10/23/2021 11:15:00 PM 13.53 56.354 0.293 7.46 357.3 9.22
10/23/2021 11:30:00 PM 13.48 56.264 0.304 7.46 572.1 9.37
10/23/2021 11:45:00 PM 13.44 56.192 0.306 7.45 410.3 9.38
10/24/2021 12:00:00 AM 13.35 56.03 0.308 7.44 456.9 9.3
10/24/2021 12:15:00 AM 13.33 55.994 0.309 7.44 435 8.58
10/24/2021 12:30:00 AM 13.18 55.724 0.312 7.41 454.9 8.57
10/24/2021 12:45:00 AM 13.3 55.94 0.312 7.43 459.8 8.9
10/24/2021 1:00:00 AM 13.33 55.994 0.312 7.43 459.5 8.95
10/24/2021 1:15:00 AM 13.25 55.85 0.312 7.46 455.5 9.18
10/24/2021 1:30:00 AM 13.21 55.778 0.311 7.45 448.3 9.23
10/24/2021 1:45:00 AM 13.26 55.868 0.309 7.45 433.1 9.19
10/24/2021 2:00:00 AM 13.05 55.49 0.301 7.44 433 9.13
10/24/2021 2:15:00 AM 13.02 55.436 0.31 7.45 444.2 9.22
10/24/2021 2:30:00 AM 13.08 55.544 0.309 7.45 447.6 8.86
10/24/2021 2:45:00 AM 12.97 55.346 0.302 7.41 636.5 9.05
10/24/2021 3:00:00 AM 12.86 55.148 0.307 7.39 554.7 9.21
10/24/2021 3:15:00 AM 13.02 55.436 0.306 7.43 549.1 9.19
10/24/2021 3:30:00 AM 12.94 55.292 0.295 7.41 612 8.88
10/24/2021 3:45:00 AM 12.72 54.896 0.307 7.38 586.3 9.12
10/24/2021 4:00:00 AM 12.93 55.274 0.295 7.39 546.7 9.22
10/24/2021 4:15:00 AM 12.89 55.202 0.304 7.38 532.5 8.35
10/24/2021 4:30:00 AM 12.71 54.878 0.306 7.35 521.6 8.85
10/24/2021 4:45:00 AM 12.7 54.86 0.307 7.33 520.5 9.13
10/24/2021 5:00:00 AM 12.61 54.698 0.293 7.33 544.5 9.27
10/24/2021 5:15:00 AM 12.86 55.148 0.305 7.31 540 9.06
10/24/2021 5:30:00 AM 12.51 54.518 0.307 7.26 543.9 9.24
10/24/2021 5:45:00 AM 12.59 54.662 0.306 7.26 539.7 9.31
10/24/2021 6:00:00 AM 12.75 54.95 0.304 7.23 537.1 9.17
10/24/2021 6:15:00 AM 12.63 54.734 0.305 7.21 565 9.22
10/24/2021 6:30:00 AM 12.58 54.644 0.304 7.22 557.2 9.19
10/24/2021 6:45:00 AM 12.41 54.338 0.305 7.22 553.4 9.32
10/24/2021 7:00:00 AM 12.66 54.788 0.299 7.24 540.6 9.18
10/24/2021 7:15:00 AM 12.69 54.842 0.304 7.22 602.1 9.13
10/24/2021 7:30:00 AM 12.33 54.194 0.306 7.22 597.8 9.38
10/24/2021 7:45:00 AM 12.57 54.626 0.304 7.23 592.4 9.35
10/24/2021 8:00:00 AM 12.56 54.608 0.305 7.23 591.1 9.08
10/24/2021 8:15:00 AM 12.46 54.428 0.306 7.22 581.5 9.18
10/24/2021 8:30:00 AM 12.52 54.536 0.306 7.23 584.1 9.07
10/24/2021 8:45:00 AM 12.51 54.518 0.307 7.23 548.7 9.06
10/24/2021 9:00:00 AM 12.61 54.698 0.308 7.21 542.9 9.22
10/24/2021 9:15:00 AM 12.39 54.302 0.31 7.2 546.1 9.45
10/24/2021 9:30:00 AM 12.42 54.356 0.311 7.2 545.2 9.54
10/24/2021 9:45:00 AM 12.42 54.356 0.309 7.24 542.2 9.63
10/24/2021 10:00:00 AM 12.36 54.248 0.31 7.22 535.8 9.62
10/24/2021 10:15:00 AM 12.4 54.32 0.31 7.25 532.7 9.71
10/24/2021 10:30:00 AM 12.32 54.176 0.31 7.24 532.3 9.94
10/24/2021 10:45:00 AM 12.34 54.212 0.309 7.28 526.8 10
10/24/2021 11:00:00 AM 12.43 54.374 0.306 7.25 513.9 10.07
10/24/2021 11:15:00 AM 12.39 54.302 0.307 7.26 512.2 10.28
10/24/2021 11:30:00 AM 12.36 54.248 0.307 7.28 512.9 10.41
10/24/2021 11:45:00 AM 12.43 54.374 0.307 7.31 507.5 10.56
10/24/2021 12:00:00 PM 12.47 54.446 0.307 7.32 505.3 10.6
10/24/2021 12:15:00 PM 12.44 54.392 0.308 7.32 517.1 10.74
10/24/2021 12:30:00 PM 12.45 54.41 0.307 7.33 507.7 10.8
10/24/2021 12:45:00 PM 12.47 54.446 0.308 7.36 507.4 10.98
10/24/2021 1:00:00 PM 12.53 54.554 0.307 7.38 504.7 11.12
10/24/2021 1:15:00 PM 12.53 54.554 0.307 7.41 506.1 11.21
10/24/2021 1:30:00 PM 12.55 54.59 0.307 7.41 530.6 11.4
10/24/2021 1:45:00 PM 12.6 54.68 0.306 7.43 568.4 11.48
10/24/2021 2:00:00 PM 12.63 54.734 0.297 7.47 574.9 11.7
10/24/2021 2:15:00 PM 12.68 54.824 0.304 7.5 586.5 11.81
10/24/2021 2:30:00 PM 12.71 54.878 0.302 7.56 635.7 11.84
10/24/2021 2:45:00 PM 12.76 54.968 0.3 7.57 546.8 11.91
10/24/2021 3:00:00 PM 12.84 55.112 0.292 7.6 546.7 12.09
10/24/2021 3:15:00 PM 12.88 55.184 0.299 7.62 549.8 12.12
10/24/2021 3:30:00 PM 12.9 55.22 0.299 7.63 550.1 11.88
10/24/2021 3:45:00 PM 12.97 55.346 0.298 7.67 550.3 12.06
10/24/2021 4:00:00 PM 13 55.4 0.298 7.67 553.4 12.29
10/24/2021 4:15:00 PM 13.03 55.454 0.298 7.68 546.9 12.19
10/24/2021 4:30:00 PM 13.05 55.49 0.297 7.71 541.1 12.35
10/24/2021 4:45:00 PM 13.08 55.544 0.297 7.72 541.9 12.32
10/24/2021 5:00:00 PM 13.11 55.598 0.297 7.69 542.6 12.22
10/24/2021 5:15:00 PM 13.08 55.544 0.297 7.69 540.1 12.14
10/24/2021 5:30:00 PM 13.11 55.598 0.297 7.7 546.1 12
10/24/2021 5:45:00 PM 13.11 55.598 0.297 7.72 539.6 11.9
10/24/2021 6:00:00 PM 13.11 55.598 0.297 7.73 546.4 11.59
10/24/2021 6:15:00 PM 13.13 55.634 0.293 7.7 548.7 11.46
10/24/2021 6:30:00 PM 13.11 55.598 0.296 7.7 551.2 11.19
10/24/2021 6:45:00 PM 13.18 55.724 0.302 7.64 547.4 11.04
10/24/2021 7:00:00 PM 13.18 55.724 0.302 7.63 537.9 10.93
10/24/2021 7:15:00 PM 13.2 55.76 0.302 7.59 539.1 10.84
10/24/2021 7:30:00 PM 13.15 55.67 0.303 7.59 540.4 10.86
10/24/2021 7:45:00 PM 13.14 55.652 0.303 7.63 636.4 10.79
10/24/2021 8:00:00 PM 13.13 55.634 0.303 7.57 646.9 10.6
10/24/2021 8:15:00 PM 13.13 55.634 0.303 7.6 753.4 10.58
10/24/2021 8:30:00 PM 13.14 55.652 0.29 7.56 1447 10.46
10/24/2021 8:45:00 PM 13.17 55.706 0.296 7.58 934.8 10.4
10/24/2021 9:00:00 PM 13.18 55.724 0.302 7.56 722.9 10.25
10/24/2021 9:15:00 PM 13.13 55.634 0.303 7.55 700.2 10.1
10/24/2021 9:30:00 PM 13.11 55.598 0.301 7.54 638.9 9.41
10/24/2021 9:45:00 PM 13.2 55.76 0.303 7.48 1611 9.08
10/24/2021 10:00:00 PM 13.19 55.742 0.303 7.48 1220 9.34
10/24/2021 10:15:00 PM 13.18 55.724 0.304 7.43 533.2 9.62
10/24/2021 10:30:00 PM 13.18 55.724 0.305 7.42 550.2 9.49
10/24/2021 10:45:00 PM 13.19 55.742 0.305 7.42 935.7 9.72
10/24/2021 11:00:00 PM 13.18 55.724 0.306 7.43 947.8 9.41
10/24/2021 11:15:00 PM 13.18 55.724 0.305 7.45 1944 9.69
10/24/2021 11:30:00 PM 13.19 55.742 0.305 7.43 1748 8.87
10/24/2021 11:45:00 PM 13.18 55.724 0.3 7.42 1839 9.49
10/25/2021 12:00:00 AM 13.17 55.706 0.305 7.4 1759 9.45
10/25/2021 12:15:00 AM 13.19 55.742 0.305 7.37 1713 9.52
10/25/2021 12:30:00 AM 13.19 55.742 0.305 7.4 1666 9.46
10/25/2021 12:45:00 AM 13.24 55.832 0.306 7.4 1634 8.93
10/25/2021 1:00:00 AM 13.24 55.832 0.306 7.34 1560 9.06
10/25/2021 1:15:00 AM 13.22 55.796 0.296 7.35 1492 9.04
10/25/2021 1:30:00 AM 13.26 55.868 0.296 7.41 1476 9.25
10/25/2021 1:45:00 AM 13.26 55.868 0.306 7.34 1453 9.1
10/25/2021 2:00:00 AM 13.22 55.796 0.306 7.33 1320 8.92
10/25/2021 2:15:00 AM 13.21 55.778 0.299 7.35 1289 9.33
10/25/2021 2:30:00 AM 13.2 55.76 0.306 7.33 1280 9.31
10/25/2021 2:45:00 AM 13.2 55.76 0.306 7.27 1224 9.17
10/25/2021 3:00:00 AM 13.2 55.76 0.305 7.33 1195 9.09
10/25/2021 3:15:00 AM 13.22 55.796 0.29 7.32 1390 9.03
10/25/2021 3:30:00 AM 13.21 55.778 0.303 7.31 1243 8.53
10/25/2021 3:45:00 AM 13.18 55.724 0.296 7.3 1183 8.93
10/25/2021 4:00:00 AM 13.17 55.706 0.305 7.31 1130 9.1
10/25/2021 4:15:00 AM 13.12 55.616 0.296 7.29 1023 9.13
10/25/2021 4:30:00 AM 13.13 55.634 0.304 7.3 1008 9.17
10/25/2021 4:45:00 AM 13.13 55.634 0.303 7.29 919.7 9.16
10/25/2021 5:00:00 AM 13.1 55.58 0.303 7.29 928 9.14
10/25/2021 5:15:00 AM 13.07 55.526 0.302 7.29 911.1 9.17
10/25/2021 5:30:00 AM 13.06 55.508 0.302 7.28 898.7 9.17
10/25/2021 5:45:00 AM 13.07 55.526 0.289 7.26 4975 9.14
10/25/2021 6:00:00 AM 13.03 55.454 0.29 7.13 1844 9.18
10/25/2021 6:15:00 AM 13.06 55.508 0.301 7.13 959 8.95
10/25/2021 6:30:00 AM 13.06 55.508 0.302 7.16 901.3 8.77
10/25/2021 6:45:00 AM 13.08 55.544 0.302 7.17 878.1 7.98
10/25/2021 7:00:00 AM 13.07 55.526 0.303 7.15 942.5 8.74
10/25/2021 7:15:00 AM 13.02 55.436 0.299 7.17 920.7 7.81
10/25/2021 7:30:00 AM 13 55.4 0.305 7.19 874 8.55
10/25/2021 7:45:00 AM 12.99 55.382 0.306 7.17 1362 8.24
10/25/2021 8:00:00 AM 13 55.4 0.305 7.18 1453 8.9
10/25/2021 8:15:00 AM 12.8 55.04 0.309 7.18 1377 8.75
10/25/2021 8:30:00 AM 12.94 55.292 0.303 7.19 1320 9.14
10/25/2021 8:45:00 AM 12.92 55.256 0.302 7.2 823.8 9.15
10/25/2021 9:00:00 AM 12.9 55.22 0.295 7.2 919.9 8.96
10/25/2021 9:15:00 AM 12.9 55.22 0.307 7.21 843.2 9.37
10/25/2021 9:30:00 AM 12.98 55.364 0.307 7.2 856.2 9.31
10/25/2021 9:45:00 AM 12.99 55.382 0.307 7.19 832.2 8.6
10/25/2021 10:00:00 AM 12.99 55.382 0.302 7.17 777 9.44
10/25/2021 10:15:00 AM 12.99 55.382 0.302 7.18 770.3 9.25
10/25/2021 10:30:00 AM 12.99 55.382 0.305 7.19 792.7 9.92
10/25/2021 10:45:00 AM 12.97 55.346 0.307 7.2 740.9 10.04
10/25/2021 11:00:00 AM 13.05 55.49 0.306 7.19 762.1 10.17
10/25/2021 11:15:00 AM 13.1 55.58 0.305 7.17 770.9 9.73
10/25/2021 11:30:00 AM 13.15 55.67 0.305 7.19 754.7 10.11
10/25/2021 11:45:00 AM 13.17 55.706 0.304 7.18 680.3 9.5
10/25/2021 12:00:00 PM 13.23 55.814 0.303 7.2 636.5 9.83
10/25/2021 12:15:00 PM 13.25 55.85 0.294 7.22 838.9 10.72
10/25/2021 12:30:00 PM 13.3 55.94 0.302 7.23 581.1 10.96
10/25/2021 12:45:00 PM 13.34 56.012 0.3 7.25 575 11.25
10/25/2021 1:00:00 PM 13.38 56.084 0.299 7.29 570 11.21
10/25/2021 1:15:00 PM 13.43 56.174 0.299 7.32 606.7 11.34
10/25/2021 1:30:00 PM 13.5 56.3 0.297 7.33 544.9 11.31
10/25/2021 1:45:00 PM 13.55 56.39 0.293 7.35 532.6 11.02
10/25/2021 2:00:00 PM 13.63 56.534 0.289 7.37 687.1 11.47
10/25/2021 2:15:00 PM 13.67 56.606 0.289 7.41 618.7 11.32
10/25/2021 2:30:00 PM 13.73 56.714 0.286 7.41 609.1 11.15
10/25/2021 2:45:00 PM 13.8 56.84 0.295 7.43 587.1 11.47
10/25/2021 3:00:00 PM 13.85 56.93 0.294 7.43 578.2 10.33
10/25/2021 3:15:00 PM 13.92 57.056 0.294 7.48 588.3 11.27
10/25/2021 3:30:00 PM 13.95 57.11 0.294 7.49 585.3 10.76
10/25/2021 3:45:00 PM 14.02 57.236 0.294 7.53 1037 11.8
10/25/2021 4:00:00 PM 14.06 57.308 0.289 7.59 590.3 11.9
10/25/2021 4:15:00 PM 14.1 57.38 0.293 7.6 587.5 12.09
10/25/2021 4:30:00 PM 14.14 57.452 0.293 7.65 605.1 12.05
10/25/2021 4:45:00 PM 14.19 57.542 0.293 7.65 603.6 12
10/25/2021 5:00:00 PM 14.23 57.614 0.292 7.66 588.8 11.7
10/25/2021 5:15:00 PM 14.25 57.65 0.293 7.69 592.7 11.57
10/25/2021 5:30:00 PM 14.26 57.668 0.293 7.71 580.7 11.66
10/25/2021 5:45:00 PM 14.27 57.686 0.283 7.72 575.8 11.19
10/25/2021 6:00:00 PM 14.26 57.668 0.293 7.74 577.1 10.66
10/25/2021 6:15:00 PM 14.26 57.668 0.287 7.88 559.7 11.05
10/25/2021 6:30:00 PM 14.29 57.722 0.294 7.92 544.3 10.33
10/25/2021 6:45:00 PM 14.32 57.776 0.285 7.92 537.6 10.73
10/25/2021 7:00:00 PM 14.33 57.794 0.294 7.95 551.8 9.71
10/25/2021 7:15:00 PM 14.35 57.83 0.283 8.02 545.5 10.24
10/25/2021 7:30:00 PM 14.35 57.83 0.294 8.08 528.2 10.51
10/25/2021 7:45:00 PM 14.37 57.866 0.283 8.09 516.4 10.42
10/25/2021 8:00:00 PM 14.38 57.884 0.287 8.13 501.7 10.3
10/25/2021 8:15:00 PM 14.39 57.902 0.283 8.12 553.8 10.19
10/25/2021 8:30:00 PM 14.37 57.866 0.284 8.13 592 10.11
10/25/2021 8:45:00 PM 14.41 57.938 0.295 8.11 597.5 9.9
10/25/2021 9:00:00 PM 14.42 57.956 0.291 8.08 608.3 9.82
10/25/2021 9:15:00 PM 14.42 57.956 0.295 8.06 591.4 9.69
10/25/2021 9:30:00 PM 14.43 57.974 0.296 8.03 583.2 9.3
10/25/2021 9:45:00 PM 14.45 58.01 0.285 8 577.7 9.25
10/25/2021 10:00:00 PM 14.47 58.046 0.284 7.95 581.8 9.38
10/25/2021 10:15:00 PM 14.48 58.064 0.286 7.93 585.4 9.31
10/25/2021 10:30:00 PM 14.51 58.118 0.296 7.93 577.5 9.29
10/25/2021 10:45:00 PM 14.51 58.118 0.288 7.89 840.3 9.23
10/25/2021 11:00:00 PM 14.54 58.172 0.297 7.84 1802 9.14
10/25/2021 11:15:00 PM 14.56 58.208 0.288 7.82 553.9 9.18
10/25/2021 11:30:00 PM 14.55 58.19 0.297 7.8 543.1 9.06
10/25/2021 11:45:00 PM 14.58 58.244 0.297 7.74 539.4 8.76
10/26/2021 12:00:00 AM 14.56 58.208 0.287 7.72 531.6 8.99
10/26/2021 12:15:00 AM 14.59 58.262 0.288 7.7 542.5 8.97
10/26/2021 12:30:00 AM 14.61 58.298 0.298 7.68 548.5 8.33
10/26/2021 12:45:00 AM 14.64 58.352 0.298 7.66 546.8 8.29
10/26/2021 1:00:00 AM 14.61 58.298 0.299 7.65 560.5 8.29
10/26/2021 1:15:00 AM 14.66 58.388 0.3 7.63 625.7 8.48
10/26/2021 1:30:00 AM 14.65 58.37 0.3 7.6 653.8 8.19
10/26/2021 1:45:00 AM 14.68 58.424 0.291 7.61 1890 8
10/26/2021 2:00:00 AM 14.68 58.424 0.301 7.58 3509 7.42
10/26/2021 2:15:00 AM 14.67 58.406 0.301 7.57 3146 8.23
10/26/2021 2:30:00 AM 14.68 58.424 0.3 7.55 2691 7.71
10/26/2021 2:45:00 AM 14.67 58.406 0.289 7.57 1442 6.88
10/26/2021 3:00:00 AM 14.69 58.442 0.292 7.55 1417 7.65
10/26/2021 3:15:00 AM 14.67 58.406 0.293 7.57 1538 7.43
10/26/2021 3:30:00 AM 14.68 58.424 0.301 7.52 2126 6.1
10/26/2021 3:45:00 AM 14.68 58.424 0.302 7.52 2208 7.21
10/26/2021 4:00:00 AM 14.69 58.442 0.302 7.51 2106 5.54
10/26/2021 4:15:00 AM 14.69 58.442 0.295 7.51 2079 7.57
10/26/2021 4:30:00 AM 14.69 58.442 0.305 7.48 2118 7.82
10/26/2021 4:45:00 AM 14.68 58.424 0.305 7.44 2143 7.97
10/26/2021 5:00:00 AM 14.67 58.406 0.304 7.45 1740 7.19
10/26/2021 5:15:00 AM 14.66 58.388 0.296 7.45 2873 6.92
10/26/2021 5:30:00 AM 14.66 58.388 0.294 7.43 805.4 7.85
10/26/2021 5:45:00 AM 14.66 58.388 0.29 7.4 888.8 7.98
10/26/2021 6:00:00 AM 14.67 58.406 0.294 7.37 826.2 7.77
10/26/2021 6:15:00 AM 14.65 58.37 0.302 7.35 828.3 7.35
10/26/2021 6:30:00 AM 14.66 58.388 0.301 7.34 931.4 7.02
10/26/2021 6:45:00 AM 14.65 58.37 0.298 7.34 952.1 7.67
10/26/2021 7:00:00 AM 14.64 58.352 0.289 7.31 971.1 7.78
10/26/2021 7:15:00 AM 14.64 58.352 0.3 7.3 976 7.94
10/26/2021 7:30:00 AM 14.63 58.334 0.3 7.31 4974 5.71
10/26/2021 7:45:00 AM 14.62 58.316 0.3 7.31 1921 7.23
10/26/2021 8:00:00 AM 14.61 58.298 0.301 7.26 2809 7.72
10/26/2021 8:15:00 AM 14.6 58.28 0.301 7.25 2528 7.42
10/26/2021 8:30:00 AM 14.59 58.262 0.303 7.24 2273 8.08
10/26/2021 8:45:00 AM 14.6 58.28 0.297 7.25 1788 8.56
10/26/2021 9:00:00 AM 14.6 58.28 0.303 7.24 1727 8.59
10/26/2021 9:15:00 AM 14.6 58.28 0.303 7.23 1706 8.53
10/26/2021 9:30:00 AM 14.61 58.298 0.302 7.22 1631 8.62
10/26/2021 9:45:00 AM 14.62 58.316 0.302 7.21 1628 8.79
10/26/2021 10:00:00 AM 14.62 58.316 0.302 7.2 1660 8.75
10/26/2021 10:15:00 AM 14.62 58.316 0.302 7.2 1523 8.86
10/26/2021 10:30:00 AM 14.63 58.334 0.302 7.24 1751 8.83
10/26/2021 10:45:00 AM 14.65 58.37 0.293 7.26 1730 9.01
10/26/2021 11:00:00 AM 14.66 58.388 0.289 7.27 1727 9.25
10/26/2021 11:15:00 AM 14.67 58.406 0.302 7.3 1617 9.26
10/26/2021 11:30:00 AM 14.69 58.442 0.297 7.3 1551 9.35
10/26/2021 11:45:00 AM 14.71 58.478 0.301 7.29 1503 9.62
10/26/2021 12:00:00 PM 14.74 58.532 0.301 7.3 1413 9.71
10/26/2021 12:15:00 PM 14.73 58.514 0.294 7.31 1351 9.65
10/26/2021 12:30:00 PM 14.75 58.55 0.291 7.31 1674 9.74
10/26/2021 12:45:00 PM 14.77 58.586 0.302 7.33 1511 9.87
10/26/2021 1:00:00 PM 14.79 58.622 0.302 7.35 1445 9.98
10/26/2021 1:15:00 PM 14.79 58.622 0.302 7.36 1473 10.09
10/26/2021 1:30:00 PM 14.77 58.586 0.303 7.39 1471 10.01
10/26/2021 1:45:00 PM 14.73 58.514 0.303 7.37 1457 10.01
10/26/2021 2:00:00 PM 14.72 58.496 0.303 7.37 1478 9.75
10/26/2021 2:15:00 PM 14.69 58.442 0.304 7.36 1424 9.8
10/26/2021 2:30:00 PM 14.69 58.442 0.304 7.36 1408 9.88
10/26/2021 2:45:00 PM 14.67 58.406 0.304 7.35 1341 10
10/26/2021 3:00:00 PM 14.65 58.37 0.304 7.33 1346 9.87
10/26/2021 3:15:00 PM 14.63 58.334 0.304 7.34 1350 9.95
10/26/2021 3:30:00 PM 14.61 58.298 0.304 7.35 1296 9.89
10/26/2021 3:45:00 PM 14.59 58.262 0.297 7.33 1266 9.8
10/26/2021 4:00:00 PM 14.54 58.172 0.303 7.34 1229 9.71
10/26/2021 4:15:00 PM 14.51 58.118 0.295 7.32 1197 9.66
10/26/2021 4:30:00 PM 14.48 58.064 0.303 7.32 1229 9.71
10/26/2021 4:45:00 PM 14.44 57.992 0.303 7.33 1251 9.65
10/26/2021 5:00:00 PM 14.41 57.938 0.303 7.31 1216 9.5
10/26/2021 5:15:00 PM 14.37 57.866 0.303 7.3 1106 9.44
10/26/2021 5:30:00 PM 14.35 57.83 0.298 7.27 1099 9.53
10/26/2021 5:45:00 PM 14.32 57.776 0.304 7.31 1067 9.49
10/26/2021 6:00:00 PM 14.26 57.668 0.304 7.28 1766 9.41
10/26/2021 6:15:00 PM 14.17 57.506 0.294 7.24 1712 9.1
10/26/2021 6:30:00 PM 14.18 57.524 0.303 7.23 1635 9
10/26/2021 6:45:00 PM 14.16 57.488 0.291 7.23 1496 9.12
10/26/2021 7:00:00 PM 14.14 57.452 0.304 7.23 1484 8.99
10/26/2021 7:15:00 PM 14.07 57.326 0.305 7.23 1493 8.94
10/26/2021 7:30:00 PM 14 57.2 0.297 7.2 1368 9.13
10/26/2021 7:45:00 PM 13.99 57.182 0.303 7.21 1348 9.25
10/26/2021 8:00:00 PM 13.93 57.074 0.289 7.21 1302 9.13
10/26/2021 8:15:00 PM 13.91 57.038 0.296 7.21 1277 8.7
10/26/2021 8:30:00 PM 13.83 56.894 0.295 7.21 2188 8.64
10/26/2021 8:45:00 PM 13.81 56.858 0.292 7.18 2915 8.69
10/26/2021 9:00:00 PM 13.81 56.858 0.294 7.15 2706 8.79
10/26/2021 9:15:00 PM 13.77 56.786 0.29 7.14 2880 8.71
10/26/2021 9:30:00 PM 13.76 56.768 0.302 7.13 2787 8.86
10/26/2021 9:45:00 PM 13.7 56.66 0.297 7.07 3064 8.71
10/26/2021 10:00:00 PM 13.65 56.57 0.3 7.08 3374 8.57
10/26/2021 10:15:00 PM 13.68 56.624 0.302 7.07 3728 8.64
10/26/2021 10:30:00 PM 13.65 56.57 0.296 7.06 3845 8.6
10/26/2021 10:45:00 PM 13.62 56.516 0.296 7.01 4329 8.56
10/26/2021 11:00:00 PM 13.55 56.39 0.302 7.01 3647 8.71
10/26/2021 11:15:00 PM 13.55 56.39 0.302 7 4975 8.62
10/26/2021 11:30:00 PM 13.52 56.336 0.302 7 4975 8.77
10/26/2021 11:45:00 PM 13.47 56.246 0.29 7 4354 8.62
10/27/2021 12:00:00 AM 13.49 56.282 0.301 6.99 4404 8.78
10/27/2021 12:15:00 AM 13.46 56.228 0.3 7 3800 8.87
10/27/2021 12:30:00 AM 13.49 56.282 0.293 7 4085 8.85
10/27/2021 12:45:00 AM 13.42 56.156 0.29 7 3740 8.96
10/27/2021 1:00:00 AM 13.46 56.228 0.291 6.98 3829 8.34
10/27/2021 1:15:00 AM 13.4 56.12 0.288 6.98 4413 8.8
10/27/2021 1:30:00 AM 13.35 56.03 0.29 7.01 4319 8.99
10/27/2021 1:45:00 AM 13.46 56.228 0.29 7.01 4975 8.44
10/27/2021 2:00:00 AM 13.48 56.264 0.295 6.99 4400 8.65
10/27/2021 2:15:00 AM 13.42 56.156 0.301 7 3979 8.27
10/27/2021 2:30:00 AM 13.28 55.904 0.295 7 4274 8.77
10/27/2021 2:45:00 AM 13.44 56.192 0.285 6.99 3581 8.65
10/27/2021 3:00:00 AM 13.45 56.21 0.286 6.95 4250 8.65
10/27/2021 3:15:00 AM 13.38 56.084 0.298 6.94 4157 8.74
10/27/2021 3:30:00 AM 13.31 55.958 0.301 6.95 4130 8.71
10/27/2021 3:45:00 AM 13.39 56.102 0.299 6.96 4100 8.62
10/27/2021 4:00:00 AM 13.28 55.904 0.289 6.97 4084 8.86
10/27/2021 4:15:00 AM 13.3 55.94 0.286 6.97 4210 8.87
10/27/2021 4:30:00 AM 13.32 55.976 0.286 6.97 4095 8.76
10/27/2021 4:45:00 AM 13.17 55.706 0.286 6.98 4122 8.8
10/27/2021 5:00:00 AM 13.18 55.724 0.288 6.98 4185 8.71
10/27/2021 5:15:00 AM 13.28 55.904 0.297 6.96 4329 8.67
10/27/2021 5:30:00 AM 13.24 55.832 0.299 6.94 4701 8.83
10/27/2021 5:45:00 AM 13.21 55.778 0.297 6.97 4974 8.72
10/27/2021 6:00:00 AM 13.23 55.814 0.29 6.99 4975 8.59
10/27/2021 6:15:00 AM 13.27 55.886 0.293 7.01 4975 8.71
10/27/2021 6:30:00 AM 13.19 55.742 0.298 7.02 4975 8.8
10/27/2021 6:45:00 AM 13.11 55.598 0.289 6.99 4975 8.65
10/27/2021 7:00:00 AM 13.19 55.742 0.3 6.98 4975 8.62
10/27/2021 7:15:00 AM 13.08 55.544 0.295 6.99 4975 8.65
10/27/2021 7:30:00 AM 13.1 55.58 0.299 6.94 3549 8.34
10/27/2021 7:45:00 AM 13.1 55.58 0.299 6.9 3405 8.73
10/27/2021 8:00:00 AM 13.06 55.508 0.298 6.92 3269 8.89
10/27/2021 8:15:00 AM 13.08 55.544 0.286 6.87 3272 8.82
10/27/2021 8:30:00 AM 13.06 55.508 0.297 6.87 2769 8.77
10/27/2021 8:45:00 AM 13.1 55.58 0.289 6.84 3220 8.64
10/27/2021 9:00:00 AM 13.12 55.616 0.29 6.84 3251 7.58
10/27/2021 9:15:00 AM 13.06 55.508 0.292 6.84 3151 8.43
10/27/2021 9:30:00 AM 13.14 55.652 0.299 6.83 2628 8.29
10/27/2021 9:45:00 AM 13.11 55.598 0.295 6.82 2626 8.56
10/27/2021 10:00:00 AM 13.21 55.778 0.29 6.82 2611 7.45
10/27/2021 10:15:00 AM 13.14 55.652 0.3 6.8 2505 8.39
10/27/2021 10:30:00 AM 13.21 55.778 0.299 6.77 2423 8.86
10/27/2021 10:45:00 AM 13.27 55.886 0.297 6.77 2787 6.24
10/27/2021 11:00:00 AM 13.3 55.94 0.296 6.78 2768 5.11
10/27/2021 11:15:00 AM 13.31 55.958 0.295 6.78 2703 5.98
10/27/2021 11:30:00 AM 13.33 55.994 0.293 6.8 2633 7.99
10/27/2021 11:45:00 AM 13.35 56.03 0.279 6.83 2576 8.62
10/27/2021 12:00:00 PM 13.34 56.012 0.292 6.82 2473 8.63
10/27/2021 12:15:00 PM 13.37 56.066 0.291 6.85 2422 7.89
10/27/2021 12:30:00 PM 13.39 56.102 0.291 6.84 2582 9.59
10/27/2021 12:45:00 PM 13.4 56.12 0.29 6.86 2149 9.42
10/27/2021 1:00:00 PM 13.46 56.228 0.289 6.97 2243 9.2
10/27/2021 1:15:00 PM 13.5 56.3 0.28 6.96 2438 9.23
10/27/2021 1:30:00 PM 13.54 56.372 0.281 6.99 2441 10.04
10/27/2021 1:45:00 PM 13.61 56.498 0.28 6.93 2402 10.78
10/27/2021 2:00:00 PM 13.66 56.588 0.285 7.02 2377 10.84
10/27/2021 2:15:00 PM 13.69 56.642 0.285 7.03 2357 9.68
10/27/2021 2:30:00 PM 13.74 56.732 0.284 7.05 2335 9.9
10/27/2021 2:45:00 PM 13.78 56.804 0.282 7.04 2510 8.17
10/27/2021 3:00:00 PM 13.84 56.912 0.283 7.05 2446 7.29
10/27/2021 3:15:00 PM 13.86 56.948 0.283 7.09 2410 7
10/27/2021 3:30:00 PM 13.9 57.02 0.283 7.09 2367 7.38
10/27/2021 3:45:00 PM 13.92 57.056 0.283 7.11 2359 8.89
10/27/2021 4:00:00 PM 13.94 57.092 0.283 7.12 2341 8.92
10/27/2021 4:15:00 PM 13.95 57.11 0.281 7.12 2321 9.75
10/27/2021 4:30:00 PM 13.96 57.128 0.279 7.14 2299 10.48
10/27/2021 4:45:00 PM 13.96 57.128 0.283 7.16 2244 10.72
10/27/2021 5:00:00 PM 13.97 57.146 0.275 7.18 2245 9.6
10/27/2021 5:15:00 PM 13.94 57.092 0.275 7.18 2227 7.53
10/27/2021 5:30:00 PM 13.94 57.092 0.283 7.2 2217 9.56
10/27/2021 5:45:00 PM 13.9 57.02 0.283 7.19 2181 10.3
10/27/2021 6:00:00 PM 13.9 57.02 0.273 7.18 2173 10.42
10/27/2021 6:15:00 PM 13.87 56.966 0.285 7.17 2144 8.84
10/27/2021 6:30:00 PM 13.87 56.966 0.285 7.19 2144 10.08
10/27/2021 6:45:00 PM 13.9 57.02 0.286 7.16 2135 7.75
10/27/2021 7:00:00 PM 13.8 56.84 0.288 7.11 2139 7.5
10/27/2021 7:15:00 PM 13.8 56.84 0.287 7.11 2130 9.55
10/27/2021 7:30:00 PM 13.77 56.786 0.276 7.08 2117 9.77
10/27/2021 7:45:00 PM 13.75 56.75 0.276 7.1 2073 9.68
10/27/2021 8:00:00 PM 13.78 56.804 0.288 7.11 2050 9.65
10/27/2021 8:15:00 PM 13.83 56.894 0.278 7.09 2060 6.93
10/27/2021 8:30:00 PM 13.74 56.732 0.291 7.01 2057 7.93
10/27/2021 8:45:00 PM 13.78 56.804 0.289 7.04 2061 7.85
10/27/2021 9:00:00 PM 13.77 56.786 0.287 7.04 2056 6.47
10/27/2021 9:15:00 PM 13.72 56.696 0.284 7.04 2020 8.38
10/27/2021 9:30:00 PM 13.74 56.732 0.295 7.03 1983 8.46
10/27/2021 9:45:00 PM 13.7 56.66 0.296 7.03 2582 8.64
10/27/2021 10:00:00 PM 13.64 56.552 0.293 6.99 2061 9.08
10/27/2021 10:15:00 PM 13.64 56.552 0.295 7.02 2065 9.28
10/27/2021 10:30:00 PM 13.54 56.372 0.295 7.05 2110 9.13
10/27/2021 10:45:00 PM 13.61 56.498 0.295 7.04 2049 8.93
10/27/2021 11:00:00 PM 13.53 56.354 0.298 6.99 1150 8.74
10/27/2021 11:15:00 PM 13.49 56.282 0.297 6.95 4666 8.92
10/27/2021 11:30:00 PM 13.54 56.372 0.295 6.98 4451 8.96
10/27/2021 11:45:00 PM 13.52 56.336 0.295 6.99 4975 9.07
10/28/2021 12:00:00 AM 13.51 56.318 0.284 7.02 4975 9.11
10/28/2021 12:15:00 AM 13.48 56.264 0.293 7.02 4975 9
10/28/2021 12:30:00 AM 13.42 56.156 0.293 7.02 4975 9.17
10/28/2021 12:45:00 AM 13.45 56.21 0.289 7 4975 9.07
10/28/2021 1:00:00 AM 13.51 56.318 0.293 6.98 4975 9.06
10/28/2021 1:15:00 AM 13.48 56.264 0.293 6.99 4975 9
10/28/2021 1:30:00 AM 13.45 56.21 0.294 7 4975 9.06
10/28/2021 1:45:00 AM 13.38 56.084 0.285 7.02 4975 9.08
10/28/2021 2:00:00 AM 13.39 56.102 0.294 7.03 4975 9.02
10/28/2021 2:15:00 AM 13.44 56.192 0.294 6.98 4975 8.89
10/28/2021 2:30:00 AM 13.44 56.192 0.293 6.99 4975 8.27
10/28/2021 2:45:00 AM 13.31 55.958 0.294 6.99 4975 8.77
10/28/2021 3:00:00 AM 13.28 55.904 0.284 6.98 4975 8.97
10/28/2021 3:15:00 AM 13.17 55.706 0.293 7 2497 9.03
10/28/2021 3:30:00 AM 13.14 55.652 0.284 7.03 4975 9.06
10/28/2021 3:45:00 AM 13.05 55.49 0.293 7.04 4975 9.07
10/28/2021 4:00:00 AM 13.05 55.49 0.292 7 4975 9.01
10/28/2021 4:15:00 AM 13.03 55.454 0.292 6.99 4975 9.09
10/28/2021 4:30:00 AM 13 55.4 0.292 6.99 4975 9.09
10/28/2021 4:45:00 AM 12.93 55.274 0.291 7 4975 9.07
10/28/2021 5:00:00 AM 13.13 55.634 0.282 6.99 4975 8.58
10/28/2021 5:15:00 AM 12.87 55.166 0.295 6.99 4975 9
10/28/2021 5:30:00 AM 12.93 55.274 0.294 6.99 4975 9.03
10/28/2021 5:45:00 AM 12.8 55.04 0.295 6.98 4975 9.04
10/28/2021 6:00:00 AM 12.76 54.968 0.291 6.96 4119 8.97
10/28/2021 6:15:00 AM 12.73 54.914 0.282 6.96 4975 9.07
10/28/2021 6:30:00 AM 12.81 55.058 0.295 6.95 4975 8.84
10/28/2021 6:45:00 AM 12.68 54.824 0.295 6.92 4975 9.05
10/28/2021 7:00:00 AM 12.61 54.698 0.286 6.93 4446 9.08
10/28/2021 7:15:00 AM 12.64 54.752 0.296 6.93 4975 9.01
10/28/2021 7:30:00 AM 12.65 54.77 0.289 6.95 4975 9.06
10/28/2021 7:45:00 AM 12.49 54.482 0.296 6.91 4975 9.05
10/28/2021 8:00:00 AM 12.58 54.644 0.296 6.91 4975 8.81
10/28/2021 8:15:00 AM 12.62 54.716 0.294 6.88 4975 8.86
10/28/2021 8:30:00 AM 12.44 54.392 0.284 6.89 2495 9.11
10/28/2021 8:45:00 AM 12.41 54.338 0.296 6.89 4975 9.11
10/28/2021 9:00:00 AM 12.61 54.698 0.294 6.88 4975 8.32
10/28/2021 9:15:00 AM 12.6 54.68 0.3 6.87 4975 9.05
10/28/2021 9:30:00 AM 12.64 54.752 0.298 6.84 4975 9.27
10/28/2021 9:45:00 AM 12.6 54.68 0.294 6.8 4975 9.3
10/28/2021 10:00:00 AM 12.63 54.734 0.291 6.84 4973 9.51
10/28/2021 10:15:00 AM 12.51 54.518 0.304 6.84 4975 9.76
10/28/2021 10:30:00 AM 12.42 54.356 0.289 6.85 4975 10.03
10/28/2021 10:45:00 AM 12.43 54.374 0.295 6.9 3549 10.17
10/28/2021 11:00:00 AM 12.43 54.374 0.3 6.9 4973 10.28
10/28/2021 11:15:00 AM 12.52 54.536 0.287 6.95 4436 10.41
10/28/2021 11:30:00 AM 12.48 54.464 0.285 6.96 4740 10.55
10/28/2021 11:45:00 AM 12.52 54.536 0.29 6.99 4198 10.67
10/28/2021 12:00:00 PM 12.59 54.662 0.289 6.99 4975 10.74
10/28/2021 12:15:00 PM 12.66 54.788 0.284 7.02 4975 10.86
10/28/2021 12:30:00 PM 12.71 54.878 0.294 7.03 4975 10.9
10/28/2021 12:45:00 PM 12.73 54.914 0.295 7.06 4975 11.03
10/28/2021 1:00:00 PM 12.79 55.022 0.29 7.08 4975 11.14
10/28/2021 1:15:00 PM 12.8 55.04 0.293 7.08 4975 11.27
10/28/2021 1:30:00 PM 12.84 55.112 0.285 7.12 4975 11.45
10/28/2021 1:45:00 PM 12.91 55.238 0.285 7.15 4975 11.53
10/28/2021 2:00:00 PM 12.96 55.328 0.292 7.14 4975 11.54
10/28/2021 2:15:00 PM 13 55.4 0.292 7.17 4975 11.62
10/28/2021 2:30:00 PM 13.03 55.454 0.291 7.19 4975 11.39
10/28/2021 2:45:00 PM 13.08 55.544 0.291 7.2 4975 11.78
10/28/2021 3:00:00 PM 13.14 55.652 0.289 7.24 4975 11.89
10/28/2021 3:15:00 PM 13.17 55.706 0.29 7.24 4975 11.97
10/28/2021 3:30:00 PM 13.19 55.742 0.29 7.26 4975 11.84
10/28/2021 3:45:00 PM 13.24 55.832 0.285 7.28 4975 11.8
10/28/2021 4:00:00 PM 13.22 55.796 0.28 7.27 4975 11.44
10/28/2021 4:15:00 PM 13.25 55.85 0.289 7.3 4975 11.53
10/28/2021 4:30:00 PM 13.26 55.868 0.289 7.3 4975 11.67
10/28/2021 4:45:00 PM 13.29 55.922 0.28 7.32 4975 11.73
10/28/2021 5:00:00 PM 13.33 55.994 0.286 7.34 4975 11.72
10/28/2021 5:15:00 PM 13.36 56.048 0.288 7.33 4975 11.61
10/28/2021 5:30:00 PM 13.35 56.03 0.28 7.34 4975 11.55
10/28/2021 5:45:00 PM 13.37 56.066 0.281 7.34 4975 11.47
10/28/2021 6:00:00 PM 13.39 56.102 0.289 7.34 4975 11.42
10/28/2021 6:15:00 PM 13.39 56.102 0.29 7.34 4975 11.09
10/28/2021 6:30:00 PM 13.38 56.084 0.291 7.33 4975 11.2
10/28/2021 6:45:00 PM 13.41 56.138 0.288 7.34 4975 10.82
10/28/2021 7:00:00 PM 13.4 56.12 0.28 7.34 4975 10.88
10/28/2021 7:15:00 PM 13.4 56.12 0.281 7.33 4975 10.76
10/28/2021 7:30:00 PM 13.36 56.048 0.291 7.32 4975 10.67
10/28/2021 7:45:00 PM 13.4 56.12 0.279 7.31 4975 10.43
10/28/2021 8:00:00 PM 13.42 56.156 0.281 7.24 4975 9.76
10/28/2021 8:15:00 PM 13.39 56.102 0.286 7.25 4975 9.91
10/28/2021 8:30:00 PM 13.4 56.12 0.285 7.23 4975 9.48
10/28/2021 8:45:00 PM 13.39 56.102 0.293 7.22 4975 8.75
10/28/2021 9:00:00 PM 13.35 56.03 0.282 7.22 4975 9.48
10/28/2021 9:15:00 PM 13.36 56.048 0.291 7.22 4975 10.03
10/28/2021 9:30:00 PM 13.37 56.066 0.294 7.21 4975 10.06
10/28/2021 9:45:00 PM 13.37 56.066 0.285 7.17 4975 9.87
10/28/2021 10:00:00 PM 13.42 56.156 0.285 7.19 4975 9.84
10/28/2021 10:15:00 PM 13.38 56.084 0.286 7.17 4975 9.8
10/28/2021 10:30:00 PM 13.4 56.12 0.297 7.16 4975 9.7
10/28/2021 10:45:00 PM 13.38 56.084 0.288 7.11 4975 9.75
10/28/2021 11:00:00 PM 13.36 56.048 0.3 7.11 4975 9.59
10/28/2021 11:15:00 PM 13.37 56.066 0.289 7.13 4975 9.68
10/28/2021 11:30:00 PM 13.38 56.084 0.3 7.13 4975 9.59
10/28/2021 11:45:00 PM 13.39 56.102 0.3 7.14 4975 9.52
10/29/2021 12:00:00 AM 13.43 56.174 0.299 7.12 4975 9.43
10/29/2021 12:15:00 AM 13.4 56.12 0.299 7.11 4975 9.43
10/29/2021 12:30:00 AM 13.44 56.192 0.29 7.09 4975 9.33
10/29/2021 12:45:00 AM 13.47 56.246 0.299 7.1 4975 9.19
10/29/2021 1:00:00 AM 13.46 56.228 0.289 7.11 4975 9.17
10/29/2021 1:15:00 AM 13.42 56.156 0.301 7.1 4975 9.04
10/29/2021 1:30:00 AM 13.44 56.192 0.301 7.1 4975 9.1
10/29/2021 1:45:00 AM 13.45 56.21 0.301 7.1 4975 8.95
10/29/2021 2:00:00 AM 13.46 56.228 0.301 7.06 4975 9.06
10/29/2021 2:15:00 AM 13.43 56.174 0.301 7.06 4975 9.22
10/29/2021 2:30:00 AM 13.42 56.156 0.301 7.07 4975 9.21
10/29/2021 2:45:00 AM 13.44 56.192 0.287 7.09 3401 9.06
10/29/2021 3:00:00 AM 13.43 56.174 0.3 7.08 2718 9.07
10/29/2021 3:15:00 AM 13.43 56.174 0.288 7.09 3077 9.11
10/29/2021 3:30:00 AM 13.46 56.228 0.291 7.05 4487 9.14
10/29/2021 3:45:00 AM 13.44 56.192 0.292 7.05 4721 9.09
10/29/2021 4:00:00 AM 13.42 56.156 0.294 7.07 4975 9
10/29/2021 4:15:00 AM 13.39 56.102 0.294 7.09 4975 9.06
10/29/2021 4:30:00 AM 13.46 56.228 0.297 7.07 4975 9.01
10/29/2021 4:45:00 AM 13.46 56.228 0.294 7.05 4975 9.01
10/29/2021 5:00:00 AM 13.37 56.066 0.304 7.03 4975 9.06
10/29/2021 5:15:00 AM 13.38 56.084 0.294 7.07 4975 9.01
10/29/2021 5:30:00 AM 13.36 56.048 0.292 7.07 4975 8.95
10/29/2021 5:45:00 AM 13.36 56.048 0.298 7.06 4975 8.84
10/29/2021 6:00:00 AM 13.34 56.012 0.295 7.05 4975 8.94
10/29/2021 6:15:00 AM 13.32 55.976 0.291 7.01 4975 8.97
10/29/2021 6:30:00 AM 13.33 55.994 0.292 7.03 4186 8.92
10/29/2021 6:45:00 AM 13.33 55.994 0.293 7.04 4112 8.63
10/29/2021 7:00:00 AM 13.36 56.048 0.293 7.04 3831 8.76
10/29/2021 7:15:00 AM 13.34 56.012 0.304 7.03 3872 8.62
10/29/2021 7:30:00 AM 13.33 55.994 0.3 7.03 4975 8.4
10/29/2021 7:45:00 AM 13.24 55.832 0.296 6.99 4972 8.36
10/29/2021 8:00:00 AM 13.31 55.958 0.295 6.98 4975 8.17
10/29/2021 8:15:00 AM 13.25 55.85 0.307 6.97 4975 8.67
10/29/2021 8:30:00 AM 13.19 55.742 0.303 7.01 4975 8.94
10/29/2021 8:45:00 AM 13.26 55.868 0.306 7.01 4558 8.91
10/29/2021 9:00:00 AM 13.29 55.922 0.305 7.01 4458 8.94
10/29/2021 9:15:00 AM 13.11 55.598 0.302 7.02 4890 9.03
10/29/2021 9:30:00 AM 13.18 55.724 0.297 7 4837 9.06
10/29/2021 9:45:00 AM 13.12 55.616 0.307 7.01 4975 9.14
10/29/2021 10:00:00 AM 13.13 55.634 0.307 7.01 4975 9.2
10/29/2021 10:15:00 AM 13.1 55.58 0.298 7.02 4975 9.3
10/29/2021 10:30:00 AM 13.04 55.472 0.309 7.02 4975 9.43
10/29/2021 10:45:00 AM 13.06 55.508 0.308 7.04 4975 9.48
10/29/2021 11:00:00 AM 13.06 55.508 0.308 7.04 4975 9.48
10/29/2021 11:15:00 AM 13.13 55.634 0.302 7.03 4975 9.44
10/29/2021 11:30:00 AM 13.15 55.67 0.307 7 4975 9.42
10/29/2021 11:45:00 AM 13.11 55.598 0.297 7.01 4975 9.78
10/29/2021 12:00:00 PM 13.14 55.652 0.295 7.03 4975 9.69
10/29/2021 12:15:00 PM 13.03 55.454 0.307 7.03 4975 9.77
10/29/2021 12:30:00 PM 13.03 55.454 0.3 7.08 4975 9.9
10/29/2021 12:45:00 PM 13.08 55.544 0.301 7.08 4975 9.83
10/29/2021 1:00:00 PM 13.11 55.598 0.305 7.07 4975 9.86
10/29/2021 1:15:00 PM 13.01 55.418 0.299 7.02 4975 10.06
10/29/2021 1:30:00 PM 13.09 55.562 0.293 7.05 4975 9.53
10/29/2021 1:45:00 PM 13.02 55.436 0.304 7.08 4975 10.14
10/29/2021 2:00:00 PM 12.99 55.382 0.303 7.09 4975 10.17
10/29/2021 2:15:00 PM 13.07 55.526 0.301 7.1 4975 10.15
10/29/2021 2:30:00 PM 13.02 55.436 0.292 7.09 4975 10.01
10/29/2021 2:45:00 PM 13 55.4 0.301 7.1 4975 10.25
10/29/2021 3:00:00 PM 13.05 55.49 0.291 7.07 4975 10.26
10/29/2021 3:15:00 PM 12.98 55.364 0.3 7.07 4975 10.2
10/29/2021 3:30:00 PM 13 55.4 0.3 7.08 4975 10.17
10/29/2021 3:45:00 PM 13.16 55.688 0.291 7.07 4975 9.14
10/29/2021 4:00:00 PM 13.21 55.778 0.299 7.04 4975 7.64
10/29/2021 4:15:00 PM 13.17 55.706 0.292 7.02 4975 7.69
10/29/2021 4:30:00 PM 13.17 55.706 0.295 7.01 4975 8.36
10/29/2021 4:45:00 PM 13.01 55.418 0.293 6.99 4975 9.53
10/29/2021 5:00:00 PM 12.93 55.274 0.303 7 4975 9.94
10/29/2021 5:15:00 PM 12.96 55.328 0.285 7.01 4975 9.9
10/29/2021 5:30:00 PM 12.82 55.076 0.285 7 4975 9.85
10/29/2021 5:45:00 PM 12.81 55.058 0.284 7.03 4975 9.67
10/29/2021 6:00:00 PM 12.84 55.112 0.275 7.01 4975 9.75
10/29/2021 6:15:00 PM 12.79 55.022 0.287 7 4975 9.41
10/29/2021 6:30:00 PM 12.77 54.986 0.275 6.96 4975 9.68
10/29/2021 6:45:00 PM 12.73 54.914 0.271 6.99 4975 9.69
10/29/2021 7:00:00 PM 12.7 54.86 0.278 6.99 4975 9.63
10/29/2021 7:15:00 PM 12.7 54.86 0.267 6.94 4975 9.65
10/29/2021 7:30:00 PM 12.73 54.914 0.274 6.94 4975 9.55
10/29/2021 7:45:00 PM 12.7 54.86 0.261 6.9 4947 9.61
10/29/2021 8:00:00 PM 12.69 54.842 0.273 6.93 4975 9.59
10/29/2021 8:15:00 PM 12.67 54.806 0.261 6.92 4975 9.57
10/29/2021 8:30:00 PM 12.67 54.806 0.269 6.91 4975 9.55
10/29/2021 8:45:00 PM 12.66 54.788 0.266 6.91 4975 9.39
10/29/2021 9:00:00 PM 12.63 54.734 0.263 6.86 4975 9.51
10/29/2021 9:15:00 PM 12.62 54.716 0.262 6.85 4975 9.49
10/29/2021 9:30:00 PM 12.64 54.752 0.261 6.84 4975 9.41
10/29/2021 9:45:00 PM 12.62 54.716 0.248 6.84 4975 9.41
10/29/2021 10:00:00 PM 12.58 54.644 0.251 6.81 4975 9.4
10/29/2021 10:15:00 PM 12.59 54.662 0.252 6.81 4975 9.18
10/29/2021 10:30:00 PM 12.65 54.77 0.259 6.72 4975 8.95
10/29/2021 10:45:00 PM 12.58 54.644 0.261 6.65 4975 9.21
10/29/2021 11:00:00 PM 12.57 54.626 0.26 6.72 4975 9.12
10/29/2021 11:15:00 PM 12.55 54.59 0.26 6.71 4975 9.22
10/29/2021 11:30:00 PM 12.57 54.626 0.26 6.69 4975 9.15
10/29/2021 11:45:00 PM 12.55 54.59 0.261 6.7 4975 9.02
10/30/2021 12:00:00 AM 12.55 54.59 0.26 6.71 4975 9.14
10/30/2021 12:15:00 AM 12.55 54.59 0.259 6.7 4975 8.99
10/30/2021 12:30:00 AM 12.53 54.554 0.256 6.72 4975 9.02
10/30/2021 12:45:00 AM 12.56 54.608 0.252 6.63 4975 8.99
10/30/2021 1:00:00 AM 12.58 54.644 0.247 6.61 4975 9.11
10/30/2021 1:15:00 AM 12.58 54.644 0.25 6.61 4975 9
10/30/2021 1:30:00 AM 12.58 54.644 0.239 6.65 4975 9.06
10/30/2021 1:45:00 AM 12.53 54.554 0.237 6.64 4975 9.08
10/30/2021 2:00:00 AM 12.52 54.536 0.241 6.62 4975 9.06
10/30/2021 2:15:00 AM 12.54 54.572 0.227 6.64 4975 9.03
10/30/2021 2:30:00 AM 12.52 54.536 0.234 6.65 4975 8.93
10/30/2021 2:45:00 AM 12.52 54.536 0.233 6.61 4975 9.1
10/30/2021 3:00:00 AM 12.53 54.554 0.225 6.58 4975 8.65
10/30/2021 3:15:00 AM 12.52 54.536 0.226 6.62 4975 8.84
10/30/2021 3:30:00 AM 12.51 54.518 0.229 6.62 4975 8.86
10/30/2021 3:45:00 AM 12.51 54.518 0.228 6.62 4975 8.82
10/30/2021 4:00:00 AM 12.5 54.5 0.226 6.65 4975 9.06
10/30/2021 4:15:00 AM 12.5 54.5 0.226 6.64 4975 9.08
10/30/2021 4:30:00 AM 12.5 54.5 0.226 6.61 4975 8.98
10/30/2021 4:45:00 AM 12.52 54.536 0.226 6.6 4975 9.02
10/30/2021 5:00:00 AM 12.52 54.536 0.226 6.6 4975 9.02
10/30/2021 5:15:00 AM 12.52 54.536 0.224 6.62 4975 9.04
10/30/2021 5:30:00 AM 12.52 54.536 0.222 6.64 4975 8.89
10/30/2021 5:45:00 AM 12.5 54.5 0.219 6.62 4975 8.93
10/30/2021 6:00:00 AM 12.5 54.5 0.209 6.62 4975 8.87
10/30/2021 6:15:00 AM 12.49 54.482 0.211 6.56 4975 8.78
10/30/2021 6:30:00 AM 12.5 54.5 0.208 6.53 4975 8.31
10/30/2021 6:45:00 AM 12.51 54.518 0.207 6.52 4975 8.58
10/30/2021 7:00:00 AM 12.52 54.536 0.2 6.53 4975 8.16
10/30/2021 7:15:00 AM 12.51 54.518 0.202 6.54 4975 8.59
10/30/2021 7:30:00 AM 12.49 54.482 0.197 6.52 4975 8.34
10/30/2021 7:45:00 AM 12.53 54.554 0.188 6.51 4975 8.48
10/30/2021 8:00:00 AM 12.44 54.392 0.179 6.54 4975 9.18
10/30/2021 8:15:00 AM 12.43 54.374 0.174 6.59 4975 9.22
10/30/2021 8:30:00 AM 12.43 54.374 0.169 6.55 4975 9.08
10/30/2021 8:45:00 AM 12.49 54.482 0.178 6.53 4975 8.63
10/30/2021 9:00:00 AM 12.49 54.482 0.17 6.51 4975 8.57
10/30/2021 9:15:00 AM 12.52 54.536 0.176 6.46 4975 8.65
10/30/2021 9:30:00 AM 12.51 54.518 0.17 6.45 4975 8.58
10/30/2021 9:45:00 AM 12.5 54.5 0.173 6.46 4975 8.55
10/30/2021 10:00:00 AM 12.49 54.482 0.163 6.47 4808 8.43
10/30/2021 10:15:00 AM 12.49 54.482 0.163 6.48 4975 8.28
10/30/2021 10:30:00 AM 12.52 54.536 0.165 6.49 4975 8.02
10/30/2021 10:45:00 AM 12.52 54.536 0.167 6.48 4501 8.46
10/30/2021 11:00:00 AM 12.52 54.536 0.169 6.45 4832 8.46
10/30/2021 11:15:00 AM 12.53 54.554 0.169 6.47 4975 8.26
10/30/2021 11:30:00 AM 12.55 54.59 0.17 6.46 4975 7.99
10/30/2021 11:45:00 AM 12.56 54.608 0.168 6.45 4975 8.04
10/30/2021 12:00:00 PM 12.59 54.662 0.169 6.39 4975 8.45
10/30/2021 12:15:00 PM 12.58 54.644 0.168 6.41 4975 8.72
10/30/2021 12:30:00 PM 12.6 54.68 0.168 6.43 4975 7.56
10/30/2021 12:45:00 PM 12.63 54.734 0.168 6.4 4975 8.5
10/30/2021 1:00:00 PM 12.63 54.734 0.169 6.4 4975 8.71
10/30/2021 1:15:00 PM 12.65 54.77 0.17 6.41 4975 8.12
10/30/2021 1:30:00 PM 12.67 54.806 0.173 6.41 4975 8.32
10/30/2021 1:45:00 PM 12.68 54.824 0.176 6.36 4975 7.76
10/30/2021 2:00:00 PM 12.7 54.86 0.178 6.35 4975 8.1
10/30/2021 2:15:00 PM 12.72 54.896 0.182 6.35 4975 7.71
10/30/2021 2:30:00 PM 12.76 54.968 0.182 6.38 4975 7.85
10/30/2021 2:45:00 PM 12.77 54.986 0.183 6.38 4975 8.12
10/30/2021 3:00:00 PM 12.78 55.004 0.186 6.39 4975 8.69
10/30/2021 3:15:00 PM 12.81 55.058 0.187 6.36 4975 8.2
10/30/2021 3:30:00 PM 12.83 55.094 0.188 6.33 4975 8.34
10/30/2021 3:45:00 PM 12.84 55.112 0.186 6.36 4975 8.11
10/30/2021 4:00:00 PM 12.86 55.148 0.182 6.38 2764 7.83
10/30/2021 4:15:00 PM 12.87 55.166 0.181 6.39 4771 7.37
10/30/2021 4:30:00 PM 12.88 55.184 0.187 6.4 4975 8.17
10/30/2021 4:45:00 PM 12.91 55.238 0.203 6.37 4975 7.84
10/30/2021 5:00:00 PM 12.92 55.256 0.203 6.36 4975 8.61
10/30/2021 5:15:00 PM 12.9 55.22 0.194 6.37 4975 8.74
10/30/2021 5:30:00 PM 12.91 55.238 0.189 6.39 4975 8.79
10/30/2021 5:45:00 PM 12.92 55.256 0.184 6.43 4975 8.54
10/30/2021 6:00:00 PM 12.91 55.238 0.184 6.43 4975 8.37
10/30/2021 6:15:00 PM 12.91 55.238 0.185 6.48 4473 7.37
10/30/2021 6:30:00 PM 12.91 55.238 0.184 6.49 4975 7.01
10/30/2021 6:45:00 PM 12.92 55.256 0.189 6.48 4975 7.41
10/30/2021 7:00:00 PM 12.9 55.22 0.19 6.42 4975 8.26
10/30/2021 7:15:00 PM 12.92 55.256 0.189 6.42 4975 8.17
10/30/2021 7:30:00 PM 12.93 55.274 0.2 6.42 4975 7.5
10/30/2021 7:45:00 PM 12.92 55.256 0.187 6.44 4975 8.46
10/30/2021 8:00:00 PM 12.92 55.256 0.183 6.45 4467 4.45
10/30/2021 8:15:00 PM 12.94 55.292 0.187 6.44 4975 7.05
10/30/2021 8:30:00 PM 12.95 55.31 0.201 6.42 4975 6.63
10/30/2021 8:45:00 PM 12.94 55.292 0.197 6.43 4975 5.41
10/30/2021 9:00:00 PM 12.94 55.292 0.196 6.39 4975 5.76
10/30/2021 9:15:00 PM 12.95 55.31 0.194 6.4 4975 7.4
10/30/2021 9:30:00 PM 12.95 55.31 0.193 6.43 4975 5.01
10/30/2021 9:45:00 PM 12.94 55.292 0.187 6.47 4975 7.79
10/30/2021 10:00:00 PM 12.91 55.238 0.186 6.49 4975 7.53
10/30/2021 10:15:00 PM 12.9 55.22 0.18 6.49 4975 7.21
10/30/2021 10:30:00 PM 12.88 55.184 0.185 6.45 4975 9.11
10/30/2021 10:45:00 PM 12.86 55.148 0.186 6.45 4975 9.16
10/30/2021 11:00:00 PM 12.87 55.166 0.183 6.49 4975 9.1
10/30/2021 11:15:00 PM 12.87 55.166 0.187 6.5 4975 9.16
10/30/2021 11:30:00 PM 12.87 55.166 0.188 6.51 4975 9.19
10/30/2021 11:45:00 PM 12.87 55.166 0.189 6.49 4975 9.09
10/31/2021 12:00:00 AM 12.87 55.166 0.191 6.48 4975 8.14
10/31/2021 12:15:00 AM 12.89 55.202 0.187 6.42 4975 8.92
10/31/2021 12:30:00 AM 12.89 55.202 0.195 6.41 4975 8.91
10/31/2021 12:45:00 AM 12.89 55.202 0.198 6.43 4975 9.13
10/31/2021 1:00:00 AM 12.87 55.166 0.197 6.44 4975 9.09
10/31/2021 1:15:00 AM 12.87 55.166 0.196 6.45 4975 8.85
10/31/2021 1:30:00 AM 12.86 55.148 0.192 6.45 4975 8.97
10/31/2021 1:45:00 AM 12.85 55.13 0.195 6.47 4975 8.73
10/31/2021 2:00:00 AM 12.85 55.13 0.196 6.41 4975 9.09
10/31/2021 2:15:00 AM 12.85 55.13 0.196 6.41 4975 9.16
10/31/2021 2:30:00 AM 12.84 55.112 0.196 6.44 4975 9.09
10/31/2021 2:45:00 AM 12.84 55.112 0.198 6.44 4975 9.12
10/31/2021 3:00:00 AM 12.85 55.13 0.2 6.45 4975 9.13
10/31/2021 3:15:00 AM 12.83 55.094 0.2 6.46 4975 9.19
10/31/2021 3:30:00 AM 12.84 55.112 0.202 6.48 4975 8.99
10/31/2021 3:45:00 AM 12.84 55.112 0.206 6.48 4975 8.98
10/31/2021 4:00:00 AM 12.84 55.112 0.208 6.43 4975 8.55
10/31/2021 4:15:00 AM 12.86 55.148 0.213 6.41 4975 8.8
10/31/2021 4:30:00 AM 12.85 55.13 0.206 6.47 4975 9.19
10/31/2021 4:45:00 AM 12.84 55.112 0.205 6.46 4975 9.23
10/31/2021 5:00:00 AM 12.83 55.094 0.205 6.5 4975 9.14
10/31/2021 5:15:00 AM 12.82 55.076 0.211 6.48 4975 9.2
10/31/2021 5:30:00 AM 12.8 55.04 0.207 6.48 4975 9.22
10/31/2021 5:45:00 AM 12.79 55.022 0.205 6.44 4975 8.91
10/31/2021 6:00:00 AM 12.78 55.004 0.205 6.45 4975 8.59
10/31/2021 6:15:00 AM 12.78 55.004 0.207 6.53 4975 9.07
10/31/2021 6:30:00 AM 12.78 55.004 0.21 6.51 4975 9.13
10/31/2021 6:45:00 AM 12.78 55.004 0.208 6.53 4975 9.27
10/31/2021 7:00:00 AM 12.78 55.004 0.204 6.53 4975 9.12
10/31/2021 7:15:00 AM 12.77 54.986 0.206 6.57 4975 9.19
10/31/2021 7:30:00 AM 12.76 54.968 0.205 6.52 4975 9.12
10/31/2021 7:45:00 AM 12.77 54.986 0.212 6.52 4975 8.95
10/31/2021 8:00:00 AM 12.77 54.986 0.203 6.52 4975 9.04
10/31/2021 8:15:00 AM 12.76 54.968 0.207 6.51 4975 7.65
10/31/2021 8:30:00 AM 12.77 54.986 0.214 6.48 4975 8.56
10/31/2021 8:45:00 AM 12.76 54.968 0.215 6.52 4785 8.69
10/31/2021 9:00:00 AM 12.76 54.968 0.218 6.53 4975 9.23
10/31/2021 9:15:00 AM 12.76 54.968 0.22 6.52 4975 9.22
10/31/2021 9:30:00 AM 12.76 54.968 0.22 6.51 4975 8.93
10/31/2021 9:45:00 AM 12.75 54.95 0.22 6.52 4975 9.33
10/31/2021 10:00:00 AM 12.74 54.932 0.218 6.53 4975 7.75
10/31/2021 10:15:00 AM 12.73 54.914 0.219 6.5 4975 7.18
10/31/2021 10:30:00 AM 12.74 54.932 0.219 6.47 4975 7.3
10/31/2021 10:45:00 AM 12.74 54.932 0.22 6.5 4975 9.11
10/31/2021 11:00:00 AM 12.74 54.932 0.218 6.53 4975 9.12
10/31/2021 11:15:00 AM 12.75 54.95 0.218 6.52 4975 9.26
10/31/2021 11:30:00 AM 12.75 54.95 0.216 6.55 4975 9.12
10/31/2021 11:45:00 AM 12.76 54.968 0.214 6.57 4975 8.59
10/31/2021 12:00:00 PM 12.78 55.004 0.215 6.57 4975 8.03
10/31/2021 12:15:00 PM 12.79 55.022 0.215 6.58 4975 9.7
10/31/2021 12:30:00 PM 12.83 55.094 0.216 6.57 4975 9.46
10/31/2021 12:45:00 PM 12.86 55.148 0.217 6.53 4975 9.68
10/31/2021 1:00:00 PM 12.89 55.202 0.218 6.53 4975 9.69
10/31/2021 1:15:00 PM 12.92 55.256 0.218 6.59 4975 9.79
10/31/2021 1:30:00 PM 12.94 55.292 0.213 6.61 4975 9.62
10/31/2021 1:45:00 PM 12.97 55.346 0.218 6.61 4975 9.79
10/31/2021 2:00:00 PM 13 55.4 0.215 6.6 4975 9.74
10/31/2021 2:15:00 PM 13.02 55.436 0.218 6.62 4975 9.54
10/31/2021 2:30:00 PM 13.03 55.454 0.218 6.58 4975 9.8
10/31/2021 2:45:00 PM 13.05 55.49 0.218 6.58 4975 9.73
10/31/2021 3:00:00 PM 13.06 55.508 0.219 6.61 4975 9.74
10/31/2021 3:15:00 PM 13.08 55.544 0.219 6.63 4975 9.62
10/31/2021 3:30:00 PM 13.1 55.58 0.216 6.63 4975 9.69
10/31/2021 3:45:00 PM 13.13 55.634 0.221 6.64 4975 9.67
10/31/2021 4:00:00 PM 13.15 55.67 0.221 6.66 4975 9.87
10/31/2021 4:15:00 PM 13.17 55.706 0.222 6.62 4975 8.92
10/31/2021 4:30:00 PM 13.19 55.742 0.222 6.62 4975 7.95
10/31/2021 4:45:00 PM 13.2 55.76 0.222 6.64 4975 8.26
10/31/2021 5:00:00 PM 13.21 55.778 0.216 6.65 4975 8.59
10/31/2021 5:15:00 PM 13.21 55.778 0.221 6.65 4975 8.13
10/31/2021 5:30:00 PM 13.21 55.778 0.219 6.63 4975 7.28
10/31/2021 5:45:00 PM 13.2 55.76 0.224 6.59 4975 6.85
10/31/2021 6:00:00 PM 13.19 55.742 0.223 6.57 4975 7.14
10/31/2021 6:15:00 PM 13.18 55.724 0.224 6.56 4975 8.63
10/31/2021 6:30:00 PM 13.19 55.742 0.239 6.51 4975 9.2
10/31/2021 6:45:00 PM 13.19 55.742 0.241 6.51 4975 9.23
10/31/2021 7:00:00 PM 13.18 55.724 0.254 6.45 4975 9.31
10/31/2021 7:15:00 PM 13.18 55.724 0.251 6.45 4975 9.42
10/31/2021 7:30:00 PM 13.16 55.688 0.237 6.49 4975 9.52
10/31/2021 7:45:00 PM 13.14 55.652 0.234 6.52 4975 9.42
10/31/2021 8:00:00 PM 13.14 55.652 0.238 6.45 4975 9.56
10/31/2021 8:15:00 PM 13.13 55.634 0.238 6.46 4921 9.53
10/31/2021 8:30:00 PM 13.12 55.616 0.237 6.5 4947 9.54
10/31/2021 8:45:00 PM 13.11 55.598 0.24 6.49 4046 7.73
10/31/2021 9:00:00 PM 13.11 55.598 0.262 6.45 4205 6.46
10/31/2021 9:15:00 PM 13.09 55.562 0.281 6.42 2361 5
10/31/2021 9:30:00 PM 13.07 55.526 0.261 6.4 2488 8.39
10/31/2021 9:45:00 PM 13.05 55.49 0.25 6.44 2520 8.61
10/31/2021 10:00:00 PM 13.03 55.454 0.246 6.49 2583 9.11
10/31/2021 10:15:00 PM 13.02 55.436 0.246 6.5 2593 8.92
10/31/2021 10:30:00 PM 13.01 55.418 0.243 6.55 2651 9.18
10/31/2021 10:45:00 PM 12.99 55.382 0.241 6.58 2671 9.24
10/31/2021 11:00:00 PM 12.96 55.328 0.241 6.61 2696 9.1
10/31/2021 11:15:00 PM 12.94 55.292 0.239 6.62 2639 9.38
10/31/2021 11:30:00 PM 12.92 55.256 0.238 6.56 2719 9.48
10/31/2021 11:45:00 PM 12.89 55.202 0.239 6.56 3961 9.05
11/1/2021 12:00:00 AM 12.87 55.166 0.241 6.57 4064 9.2
11/1/2021 12:15:00 AM 12.84 55.112 0.241 6.59 3261 9.39
11/1/2021 12:30:00 AM 12.83 55.094 0.241 6.57 3300 9.22
11/1/2021 12:45:00 AM 12.81 55.058 0.241 6.58 2429 9.39
11/1/2021 1:00:00 AM 12.79 55.022 0.242 6.57 2486 9.44
11/1/2021 1:15:00 AM 12.77 54.986 0.243 6.6 2434 9.33
11/1/2021 1:30:00 AM 12.76 54.968 0.236 6.57 2012 8.99
11/1/2021 1:45:00 AM 12.75 54.95 0.249 6.53 2008 9.31
11/1/2021 2:00:00 AM 12.73 54.914 0.249 6.51 1892 9.14
11/1/2021 2:15:00 AM 12.71 54.878 0.25 6.49 1893 9.34
11/1/2021 2:30:00 AM 12.7 54.86 0.251 6.52 1860 8.98
11/1/2021 2:45:00 AM 12.68 54.824 0.251 6.5 1829 9.48
11/1/2021 3:00:00 AM 12.64 54.752 0.25 6.49 2040 9.48
11/1/2021 3:15:00 AM 12.63 54.734 0.248 6.51 2195 9.2
11/1/2021 3:30:00 AM 12.61 54.698 0.248 6.5 2263 9.41
11/1/2021 3:45:00 AM 12.58 54.644 0.246 6.53 2316 9.47
11/1/2021 4:00:00 AM 12.56 54.608 0.244 6.55 2351 9.49
11/1/2021 4:15:00 AM 12.53 54.554 0.243 6.57 2495 9.55
11/1/2021 4:30:00 AM 12.51 54.518 0.243 6.57 2590 9.54
11/1/2021 4:45:00 AM 12.48 54.464 0.241 6.57 2539 9.53
11/1/2021 5:00:00 AM 12.46 54.428 0.241 6.59 2544 9.45
11/1/2021 5:15:00 AM 12.44 54.392 0.237 6.64 2748 9.24
11/1/2021 5:30:00 AM 12.43 54.374 0.239 6.65 2869 9.34
11/1/2021 5:45:00 AM 12.42 54.356 0.239 6.64 2879 9.55
11/1/2021 6:00:00 AM 12.41 54.338 0.239 6.64 3047 9.58
11/1/2021 6:15:00 AM 12.39 54.302 0.238 6.66 3208 9.42
11/1/2021 6:30:00 AM 12.39 54.302 0.238 6.66 3290 9.43
11/1/2021 6:45:00 AM 12.39 54.302 0.239 6.65 3281 9.49
11/1/2021 7:00:00 AM 12.38 54.284 0.24 6.66 4332 9.56
11/1/2021 7:15:00 AM 12.39 54.302 0.242 6.64 3226 9.3
11/1/2021 7:30:00 AM 12.39 54.302 0.243 6.65 4596 9.27
11/1/2021 7:45:00 AM 12.4 54.32 0.244 6.64 4143 8.8
11/1/2021 8:00:00 AM 12.39 54.302 0.244 6.6 4975 9.06
11/1/2021 8:15:00 AM 12.37 54.266 0.243 6.57 4975 9.25
11/1/2021 8:30:00 AM 12.35 54.23 0.242 6.6 4975 9.5
11/1/2021 8:45:00 AM 12.32 54.176 0.24 6.63 4975 9.35
11/1/2021 9:00:00 AM 12.3 54.14 0.24 6.67 4975 9.42
11/1/2021 9:15:00 AM 12.29 54.122 0.239 6.68 4975 8.97
11/1/2021 9:30:00 AM 12.28 54.104 0.239 6.67 4975 9.36
11/1/2021 9:45:00 AM 12.27 54.086 0.239 6.68 4975 8.78
11/1/2021 10:00:00 AM 12.27 54.086 0.238 6.67 4975 9.46
11/1/2021 10:15:00 AM 12.27 54.086 0.24 6.65 4975 9.21
11/1/2021 10:30:00 AM 12.27 54.086 0.239 6.66 4975 9.59
11/1/2021 10:45:00 AM 12.27 54.086 0.241 6.65 4975 9.57
11/1/2021 11:00:00 AM 12.27 54.086 0.242 6.64 4975 9.67
11/1/2021 11:15:00 AM 12.26 54.068 0.244 6.64 4975 9.77
11/1/2021 11:30:00 AM 12.25 54.05 0.242 6.64 4975 9.74
11/1/2021 11:45:00 AM 12.26 54.068 0.241 6.66 4975 9.89
11/1/2021 12:00:00 PM 12.26 54.068 0.24 6.67 4975 9.68
11/1/2021 12:15:00 PM 12.28 54.104 0.24 6.68 4975 9.19
11/1/2021 12:30:00 PM 12.31 54.158 0.24 6.68 4975 9.86
11/1/2021 12:45:00 PM 12.33 54.194 0.24 6.69 4975 10.23
11/1/2021 1:00:00 PM 12.37 54.266 0.243 6.64 4975 9.99
11/1/2021 1:15:00 PM 12.4 54.32 0.247 6.6 4975 9.89
11/1/2021 1:30:00 PM 12.42 54.356 0.247 6.63 4975 10.23
11/1/2021 1:45:00 PM 12.44 54.392 0.247 6.6 4975 10.04
11/1/2021 2:00:00 PM 12.47 54.446 0.246 6.61 4975 10.14
11/1/2021 2:15:00 PM 12.49 54.482 0.243 6.6 4975 9.56
11/1/2021 2:30:00 PM 12.51 54.518 0.246 6.63 4975 10.32
11/1/2021 2:45:00 PM 12.53 54.554 0.25 6.68 4975 9.9
11/1/2021 3:00:00 PM 12.54 54.572 0.249 6.72 4975 9.73
11/1/2021 3:15:00 PM 12.56 54.608 0.255 6.71 4975 9.87
11/1/2021 3:30:00 PM 12.58 54.644 0.25 6.75 4975 9.91
11/1/2021 3:45:00 PM 12.59 54.662 0.246 6.8 4975 10.09
11/1/2021 4:00:00 PM 12.6 54.68 0.237 6.79 4975 10.11
11/1/2021 4:15:00 PM 12.62 54.716 0.245 6.84 4975 10.63
11/1/2021 4:30:00 PM 12.63 54.734 0.246 6.83 4975 10.2
11/1/2021 4:45:00 PM 12.64 54.752 0.247 6.73 4975 10.43
11/1/2021 5:00:00 PM 12.65 54.77 0.251 6.74 4975 10.57
11/1/2021 5:15:00 PM 12.65 54.77 0.248 6.74 4975 10.32
11/1/2021 5:30:00 PM 12.64 54.752 0.253 6.79 4975 10.51
11/1/2021 5:45:00 PM 12.64 54.752 0.251 6.77 4975 10.45
11/1/2021 6:00:00 PM 12.63 54.734 0.24 6.77 4975 10.3
11/1/2021 6:15:00 PM 12.62 54.716 0.249 6.75 4975 10.32
11/1/2021 6:30:00 PM 12.61 54.698 0.248 6.75 4975 10.34
11/1/2021 6:45:00 PM 12.59 54.662 0.249 6.75 4975 10.25
11/1/2021 7:00:00 PM 12.58 54.644 0.248 6.7 4975 9.92
11/1/2021 7:15:00 PM 12.57 54.626 0.248 6.64 4975 9.74
11/1/2021 7:30:00 PM 12.52 54.536 0.248 6.7 4975 9.88
11/1/2021 7:45:00 PM 12.5 54.5 0.249 6.75 4975 9.6
11/1/2021 8:00:00 PM 12.47 54.446 0.248 6.77 4975 9.7
11/1/2021 8:15:00 PM 12.45 54.41 0.247 6.78 4975 10.06
11/1/2021 8:30:00 PM 12.41 54.338 0.247 6.79 4975 10.14
11/1/2021 8:45:00 PM 12.4 54.32 0.246 6.79 4975 10.01
11/1/2021 9:00:00 PM 12.38 54.284 0.246 6.78 4975 9.97
11/1/2021 9:15:00 PM 12.36 54.248 0.244 6.77 4975 9.79
11/1/2021 9:30:00 PM 12.34 54.212 0.241 6.78 4975 10
11/1/2021 9:45:00 PM 12.32 54.176 0.246 6.78 4975 9.9
11/1/2021 10:00:00 PM 12.31 54.158 0.247 6.79 4975 9.57
11/1/2021 10:15:00 PM 12.3 54.14 0.242 6.8 4975 9.94
11/1/2021 10:30:00 PM 12.28 54.104 0.243 6.8 4975 9.88
11/1/2021 10:45:00 PM 12.28 54.104 0.252 6.79 4975 9.86
11/1/2021 11:00:00 PM 12.28 54.104 0.254 6.76 4975 9.86
11/1/2021 11:15:00 PM 12.27 54.086 0.254 6.7 4975 9.96
11/1/2021 11:30:00 PM 12.26 54.068 0.25 6.71 4975 9.92
11/1/2021 11:45:00 PM 12.25 54.05 0.256 6.65 4975 9.85
11/2/2021 12:00:00 AM 12.24 54.032 0.261 6.64 4975 9.94
11/2/2021 12:15:00 AM 12.22 53.996 0.259 6.67 4975 9.71
11/2/2021 12:30:00 AM 12.2 53.96 0.257 6.66 4975 9.85
11/2/2021 12:45:00 AM 12.16 53.888 0.254 6.69 4975 9.89
11/2/2021 1:00:00 AM 12.14 53.852 0.256 6.68 4975 9.89
11/2/2021 1:15:00 AM 12.12 53.816 0.256 6.67 4975 9.77
11/2/2021 1:30:00 AM 12.08 53.744 0.258 6.68 3301 9.89
11/2/2021 1:45:00 AM 12.06 53.708 0.261 6.66 3364 9.86
11/2/2021 2:00:00 AM 12.03 53.654 0.258 6.65 3200 9.86
11/2/2021 2:15:00 AM 12 53.6 0.26 6.66 3272 9.89
11/2/2021 2:30:00 AM 11.98 53.564 0.262 6.69 3249 9.89
11/2/2021 2:45:00 AM 11.96 53.528 0.259 6.67 3227 9.9
11/2/2021 3:00:00 AM 11.93 53.474 0.246 6.68 3266 9.9
11/2/2021 3:15:00 AM 11.91 53.438 0.255 6.68 3239 9.8
11/2/2021 3:30:00 AM 11.87 53.366 0.254 6.67 3232 9.91
11/2/2021 3:45:00 AM 11.83 53.294 0.254 6.69 2171 9.79
11/2/2021 4:00:00 AM 11.81 53.258 0.254 6.68 2232 9.81
11/2/2021 4:15:00 AM 11.78 53.204 0.258 6.7 2108 9.84
11/2/2021 4:30:00 AM 11.77 53.186 0.26 6.72 2261 9.8
11/2/2021 4:45:00 AM 11.73 53.114 0.258 6.77 2292 9.85
11/2/2021 5:00:00 AM 11.71 53.078 0.252 6.69 2267 9.82
11/2/2021 5:15:00 AM 11.68 53.024 0.259 6.7 2293 9.85
11/2/2021 5:30:00 AM 11.66 52.988 0.258 6.69 2317 9.93
11/2/2021 5:45:00 AM 11.63 52.934 0.256 6.7 2333 9.98
11/2/2021 6:00:00 AM 11.62 52.916 0.246 6.68 2339 10
11/2/2021 6:15:00 AM 11.59 52.862 0.256 6.68 2357 10.01
11/2/2021 6:30:00 AM 11.55 52.79 0.255 6.69 2337 9.89
11/2/2021 6:45:00 AM 11.52 52.736 0.254 6.69 2320 9.86
11/2/2021 7:00:00 AM 11.51 52.718 0.255 6.68 2343 9.88
11/2/2021 7:15:00 AM 11.49 52.682 0.255 6.68 2326 9.94
11/2/2021 7:30:00 AM 11.47 52.646 0.256 6.68 2390 9.9
11/2/2021 7:45:00 AM 11.46 52.628 0.256 6.68 2390 10.01
11/2/2021 8:00:00 AM 11.45 52.61 0.257 6.67 2412 10.03
11/2/2021 8:15:00 AM 11.44 52.592 0.252 6.68 2421 9.95
11/2/2021 8:30:00 AM 11.43 52.574 0.259 6.68 2443 10.02
11/2/2021 8:45:00 AM 11.42 52.556 0.26 6.68 2444 9.96
11/2/2021 9:00:00 AM 11.41 52.538 0.259 6.7 2459 9.9
11/2/2021 9:15:00 AM 11.4 52.52 0.259 6.71 2441 9.9
11/2/2021 9:30:00 AM 11.4 52.52 0.259 6.73 2385 9.99
11/2/2021 9:45:00 AM 11.39 52.502 0.257 6.72 2488 10.19
11/2/2021 10:00:00 AM 11.39 52.502 0.255 6.72 2499 10.22
11/2/2021 10:15:00 AM 11.4 52.52 0.249 6.71 2506 10.24
11/2/2021 10:30:00 AM 11.41 52.538 0.257 6.72 2521 10.28
11/2/2021 10:45:00 AM 11.42 52.556 0.258 6.69 2533 10.35
11/2/2021 11:00:00 AM 11.43 52.574 0.257 6.69 2540 9.92
11/2/2021 11:15:00 AM 11.45 52.61 0.259 6.69 2549 10.42
11/2/2021 11:30:00 AM 11.46 52.628 0.26 6.69 2571 10.34
11/2/2021 11:45:00 AM 11.49 52.682 0.261 6.71 2601 9.83
11/2/2021 12:00:00 PM 11.49 52.682 0.26 6.72 2610 10.51
11/2/2021 12:15:00 PM 11.5 52.7 0.258 6.72 2618 10.63
11/2/2021 12:30:00 PM 11.53 52.754 0.258 6.7 2624 10.71
11/2/2021 12:45:00 PM 11.55 52.79 0.261 6.76 2617 10.65
11/2/2021 1:00:00 PM 11.54 52.772 0.259 6.74 2596 10.8
11/2/2021 1:15:00 PM 11.55 52.79 0.258 6.73 2599 10.85
11/2/2021 1:30:00 PM 11.57 52.826 0.262 6.76 2611 10.71
11/2/2021 1:45:00 PM 11.6 52.88 0.26 6.75 2630 10.81
11/2/2021 2:00:00 PM 11.6 52.88 0.268 6.72 2634 10.99
11/2/2021 2:15:00 PM 11.61 52.898 0.27 6.72 2639 10.95
11/2/2021 2:30:00 PM 11.62 52.916 0.265 6.73 2639 10.95
11/2/2021 2:45:00 PM 11.63 52.934 0.256 6.74 2643 11.01
11/2/2021 3:00:00 PM 11.64 52.952 0.263 6.76 2639 11.01
11/2/2021 3:15:00 PM 11.65 52.97 0.262 6.74 2643 11.06
11/2/2021 3:30:00 PM 11.63 52.934 0.259 6.79 2652 11.07
11/2/2021 3:45:00 PM 11.64 52.952 0.259 6.79 2641 11.18
11/2/2021 4:00:00 PM 11.64 52.952 0.259 6.84 2653 11.03
11/2/2021 4:15:00 PM 11.65 52.97 0.256 6.83 2655 10.88
11/2/2021 4:30:00 PM 11.65 52.97 0.26 6.82 2653 11
11/2/2021 4:45:00 PM 11.63 52.934 0.255 6.86 2671 11.19
11/2/2021 5:00:00 PM 11.63 52.934 0.252 6.87 2685 11.13
11/2/2021 5:15:00 PM 11.63 52.934 0.262 6.87 2695 11.06
11/2/2021 5:30:00 PM 11.63 52.934 0.263 6.85 2682 11.1
11/2/2021 5:45:00 PM 11.61 52.898 0.261 6.86 2670 11.12
11/2/2021 6:00:00 PM 11.59 52.862 0.259 6.88 2682 11.08
11/2/2021 6:15:00 PM 11.56 52.808 0.259 6.91 2690 11.04
11/2/2021 6:30:00 PM 11.53 52.754 0.251 6.92 2695 10.99
11/2/2021 6:45:00 PM 11.5 52.7 0.258 6.92 2732 10.95
11/2/2021 7:00:00 PM 11.48 52.664 0.259 6.93 2737 10.89
11/2/2021 7:15:00 PM 11.46 52.628 0.26 6.93 2755 10.78
11/2/2021 7:30:00 PM 11.43 52.574 0.261 6.92 2741 10.72
11/2/2021 7:45:00 PM 11.4 52.52 0.263 6.93 2739 10.76
11/2/2021 8:00:00 PM 11.38 52.484 0.265 6.95 2752 10.69
11/2/2021 8:15:00 PM 11.35 52.43 0.257 6.95 2763 10.69
11/2/2021 8:30:00 PM 11.33 52.394 0.266 6.95 2783 10.65
11/2/2021 8:45:00 PM 11.3 52.34 0.265 6.94 2804 10.63
11/2/2021 9:00:00 PM 11.27 52.286 0.264 6.94 2809 10.59
11/2/2021 9:15:00 PM 11.22 52.196 0.263 6.94 2437 10.58
11/2/2021 9:30:00 PM 11.17 52.106 0.255 6.94 1823 10.55
11/2/2021 9:45:00 PM 11.14 52.052 0.263 6.96 3267 10.52
11/2/2021 10:00:00 PM 11.11 51.998 0.262 6.95 4449 10.5
11/2/2021 10:15:00 PM 11.07 51.926 0.258 6.92 4693 10.5
11/2/2021 10:30:00 PM 11.04 51.872 0.264 6.93 4619 10.46
11/2/2021 10:45:00 PM 11.01 51.818 0.268 6.93 4698 10.44
11/2/2021 11:00:00 PM 10.97 51.746 0.26 6.94 4751 10.41
11/2/2021 11:15:00 PM 10.92 51.656 0.268 6.93 4802 10.47
11/2/2021 11:30:00 PM 10.88 51.584 0.268 6.95 4879 10.48
11/2/2021 11:45:00 PM 10.86 51.548 0.264 6.94 4895 10.42
11/3/2021 12:00:00 AM 10.8 51.44 0.265 6.95 4910 10.4
11/3/2021 12:15:00 AM 10.78 51.404 0.259 6.95 4903 10.34
11/3/2021 12:30:00 AM 10.78 51.404 0.266 6.93 4972 10.41
11/3/2021 12:45:00 AM 10.72 51.296 0.255 6.92 4967 10.47
11/3/2021 1:00:00 AM 10.68 51.224 0.263 6.92 4973 10.44
11/3/2021 1:15:00 AM 10.66 51.188 0.252 6.92 4972 10.38
11/3/2021 1:30:00 AM 10.63 51.134 0.264 6.91 4974 10.43
11/3/2021 1:45:00 AM 10.57 51.026 0.265 6.91 4962 10.41
11/3/2021 2:00:00 AM 10.54 50.972 0.265 6.89 4968 10.43
11/3/2021 2:15:00 AM 10.52 50.936 0.266 6.88 4974 10.38
11/3/2021 2:30:00 AM 10.48 50.864 0.264 6.88 4975 10.45
11/3/2021 2:45:00 AM 10.45 50.81 0.266 6.9 4975 10.45
11/3/2021 3:00:00 AM 10.42 50.756 0.263 6.88 4975 10.43
11/3/2021 3:15:00 AM 10.38 50.684 0.254 6.87 4975 10.47
11/3/2021 3:30:00 AM 10.35 50.63 0.263 6.86 4975 10.46
11/3/2021 3:45:00 AM 10.29 50.522 0.262 6.86 4975 10.49
11/3/2021 4:00:00 AM 10.24 50.432 0.261 6.87 4975 10.5
11/3/2021 4:15:00 AM 10.2 50.36 0.262 6.88 4975 10.48
11/3/2021 4:30:00 AM 10.15 50.27 0.263 6.86 4975 10.49
11/3/2021 4:45:00 AM 10.15 50.27 0.266 6.85 4975 10.48
11/3/2021 5:00:00 AM 10.13 50.234 0.26 6.84 4975 10.5
11/3/2021 5:15:00 AM 10.08 50.144 0.263 6.85 4975 10.52
11/3/2021 5:30:00 AM 10.03 50.054 0.266 6.85 4555 10.54
11/3/2021 5:45:00 AM 9.98 49.964 0.261 6.84 4302 10.55
11/3/2021 6:00:00 AM 9.94 49.892 0.258 6.82 4336 10.56
11/3/2021 6:15:00 AM 9.9 49.82 0.25 6.84 3568 10.6
11/3/2021 6:30:00 AM 9.85 49.73 0.258 6.89 4299 10.53
11/3/2021 6:45:00 AM 9.84 49.712 0.254 6.88 3903 10.54
11/3/2021 7:00:00 AM 9.75 49.55 0.257 6.85 3907 10.6
11/3/2021 7:15:00 AM 9.73 49.514 0.262 6.86 3906 10.63
11/3/2021 7:30:00 AM 9.71 49.478 0.257 6.88 4187 10.64
11/3/2021 7:45:00 AM 9.66 49.388 0.265 6.88 3680 10.66
11/3/2021 8:00:00 AM 9.6 49.28 0.267 6.88 4763 10.7
11/3/2021 8:15:00 AM 9.58 49.244 0.261 6.9 4710 10.69
11/3/2021 8:30:00 AM 9.55 49.19 0.266 6.89 4713 10.72
11/3/2021 8:45:00 AM 9.52 49.136 0.265 6.89 4583 10.76
11/3/2021 9:00:00 AM 9.5 49.1 0.264 6.89 4822 10.82
11/3/2021 9:15:00 AM 9.45 49.01 0.262 6.91 4802 10.89
11/3/2021 9:30:00 AM 9.45 49.01 0.265 6.91 4975 10.91
11/3/2021 9:45:00 AM 9.45 49.01 0.267 6.9 4975 10.94
11/3/2021 10:00:00 AM 9.42 48.956 0.26 6.87 4975 11
11/3/2021 10:15:00 AM 9.43 48.974 0.261 6.9 4975 11.06
11/3/2021 10:30:00 AM 9.44 48.992 0.255 6.9 4975 11.13
11/3/2021 10:45:00 AM 9.46 49.028 0.267 6.88 4975 11.13
11/3/2021 11:00:00 AM 9.48 49.064 0.269 6.87 4975 11.19
11/3/2021 11:15:00 AM 9.52 49.136 0.265 6.89 4975 11.14
11/3/2021 11:30:00 AM 9.55 49.19 0.267 6.89 4975 11.28
11/3/2021 11:45:00 AM 9.56 49.208 0.268 6.88 4975 11.36
11/3/2021 12:00:00 PM 9.61 49.298 0.267 6.88 4975 11.26
11/3/2021 12:15:00 PM 9.64 49.352 0.266 6.89 4975 11.33
11/3/2021 12:30:00 PM 9.69 49.442 0.269 6.88 4975 11.5
11/3/2021 12:45:00 PM 9.73 49.514 0.273 6.84 4975 11.4
11/3/2021 1:00:00 PM 9.76 49.568 0.272 6.83 4975 11.38
11/3/2021 1:15:00 PM 9.77 49.586 0.268 6.86 4975 11.63
11/3/2021 1:30:00 PM 9.77 49.586 0.267 6.86 4975 11.75
11/3/2021 1:45:00 PM 9.82 49.676 0.256 6.86 4975 11.73
11/3/2021 2:00:00 PM 9.86 49.748 0.274 6.82 4975 11.71
11/3/2021 2:15:00 PM 9.88 49.784 0.271 6.83 4975 11.78
11/3/2021 2:30:00 PM 9.93 49.874 0.274 6.81 4975 11.83
11/3/2021 2:45:00 PM 9.99 49.982 0.266 6.75 4975 11.78
11/3/2021 3:00:00 PM 10.01 50.018 0.275 6.75 4975 11.85
11/3/2021 3:15:00 PM 10.04 50.072 0.271 6.76 4975 11.89
11/3/2021 3:30:00 PM 10.04 50.072 0.269 6.78 4975 11.89
11/3/2021 3:45:00 PM 10.04 50.072 0.268 6.81 4975 11.92
11/3/2021 4:00:00 PM 10.07 50.126 0.264 6.83 4975 11.81
11/3/2021 4:15:00 PM 10.1 50.18 0.271 6.83 4975 11.96
11/3/2021 4:30:00 PM 10.09 50.162 0.259 6.84 4975 11.85
11/3/2021 4:45:00 PM 10.07 50.126 0.256 6.85 4975 11.66
11/3/2021 5:00:00 PM 10.08 50.144 0.27 6.85 4975 11.74
11/3/2021 5:15:00 PM 10.08 50.144 0.271 6.84 4975 11.7
11/3/2021 5:30:00 PM 10.04 50.072 0.263 6.85 4975 11.75
11/3/2021 5:45:00 PM 9.99 49.982 0.26 6.86 4975 11.72
11/3/2021 6:00:00 PM 9.99 49.982 0.266 6.83 4975 11.68
11/3/2021 6:15:00 PM 9.94 49.892 0.259 6.86 3371 11.64
11/3/2021 6:30:00 PM 9.89 49.802 0.263 6.88 3396 11.59
11/3/2021 6:45:00 PM 9.87 49.766 0.265 6.89 3368 11.53
11/3/2021 7:00:00 PM 9.85 49.73 0.263 6.88 3391 11.48
11/3/2021 7:15:00 PM 9.84 49.712 0.26 6.88 3392 11.48
11/3/2021 7:30:00 PM 9.84 49.712 0.253 6.88 3388 11.3
11/3/2021 7:45:00 PM 9.83 49.694 0.267 6.88 3354 11.36
11/3/2021 8:00:00 PM 9.83 49.694 0.27 6.91 3352 11.33
11/3/2021 8:15:00 PM 9.85 49.73 0.265 6.9 3348 11.24
11/3/2021 8:30:00 PM 9.85 49.73 0.262 6.89 3351 11.21
11/3/2021 8:45:00 PM 9.84 49.712 0.264 6.9 3699 11.2
11/3/2021 9:00:00 PM 9.83 49.694 0.273 6.9 3693 11.12
11/3/2021 9:15:00 PM 9.83 49.694 0.266 6.89 3709 11.07
11/3/2021 9:30:00 PM 9.83 49.694 0.261 6.89 3574 10.78
11/3/2021 9:45:00 PM 9.85 49.73 0.267 6.87 3546 10.9
11/3/2021 10:00:00 PM 9.82 49.676 0.269 6.88 3737 11.02
11/3/2021 10:15:00 PM 9.83 49.694 0.261 6.87 3692 10.98
11/3/2021 10:30:00 PM 9.8 49.64 0.268 6.86 3660 10.99
11/3/2021 10:45:00 PM 9.78 49.604 0.268 6.89 3636 10.95
11/3/2021 11:00:00 PM 9.76 49.568 0.269 6.87 3645 10.93
11/3/2021 11:15:00 PM 9.75 49.55 0.27 6.89 3617 10.9
11/3/2021 11:30:00 PM 9.71 49.478 0.269 6.89 3567 10.92
11/3/2021 11:45:00 PM 9.68 49.424 0.263 6.9 3548 10.91
11/4/2021 12:00:00 AM 9.67 49.406 0.268 6.9 3553 10.89
11/4/2021 12:15:00 AM 9.64 49.352 0.267 6.89 3544 10.9
11/4/2021 12:30:00 AM 9.62 49.316 0.268 6.89 3532 10.85
11/4/2021 12:45:00 AM 9.61 49.298 0.261 6.91 3517 10.88
11/4/2021 1:00:00 AM 9.59 49.262 0.255 6.89 3508 10.84
11/4/2021 1:15:00 AM 9.53 49.154 0.265 6.91 3491 10.85
11/4/2021 1:30:00 AM 9.49 49.082 0.261 6.9 3481 10.83
11/4/2021 1:45:00 AM 9.45 49.01 0.258 6.9 3473 10.87
11/4/2021 2:00:00 AM 9.43 48.974 0.26 6.88 3468 10.86
11/4/2021 2:15:00 AM 9.39 48.902 0.259 6.9 3457 10.86
11/4/2021 2:30:00 AM 9.35 48.83 0.268 6.88 3430 10.79
11/4/2021 2:45:00 AM 9.33 48.794 0.269 6.88 3405 10.87
11/4/2021 3:00:00 AM 9.35 48.83 0.265 6.87 3398 10.77
11/4/2021 3:15:00 AM 9.29 48.722 0.267 6.84 3388 10.84
11/4/2021 3:30:00 AM 9.23 48.614 0.268 6.85 3381 10.86
11/4/2021 3:45:00 AM 9.22 48.596 0.262 6.86 3362 10.68
11/4/2021 4:00:00 AM 9.21 48.578 0.263 6.85 3328 10.71
11/4/2021 4:15:00 AM 9.16 48.488 0.257 6.86 3315 10.63
11/4/2021 4:30:00 AM 9.1 48.38 0.262 6.84 3301 10.81
11/4/2021 4:45:00 AM 9.07 48.326 0.263 6.83 3296 10.81
11/4/2021 5:00:00 AM 9.02 48.236 0.267 6.84 3280 10.89
11/4/2021 5:15:00 AM 9 48.2 0.267 6.85 3262 10.83
11/4/2021 5:30:00 AM 8.96 48.128 0.266 6.87 3256 10.83
11/4/2021 5:45:00 AM 8.94 48.092 0.257 6.86 3254 10.57
11/4/2021 6:00:00 AM 8.93 48.074 0.263 6.88 3250 10.88
11/4/2021 6:15:00 AM 8.87 47.966 0.263 6.88 3244 10.88
11/4/2021 6:30:00 AM 8.84 47.912 0.254 6.89 3233 10.75
11/4/2021 6:45:00 AM 8.83 47.894 0.264 6.9 3228 10.81
11/4/2021 7:00:00 AM 8.82 47.876 0.256 6.92 3217 10.83
11/4/2021 7:15:00 AM 8.81 47.858 0.254 6.92 3223 10.83
11/4/2021 7:30:00 AM 8.77 47.786 0.266 6.93 3207 10.83
11/4/2021 7:45:00 AM 8.77 47.786 0.262 6.96 3199 10.76
11/4/2021 8:00:00 AM 8.75 47.75 0.267 6.97 3189 10.95
11/4/2021 8:15:00 AM 8.71 47.678 0.266 6.96 3186 10.91
11/4/2021 8:30:00 AM 8.67 47.606 0.268 6.96 3175 10.99
11/4/2021 8:45:00 AM 8.64 47.552 0.27 7.01 3162 11
11/4/2021 9:00:00 AM 8.62 47.516 0.271 6.97 3158 11.08
11/4/2021 9:15:00 AM 8.59 47.462 0.263 6.96 3156 11.12
11/4/2021 9:30:00 AM 8.56 47.408 0.264 6.97 3174 11.24
11/4/2021 9:45:00 AM 8.56 47.408 0.262 6.99 3156 11.24
11/4/2021 10:00:00 AM 8.52 47.336 0.265 6.99 3167 11.36
11/4/2021 10:15:00 AM 8.51 47.318 0.261 7 3155 11.41
11/4/2021 10:30:00 AM 8.54 47.372 0.26 7 3161 11.43
11/4/2021 10:45:00 AM 8.54 47.372 0.26 7.01 3158 11.49
11/4/2021 11:00:00 AM 8.56 47.408 0.265 7.03 3148 11.55
11/4/2021 11:15:00 AM 8.61 47.498 0.262 7.02 3150 11.49
11/4/2021 11:30:00 AM 8.65 47.57 0.28 7 3133 11.55
11/4/2021 11:45:00 AM 8.68 47.624 0.269 6.99 3139 11.57
11/4/2021 12:00:00 PM 8.72 47.696 0.274 7 3136 11.76
11/4/2021 12:15:00 PM 8.79 47.822 0.272 7.01 3125 11.76
11/4/2021 12:30:00 PM 8.82 47.876 0.275 7.01 3119 11.88
11/4/2021 12:45:00 PM 8.84 47.912 0.274 7.01 3117 11.98
11/4/2021 1:00:00 PM 8.85 47.93 0.271 7.04 3114 12.02
11/4/2021 1:15:00 PM 8.85 47.93 0.263 7.05 3109 12.05
11/4/2021 1:30:00 PM 8.91 48.038 0.27 7.05 3102 12.05
11/4/2021 1:45:00 PM 8.95 48.11 0.27 7.05 3095 12.07
11/4/2021 2:00:00 PM 8.98 48.164 0.276 7.05 3096 12.17
11/4/2021 2:15:00 PM 8.99 48.182 0.263 7.08 3093 12.09
11/4/2021 2:30:00 PM 9.06 48.308 0.263 7.08 3088 12.15
11/4/2021 2:45:00 PM 9.12 48.416 0.272 7.04 3081 12.14
11/4/2021 3:00:00 PM 9.14 48.452 0.276 7.05 3081 12.28
11/4/2021 3:15:00 PM 9.15 48.47 0.273 7.07 3074 12.16
11/4/2021 3:30:00 PM 9.16 48.488 0.261 7.13 3072 12.28
11/4/2021 3:45:00 PM 9.17 48.506 0.268 7.16 3061 12.29
11/4/2021 4:00:00 PM 9.21 48.578 0.268 7.17 3063 12.35
11/4/2021 4:15:00 PM 9.22 48.596 0.267 7.2 3057 12.33
11/4/2021 4:30:00 PM 9.25 48.65 0.258 7.22 3058 12.08
11/4/2021 4:45:00 PM 9.28 48.704 0.264 7.24 3050 11.92
11/4/2021 5:00:00 PM 9.3 48.74 0.271 7.26 3049 12.08
11/4/2021 5:15:00 PM 9.35 48.83 0.276 7.24 3040 12.23
11/4/2021 5:30:00 PM 9.37 48.866 0.272 7.21 3036 12.12
11/4/2021 5:45:00 PM 9.35 48.83 0.267 7.2 3041 11.96
11/4/2021 6:00:00 PM 9.33 48.794 0.274 7.23 3034 11.95
11/4/2021 6:15:00 PM 9.35 48.83 0.268 7.23 3031 11.55
11/4/2021 6:30:00 PM 9.33 48.794 0.273 7.24 3035 11.75
11/4/2021 6:45:00 PM 9.3 48.74 0.272 7.24 3039 11.24
11/4/2021 7:00:00 PM 9.29 48.722 0.262 7.24 3040 11.41
11/4/2021 7:15:00 PM 9.24 48.632 0.262 7.27 3026 11.43
11/4/2021 7:30:00 PM 9.22 48.596 0.269 7.28 3025 10.79
11/4/2021 7:45:00 PM 9.2 48.56 0.263 7.29 3011 10.62
11/4/2021 8:00:00 PM 9.18 48.524 0.272 7.29 3002 10.44
11/4/2021 8:15:00 PM 9.19 48.542 0.265 7.27 2997 10.46
11/4/2021 8:30:00 PM 9.14 48.452 0.266 7.28 2987 10.31
11/4/2021 8:45:00 PM 9.13 48.434 0.263 7.28 2983 9.91
11/4/2021 9:00:00 PM 9.13 48.434 0.277 7.25 2972 10.06
11/4/2021 9:15:00 PM 9.14 48.452 0.276 7.23 2975 10.36
11/4/2021 9:30:00 PM 9.12 48.416 0.273 7.23 2965 10.49
11/4/2021 9:45:00 PM 9.12 48.416 0.274 7.23 2966 10.45
11/4/2021 10:00:00 PM 9.09 48.362 0.273 7.24 2957 10.26
11/4/2021 10:15:00 PM 9.05 48.29 0.27 7.22 2957 10.38
11/4/2021 10:30:00 PM 9.07 48.326 0.273 7.2 2981 10.02
11/4/2021 10:45:00 PM 9.07 48.326 0.268 7.18 2991 10.09
11/4/2021 11:00:00 PM 9.05 48.29 0.268 7.18 2984 10.13
11/4/2021 11:15:00 PM 9.03 48.254 0.263 7.19 2973 9.92
11/4/2021 11:30:00 PM 9.01 48.218 0.266 7.18 2956 9.58
11/4/2021 11:45:00 PM 8.99 48.182 0.262 7.19 2943 9.71
11/5/2021 12:00:00 AM 8.95 48.11 0.274 7.2 2953 9.77
11/5/2021 12:15:00 AM 8.9 48.02 0.272 7.2 2934 9.87
11/5/2021 12:30:00 AM 8.87 47.966 0.27 7.2 2947 10.17
11/5/2021 12:45:00 AM 8.84 47.912 0.261 7.21 2938 10.13
11/5/2021 1:00:00 AM 8.81 47.858 0.265 7.21 2947 10.17
11/5/2021 1:15:00 AM 8.8 47.84 0.271 7.2 2955 10.23
11/5/2021 1:30:00 AM 8.82 47.876 0.262 7.19 2947 10.05
11/5/2021 1:45:00 AM 8.78 47.804 0.271 7.18 2951 10.14
11/5/2021 2:00:00 AM 8.77 47.786 0.275 7.17 2946 9.96
11/5/2021 2:15:00 AM 8.77 47.786 0.274 7.17 2968 10.04
11/5/2021 2:30:00 AM 8.77 47.786 0.275 7.13 2986 9.96
11/5/2021 2:45:00 AM 8.74 47.732 0.278 7.12 2997 9.97
11/5/2021 3:00:00 AM 8.7 47.66 0.276 7.13 3044 9.95
11/5/2021 3:15:00 AM 8.68 47.624 0.275 7.13 3033 10.22
11/5/2021 3:30:00 AM 8.63 47.534 0.274 7.13 3049 10.1
11/5/2021 3:45:00 AM 8.59 47.462 0.273 7.13 3056 10.05
11/5/2021 4:00:00 AM 8.59 47.462 0.27 7.13 3067 10.14
11/5/2021 4:15:00 AM 8.56 47.408 0.273 7.12 3078 10.13
11/5/2021 4:30:00 AM 8.53 47.354 0.27 7.05 3084 10.28
11/5/2021 4:45:00 AM 8.48 47.264 0.261 7.07 3084 10.24
11/5/2021 5:00:00 AM 8.48 47.264 0.275 7.07 3085 10.29
11/5/2021 5:15:00 AM 8.43 47.174 0.268 7.05 3093 10.38
11/5/2021 5:30:00 AM 8.38 47.084 0.275 7.05 3093 10.11
11/5/2021 5:45:00 AM 8.36 47.048 0.268 7.03 3094 10.2
11/5/2021 6:00:00 AM 8.31 46.958 0.263 7.04 3096 10.08
11/5/2021 6:15:00 AM 8.27 46.886 0.275 7.04 3102 10.21
11/5/2021 6:30:00 AM 8.23 46.814 0.274 7.05 3092 10.24
11/5/2021 6:45:00 AM 8.22 46.796 0.269 7.03 3108 10.24
11/5/2021 7:00:00 AM 8.21 46.778 0.273 7.05 3082 10.36
11/5/2021 7:15:00 AM 8.12 46.616 0.266 7.04 3073 10.37
11/5/2021 7:30:00 AM 8.09 46.562 0.274 7.03 3062 10.27
11/5/2021 7:45:00 AM 8.06 46.508 0.273 7.04 3046 10.29
11/5/2021 8:00:00 AM 8.06 46.508 0.274 7.05 3025 10.15
11/5/2021 8:15:00 AM 8.04 46.472 0.274 7.04 3012 10.29
11/5/2021 8:30:00 AM 8.03 46.454 0.279 7.03 3000 10.25
11/5/2021 8:45:00 AM 8.02 46.436 0.276 7.01 2984 10.42
11/5/2021 9:00:00 AM 8.04 46.472 0.285 6.99 2972 10.27
11/5/2021 9:15:00 AM 8.02 46.436 0.271 6.98 2968 10.32
11/5/2021 9:30:00 AM 8.02 46.436 0.273 6.97 2969 10.34
11/5/2021 9:45:00 AM 7.97 46.346 0.268 6.98 2970 10.47
11/5/2021 10:00:00 AM 7.96 46.328 0.275 6.98 2969 10.65
11/5/2021 10:15:00 AM 7.96 46.328 0.268 6.98 2965 10.44
11/5/2021 10:30:00 AM 7.98 46.364 0.268 6.96 2957 10.54
11/5/2021 10:45:00 AM 7.99 46.382 0.272 6.95 2948 10.46
11/5/2021 11:00:00 AM 7.98 46.364 0.272 6.96 2945 10.67
11/5/2021 11:15:00 AM 8.01 46.418 0.269 6.97 2947 10.89
11/5/2021 11:30:00 AM 8.06 46.508 0.266 6.95 2930 10.62
11/5/2021 11:45:00 AM 8.14 46.652 0.274 6.93 2923 10.74
11/5/2021 12:00:00 PM 8.18 46.724 0.274 6.94 2913 10.66
11/5/2021 12:15:00 PM 8.22 46.796 0.28 6.96 2899 10.76
11/5/2021 12:30:00 PM 8.21 46.778 0.27 6.96 2882 10.66
11/5/2021 12:45:00 PM 8.26 46.868 0.282 6.95 2874 10.77
11/5/2021 1:00:00 PM 8.29 46.922 0.271 6.95 2862 10.58
11/5/2021 1:15:00 PM 8.35 47.03 0.276 6.94 2884 10.57
11/5/2021 1:30:00 PM 8.37 47.066 0.27 6.97 2884 10.79
11/5/2021 1:45:00 PM 8.4 47.12 0.269 6.97 2867 10.76
11/5/2021 2:00:00 PM 8.44 47.192 0.269 6.97 2848 10.67
11/5/2021 2:15:00 PM 8.49 47.282 0.27 6.96 2844 10.49
11/5/2021 2:30:00 PM 8.52 47.336 0.276 6.96 2833 10.85
11/5/2021 2:45:00 PM 8.53 47.354 0.269 6.99 2830 11.06
11/5/2021 3:00:00 PM 8.6 47.48 0.279 6.98 2835 10.78
11/5/2021 3:15:00 PM 8.64 47.552 0.272 6.96 2833 11.2
11/5/2021 3:30:00 PM 8.67 47.606 0.273 6.95 2813 10.86
11/5/2021 3:45:00 PM 8.7 47.66 0.281 6.93 2804 11.1
11/5/2021 4:00:00 PM 8.71 47.678 0.273 6.96 2796 11.1
11/5/2021 4:15:00 PM 8.72 47.696 0.269 6.98 2794 11.2
11/5/2021 4:30:00 PM 8.73 47.714 0.267 7 2802 11.1
11/5/2021 4:45:00 PM 8.76 47.768 0.271 6.99 2794 10.78
11/5/2021 5:00:00 PM 8.76 47.768 0.268 6.99 2787 10.88
11/5/2021 5:15:00 PM 8.74 47.732 0.269 7.01 2773 10.93
11/5/2021 5:30:00 PM 8.75 47.75 0.271 7.04 2780 11.12
11/5/2021 5:45:00 PM 8.74 47.732 0.265 7.06 2776 10.71
11/5/2021 6:00:00 PM 8.77 47.786 0.271 7.05 2769 10.9
11/5/2021 6:15:00 PM 8.75 47.75 0.28 7.07 2980 10.96
11/5/2021 6:30:00 PM 8.74 47.732 0.28 7.03 2933 10.85
11/5/2021 6:45:00 PM 8.74 47.732 0.27 7.02 2848 11.15
11/5/2021 7:00:00 PM 8.74 47.732 0.269 7.01 2898 10.98
11/5/2021 7:15:00 PM 8.72 47.696 0.265 7.03 2885 11
11/5/2021 7:30:00 PM 8.71 47.678 0.28 7.02 2885 10.89
11/5/2021 7:45:00 PM 8.73 47.714 0.28 7.01 2880 10.86
11/5/2021 8:00:00 PM 8.72 47.696 0.266 6.93 2882 11.25
11/5/2021 8:15:00 PM 8.7 47.66 0.279 6.94 2875 11.01
11/5/2021 8:30:00 PM 8.67 47.606 0.277 6.94 2875 10.97
11/5/2021 8:45:00 PM 8.67 47.606 0.278 6.97 2879 10.94
11/5/2021 9:00:00 PM 8.67 47.606 0.268 6.97 2873 11.03
11/5/2021 9:15:00 PM 8.64 47.552 0.269 6.98 2868 11.16
11/5/2021 9:30:00 PM 8.65 47.57 0.277 6.99 2852 10.73
11/5/2021 9:45:00 PM 8.65 47.57 0.268 6.96 2853 10.47
11/5/2021 10:00:00 PM 8.63 47.534 0.274 6.97 2863 10.52
11/5/2021 10:15:00 PM 8.61 47.498 0.265 6.97 2865 10.13
11/5/2021 10:30:00 PM 8.61 47.498 0.273 6.98 2860 9.75
11/5/2021 10:45:00 PM 8.61 47.498 0.269 6.97 2867 10.36
11/5/2021 11:00:00 PM 8.6 47.48 0.276 6.96 2861 10.55
11/5/2021 11:15:00 PM 8.6 47.48 0.268 6.94 2861 9.99
11/5/2021 11:30:00 PM 8.6 47.48 0.273 6.94 2855 9.59
11/5/2021 11:45:00 PM 8.61 47.498 0.283 6.92 2870 9.44
11/6/2021 12:00:00 AM 8.57 47.426 0.273 6.91 2862 9.89
11/6/2021 12:15:00 AM 8.56 47.408 0.275 6.91 2849 9.91
11/6/2021 12:30:00 AM 8.54 47.372 0.275 6.9 2850 9.29
11/6/2021 12:45:00 AM 8.56 47.408 0.275 6.88 2841 9.48
11/6/2021 1:00:00 AM 8.54 47.372 0.281 6.89 2838 9.6
11/6/2021 1:15:00 AM 8.54 47.372 0.278 6.89 2839 10.07
11/6/2021 1:30:00 AM 8.53 47.354 0.278 6.84 2839 10.05
11/6/2021 1:45:00 AM 8.49 47.282 0.275 6.85 2824 9.91
11/6/2021 2:00:00 AM 8.43 47.174 0.279 6.87 2836 10.35
11/6/2021 2:15:00 AM 8.43 47.174 0.267 6.9 2825 9.91
11/6/2021 2:30:00 AM 8.39 47.102 0.279 6.9 2819 9.66
11/6/2021 2:45:00 AM 8.35 47.03 0.284 6.92 2817 9.48
11/6/2021 3:00:00 AM 8.36 47.048 0.288 6.92 2807 9.39
11/6/2021 3:15:00 AM 8.33 46.994 0.286 6.92 2810 9.75
11/6/2021 3:30:00 AM 8.29 46.922 0.274 6.92 2811 10.05
11/6/2021 3:45:00 AM 8.25 46.85 0.277 6.92 2810 10.56
11/6/2021 4:00:00 AM 8.21 46.778 0.282 6.93 2807 10.49
11/6/2021 4:15:00 AM 8.17 46.706 0.279 6.95 2806 10.54
11/6/2021 4:30:00 AM 8.18 46.724 0.284 6.95 2804 10.64
11/6/2021 4:45:00 AM 8.16 46.688 0.289 6.91 2789 10.72
11/6/2021 5:00:00 AM 8.13 46.634 0.285 6.91 2804 10.78
11/6/2021 5:15:00 AM 8.11 46.598 0.282 6.9 2799 10.82
11/6/2021 5:30:00 AM 8.07 46.526 0.278 6.91 2793 10.84
11/6/2021 5:45:00 AM 8.02 46.436 0.28 6.9 2794 10.68
11/6/2021 6:00:00 AM 7.99 46.382 0.279 6.91 2781 9.88
11/6/2021 6:15:00 AM 7.97 46.346 0.277 6.91 2781 10.39
11/6/2021 6:30:00 AM 7.94 46.292 0.29 6.9 2780 10.6
11/6/2021 6:45:00 AM 7.91 46.238 0.281 6.91 2786 10.61
11/6/2021 7:00:00 AM 7.9 46.22 0.283 6.91 2782 10.6
11/6/2021 7:15:00 AM 7.85 46.13 0.292 6.88 2782 10.56
11/6/2021 7:30:00 AM 7.81 46.058 0.29 6.88 2779 10.71
11/6/2021 7:45:00 AM 7.76 45.968 0.284 6.9 2772 10.79
11/6/2021 8:00:00 AM 7.71 45.878 0.277 6.92 2763 10.95
11/6/2021 8:15:00 AM 7.65 45.77 0.279 6.94 2760 10.93
11/6/2021 8:30:00 AM 7.66 45.788 0.272 6.94 2751 10.93
11/6/2021 8:45:00 AM 7.66 45.788 0.279 6.94 2749 10.79
11/6/2021 9:00:00 AM 7.68 45.824 0.28 6.93 2744 10.74
11/6/2021 9:15:00 AM 7.71 45.878 0.283 6.93 2743 10.58
11/6/2021 9:30:00 AM 7.7 45.86 0.289 6.9 2735 10.71
11/6/2021 9:45:00 AM 7.66 45.788 0.288 6.93 2730 10.49
11/6/2021 10:00:00 AM 7.6 45.68 0.277 6.97 2742 10.88
11/6/2021 10:15:00 AM 7.61 45.698 0.278 7 2729 10.56
11/6/2021 10:30:00 AM 7.67 45.806 0.285 6.99 2728 11.04
11/6/2021 10:45:00 AM 7.7 45.86 0.286 6.96 2712 11.29
11/6/2021 11:00:00 AM 7.69 45.842 0.28 6.98 2704 11.24
11/6/2021 11:15:00 AM 7.69 45.842 0.28 6.98 2708 11.47
11/6/2021 11:30:00 AM 7.73 45.914 0.283 7 2702 11.48
11/6/2021 11:45:00 AM 7.79 46.022 0.279 6.98 2692 11.63
11/6/2021 12:00:00 PM 7.87 46.166 0.289 6.97 2701 11.48
11/6/2021 12:15:00 PM 7.93 46.274 0.294 6.94 2706 11.82
11/6/2021 12:30:00 PM 7.96 46.328 0.3 6.94 2696 11.72
11/6/2021 12:45:00 PM 8.01 46.418 0.291 6.92 2678 11.52
11/6/2021 1:00:00 PM 8.05 46.49 0.292 6.92 2668 11.68
11/6/2021 1:15:00 PM 8.06 46.508 0.281 6.95 2668 11.49
11/6/2021 1:30:00 PM 8.09 46.562 0.28 6.96 2648 11.45
11/6/2021 1:45:00 PM 8.15 46.67 0.292 6.97 2647 11.23
11/6/2021 2:00:00 PM 8.2 46.76 0.29 6.97 2637 11.67
11/6/2021 2:15:00 PM 8.2 46.76 0.28 7 2624 11.93
11/6/2021 2:30:00 PM 8.22 46.796 0.276 7.04 2623 11.4
11/6/2021 2:45:00 PM 8.29 46.922 0.29 7.03 2617 11.26
11/6/2021 3:00:00 PM 8.31 46.958 0.284 7.04 2597 11.35
11/6/2021 3:15:00 PM 8.35 47.03 0.285 7.05 2590 11.53
11/6/2021 3:30:00 PM 8.38 47.084 0.285 7.07 2591 11.69
11/6/2021 3:45:00 PM 8.42 47.156 0.288 7.07 2569 11.7
11/6/2021 4:00:00 PM 8.44 47.192 0.279 7.09 2558 11.86
11/6/2021 4:15:00 PM 8.46 47.228 0.281 7.11 2559 12.05
11/6/2021 4:30:00 PM 8.48 47.264 0.283 7.11 2552 11.72
11/6/2021 4:45:00 PM 8.48 47.264 0.269 7.15 2548 11.74
11/6/2021 5:00:00 PM 8.51 47.318 0.279 7.15 2542 11.86
11/6/2021 5:15:00 PM 8.54 47.372 0.285 7.15 2542 11.18
11/6/2021 5:30:00 PM 8.55 47.39 0.287 7.13 2549 11.74
11/6/2021 5:45:00 PM 8.56 47.408 0.289 7.12 2549 11.89
11/6/2021 6:00:00 PM 8.57 47.426 0.295 7.09 2541 11.79
11/6/2021 6:15:00 PM 8.57 47.426 0.294 7.1 2532 11.76
11/6/2021 6:30:00 PM 8.56 47.408 0.296 7.11 2515 10.78
11/6/2021 6:45:00 PM 8.57 47.426 0.295 7.07 2507 10.03
11/6/2021 7:00:00 PM 8.56 47.408 0.288 7.04 2487 9.48
11/6/2021 7:15:00 PM 8.53 47.354 0.286 7.03 2473 10.09
11/6/2021 7:30:00 PM 8.53 47.354 0.291 7.01 2470 10.28
11/6/2021 7:45:00 PM 8.5 47.3 0.286 7.02 2469 10.34
11/6/2021 8:00:00 PM 8.51 47.318 0.291 7.02 2461 9.93
11/6/2021 8:15:00 PM 8.52 47.336 0.285 6.99 2460 9.93
11/6/2021 8:30:00 PM 8.51 47.318 0.292 6.98 2452 9.86
11/6/2021 8:45:00 PM 8.51 47.318 0.295 7 2453 8.92
11/6/2021 9:00:00 PM 8.5 47.3 0.297 7 2452 10.8
11/6/2021 9:15:00 PM 8.48 47.264 0.292 7.03 2453 10.56
11/6/2021 9:30:00 PM 8.48 47.264 0.282 7.01 2429 9.93
11/6/2021 9:45:00 PM 8.47 47.246 0.294 7.01 2429 9.79
11/6/2021 10:00:00 PM 8.45 47.21 0.291 7.01 2427 9.82
11/6/2021 10:15:00 PM 8.46 47.228 0.289 7.02 2415 9.75
11/6/2021 10:30:00 PM 8.47 47.246 0.283 7.02 2401 9.83
11/6/2021 10:45:00 PM 8.45 47.21 0.29 7 2398 9.85
11/6/2021 11:00:00 PM 8.45 47.21 0.289 6.99 2401 9.9
11/6/2021 11:15:00 PM 8.43 47.174 0.296 6.99 2395 10.66
11/6/2021 11:30:00 PM 8.41 47.138 0.294 7 2588 10.77
11/6/2021 11:45:00 PM 8.41 47.138 0.294 7 2001 10.47
11/7/2021 12:00:00 AM 8.43 47.174 0.291 7 2040 10.45
11/7/2021 12:15:00 AM 8.4 47.12 0.292 7.01 2101 10.75
11/7/2021 12:30:00 AM 8.38 47.084 0.298 6.98 2109 9.83
11/7/2021 12:45:00 AM 8.41 47.138 0.304 6.98 2115 10
11/7/2021 1:00:00 AM 8.38 47.084 0.293 6.97 2130 10.39
11/7/2021 1:15:00 AM 8.36 47.048 0.301 6.99 2322 10.18
11/7/2021 1:30:00 AM 8.34 47.012 0.293 6.99 2388 10.23
11/7/2021 1:45:00 AM 8.29 46.922 0.298 7.02 2392 10.32
11/7/2021 2:00:00 AM 8.32 46.976 0.305 7.02 2469 7.84
11/7/2021 2:15:00 AM 8.27 46.886 0.288 7.02 2415 6.71
11/7/2021 2:30:00 AM 8.26 46.868 0.302 7.01 2453 7.32
11/7/2021 2:45:00 AM 8.25 46.85 0.294 7.01 2405 6.94
11/7/2021 3:00:00 AM 8.25 46.85 0.295 6.98 2306 5.47
11/7/2021 3:15:00 AM 8.2 46.76 0.303 7 2379 7.98
11/7/2021 3:30:00 AM 8.17 46.706 0.296 6.98 2340 6.55
11/7/2021 3:45:00 AM 8.15 46.67 0.294 6.98 2368 5.01
11/7/2021 4:00:00 AM 8.11 46.598 0.301 6.99 2292 5.13
11/7/2021 4:15:00 AM 8.07 46.526 0.3 6.99 2272 3.83
11/7/2021 4:30:00 AM 8.09 46.562 0.299 6.99 2312 3.83
11/7/2021 4:45:00 AM 8.09 46.562 0.302 6.97 2435 4.33
11/7/2021 5:00:00 AM 8.06 46.508 0.299 6.93 2533 4.44
11/7/2021 5:15:00 AM 8.03 46.454 0.287 6.94 2522 4.74
11/7/2021 5:30:00 AM 8 46.4 0.301 6.92 2483 4.71
11/7/2021 5:45:00 AM 7.94 46.292 0.303 6.93 2471 4.6
11/7/2021 6:00:00 AM 7.92 46.256 0.3 6.94 2436 4.88
11/7/2021 6:15:00 AM 7.92 46.256 0.298 6.95 2375 6.09
11/7/2021 6:30:00 AM 7.88 46.184 0.297 6.96 2424 6.61
11/7/2021 6:45:00 AM 7.93 46.274 0.31 6.92 2535 7.54
11/7/2021 7:00:00 AM 7.88 46.184 0.3 6.92 2443 8.11
11/7/2021 7:15:00 AM 7.9 46.22 0.318 6.88 2578 8.92
11/7/2021 7:30:00 AM 7.85 46.13 0.319 6.89 2617 7.83
11/7/2021 7:45:00 AM 7.83 46.094 0.312 6.91 2608 6.12
11/7/2021 8:00:00 AM 7.83 46.094 0.328 6.84 2661 4.94
11/7/2021 8:15:00 AM 7.86 46.148 0.338 6.84 2639 5.09
11/7/2021 8:30:00 AM 7.78 46.004 0.323 6.87 2573 4.98
11/7/2021 8:45:00 AM 7.8 46.04 0.334 6.85 2506 4.89
11/7/2021 9:00:00 AM 7.8 46.04 0.338 6.82 2511 4.8
11/7/2021 9:15:00 AM 7.72 45.896 0.333 6.86 2488 4.83
11/7/2021 9:30:00 AM 7.72 45.896 0.32 6.86 2487 4.85
11/7/2021 9:45:00 AM 7.73 45.914 0.316 6.86 2534 5.09
11/7/2021 10:00:00 AM 7.73 45.914 0.321 6.85 2386 5.3
11/7/2021 10:15:00 AM 7.68 45.824 0.315 6.88 2454 5.3
11/7/2021 10:30:00 AM 7.7 45.86 0.324 6.86 2445 4.96
11/7/2021 10:45:00 AM 7.72 45.896 0.316 6.87 2470 4.75
11/7/2021 11:00:00 AM 7.74 45.932 0.33 6.87 2425 4.69
11/7/2021 11:15:00 AM 7.76 45.968 0.33 6.86 2393 4.81
11/7/2021 11:30:00 AM 7.79 46.022 0.316 6.86 2395 4.65
11/7/2021 11:45:00 AM 7.86 46.148 0.314 6.85 2387 4.71
11/7/2021 12:00:00 PM 7.91 46.238 0.334 6.82 1974 4.61
11/7/2021 12:15:00 PM 7.94 46.292 0.314 6.87 1922 4.15
11/7/2021 12:30:00 PM 7.97 46.346 0.334 6.84 1902 4.63
11/7/2021 12:45:00 PM 8.06 46.508 0.329 6.82 1920 4.6
11/7/2021 1:00:00 PM 8.12 46.616 0.322 6.82 1907 4.67
11/7/2021 1:15:00 PM 8.22 46.796 0.332 6.78 1984 4.58
11/7/2021 1:30:00 PM 8.3 46.94 0.347 6.76 1762 4.71
11/7/2021 1:45:00 PM 8.27 46.886 0.323 6.82 1736 4.75
11/7/2021 2:00:00 PM 8.37 47.066 0.338 6.79 1711 4.7
11/7/2021 2:15:00 PM 8.46 47.228 0.352 6.77 1715 4.71
11/7/2021 2:30:00 PM 8.5 47.3 0.353 6.77 1697 4.44
11/7/2021 2:45:00 PM 8.52 47.336 0.336 6.77 4975 4.33
11/7/2021 3:00:00 PM 8.55 47.39 0.338 6.78 2040 3.98
11/7/2021 3:15:00 PM 8.57 47.426 0.347 6.73 1375 3.91
11/7/2021 3:30:00 PM 8.56 47.408 0.346 6.75 1364 4.31
11/7/2021 3:45:00 PM 8.61 47.498 0.344 6.75 1755 4.66
11/7/2021 4:00:00 PM 8.65 47.57 0.348 6.74 760.7 4.25
11/7/2021 4:15:00 PM 8.69 47.642 0.323 6.86 895.5 4.8
11/7/2021 4:30:00 PM 8.71 47.678 0.33 6.83 795.8 4.55
11/7/2021 4:45:00 PM 8.73 47.714 0.324 6.81 895.3 4.34
11/7/2021 5:00:00 PM 8.8 47.84 0.327 6.79 899.2 4.08
11/7/2021 5:15:00 PM 8.79 47.822 0.318 6.82 743.3 4.17
11/7/2021 5:30:00 PM 8.76 47.768 0.309 6.83 958.4 4.36
11/7/2021 5:45:00 PM 8.75 47.75 0.32 6.85 1198 4.56
11/7/2021 6:00:00 PM 8.72 47.696 0.307 6.87 928 4.88
11/7/2021 6:15:00 PM 8.77 47.786 0.334 6.84 971.8 4.56
11/7/2021 6:30:00 PM 8.8 47.84 0.323 6.81 802.4 4.25
11/7/2021 6:45:00 PM 8.77 47.786 0.309 6.84 1267 4.49
11/7/2021 7:00:00 PM 8.73 47.714 0.315 6.89 982.8 4.62
11/7/2021 7:15:00 PM 8.72 47.696 0.307 6.88 798.2 4.67
11/7/2021 7:30:00 PM 8.76 47.768 0.319 6.86 763.1 4.05
11/7/2021 7:45:00 PM 8.76 47.768 0.314 6.88 805.2 4.13
11/7/2021 8:00:00 PM 8.78 47.804 0.318 6.83 912.7 4.17
11/7/2021 8:15:00 PM 8.82 47.876 0.337 6.84 1005 4.03
11/7/2021 8:30:00 PM 8.77 47.786 0.315 6.87 771 4.06
11/7/2021 8:45:00 PM 8.8 47.84 0.325 6.81 815.3 4.11
11/7/2021 9:00:00 PM 8.78 47.804 0.309 6.85 920.9 4.38
11/7/2021 9:15:00 PM 8.7 47.66 0.31 6.89 1008 4.51
11/7/2021 9:30:00 PM 8.74 47.732 0.306 6.87 864.6 4.41
11/7/2021 9:45:00 PM 8.71 47.678 0.309 6.9 971.3 4.24
11/7/2021 10:00:00 PM 8.73 47.714 0.313 6.88 1098 4.13
11/7/2021 10:15:00 PM 8.79 47.822 0.303 6.85 1400 3.71
11/7/2021 10:30:00 PM 8.81 47.858 0.321 6.81 853.5 3.89
11/7/2021 10:45:00 PM 8.82 47.876 0.317 6.8 890.3 3.82
11/7/2021 11:00:00 PM 8.76 47.768 0.322 6.85 1044 3.83
11/7/2021 11:15:00 PM 8.75 47.75 0.33 6.85 767.2 3.67
11/7/2021 11:30:00 PM 8.71 47.678 0.308 6.85 871.3 3.85
11/7/2021 11:45:00 PM 8.75 47.75 0.321 6.86 658.4 3.61
11/8/2021 12:00:00 AM 8.78 47.804 0.333 6.82 660.4 3.59
11/8/2021 12:15:00 AM 8.79 47.822 0.349 6.82 656.5 3.65
11/8/2021 12:30:00 AM 8.7 47.66 0.322 6.85 660.5 3.91
11/8/2021 12:45:00 AM 8.74 47.732 0.34 6.82 660.1 2.92
11/8/2021 1:00:00 AM 8.75 47.75 0.345 6.83 660.7 3.36
11/8/2021 1:15:00 AM 8.77 47.786 0.355 6.8 660.1 3.52
11/8/2021 1:30:00 AM 8.68 47.624 0.34 6.85 656 3.83
11/8/2021 1:45:00 AM 8.67 47.606 0.325 6.86 657.2 4.08
11/8/2021 2:00:00 AM 8.71 47.678 0.344 6.82 656.3 3.86
11/8/2021 2:15:00 AM 8.64 47.552 0.343 6.85 659.6 4.14
11/8/2021 2:30:00 AM 8.73 47.714 0.366 6.8 656.5 4.09
11/8/2021 2:45:00 AM 8.69 47.642 0.365 6.81 660 4.11
11/8/2021 3:00:00 AM 8.69 47.642 0.376 6.82 653 3.85
11/8/2021 3:15:00 AM 8.58 47.444 0.355 6.83 1040 4.23
11/8/2021 3:30:00 AM 8.57 47.426 0.347 6.85 1008 3.51
11/8/2021 3:45:00 AM 8.54 47.372 0.36 6.85 1004 3.36
11/8/2021 4:00:00 AM 8.61 47.498 0.381 6.8 990 3.78
11/8/2021 4:15:00 AM 8.61 47.498 0.375 6.83 979.4 2.51
11/8/2021 4:30:00 AM 8.63 47.534 0.362 6.83 974.9 3.36
11/8/2021 4:45:00 AM 8.6 47.48 0.359 6.86 963.6 2.48
11/8/2021 5:00:00 AM 8.44 47.192 0.348 6.89 954 3.76
11/8/2021 5:15:00 AM 8.53 47.354 0.365 6.88 948.3 3.33
11/8/2021 5:30:00 AM 8.5 47.3 0.373 6.87 938.7 3.58
11/8/2021 5:45:00 AM 8.53 47.354 0.391 6.86 937.2 4.16
11/8/2021 6:00:00 AM 8.52 47.336 0.397 6.85 939.2 3.96
11/8/2021 6:15:00 AM 8.48 47.264 0.4 6.88 933.7 4.13
11/8/2021 6:30:00 AM 8.47 47.246 0.39 6.9 929.6 4.09
11/8/2021 6:45:00 AM 8.43 47.174 0.382 6.88 941.3 4.45
11/8/2021 7:00:00 AM 8.38 47.084 0.371 6.91 950.4 3.55
11/8/2021 7:15:00 AM 8.41 47.138 0.381 6.89 931.6 3.26
11/8/2021 7:30:00 AM 8.33 46.994 0.359 6.93 920.5 2.87
11/8/2021 7:45:00 AM 8.34 47.012 0.355 6.92 921 2.91
11/8/2021 8:00:00 AM 8.34 47.012 0.355 6.89 922.4 2.89
11/8/2021 8:15:00 AM 8.26 46.868 0.339 6.92 902.3 3.17
11/8/2021 8:30:00 AM 8.38 47.084 0.371 6.9 885.7 3.07
11/8/2021 8:45:00 AM 8.38 47.084 0.355 6.89 931.8 3.01
11/8/2021 9:00:00 AM 8.43 47.174 0.354 6.86 937.8 2.85
11/8/2021 9:15:00 AM 8.33 46.994 0.344 6.91 886.9 2.87
11/8/2021 9:30:00 AM 8.4 47.12 0.365 6.91 945.4 2.78
11/8/2021 9:45:00 AM 8.47 47.246 0.358 6.89 874.7 1.74
11/8/2021 10:00:00 AM 8.57 47.426 0.375 6.86 865.3 0.66
11/8/2021 10:15:00 AM 8.5 47.3 0.349 6.93 943 0.14
11/8/2021 10:30:00 AM 8.59 47.462 0.373 6.89 921.5 0.02
11/8/2021 10:45:00 AM 8.69 47.642 0.373 6.87 934.4 0.03
11/8/2021 11:00:00 AM 8.6 47.48 0.342 6.93 919.8 0.02
11/8/2021 11:15:00 AM 8.72 47.696 0.378 6.89 920.3 0.02
11/8/2021 11:30:00 AM 8.75 47.75 0.363 6.93 908.7 0.06
11/8/2021 11:45:00 AM 8.86 47.948 0.388 6.9 860.7 0.07
11/8/2021 12:00:00 PM 8.89 48.002 0.389 6.91 927.7 0.02
11/8/2021 12:15:00 PM 8.93 48.074 0.378 6.92 926.7 0.04
11/8/2021 12:30:00 PM 9.03 48.254 0.401 6.91 916.1 0.02
11/8/2021 12:45:00 PM 9.07 48.326 0.399 6.93 993.1 0.01
11/8/2021 1:00:00 PM 9.08 48.344 0.366 6.96 1150 0.01
11/8/2021 1:15:00 PM 9.13 48.434 0.324 7 1059 0.02
11/8/2021 1:30:00 PM 9.14 48.452 0.345 7.03 1061 1.54
11/8/2021 1:45:00 PM 9.21 48.578 0.358 6.96 2731 2.34
11/8/2021 2:00:00 PM 9.27 48.686 0.335 6.99 4975 2.58
11/8/2021 2:15:00 PM 9.3 48.74 0.352 6.99 3408 2.54
11/8/2021 2:30:00 PM 9.34 48.812 0.328 7.01 4905 2.53
11/8/2021 2:45:00 PM 9.39 48.902 0.336 7.01 4975 2.51
11/8/2021 3:00:00 PM 9.45 49.01 0.333 6.99 4975 2.05
11/8/2021 3:15:00 PM 9.49 49.082 0.335 6.99 4966 2.58
11/8/2021 3:30:00 PM 9.53 49.154 0.337 6.97 674.8 2.82
11/8/2021 3:45:00 PM 9.54 49.172 0.328 7.03 3558 0.77
11/8/2021 4:00:00 PM 9.58 49.244 0.325 7.04 636.5 0.39
11/8/2021 4:15:00 PM 9.58 49.244 0.318 7.06 3163 0.4
11/8/2021 4:30:00 PM 9.55 49.19 0.329 7.12 4975 0.57
11/8/2021 4:45:00 PM 9.59 49.262 0.318 7.06 4975 0.18
11/8/2021 5:00:00 PM 9.61 49.298 0.306 7.04 1511 0.05
11/8/2021 5:15:00 PM 9.61 49.298 0.304 7.05 1563 0.01
11/8/2021 5:30:00 PM 9.61 49.298 0.315 7.09 1127 0.09
11/8/2021 5:45:00 PM 9.57 49.226 0.295 7.17 1345 0.84
11/8/2021 6:00:00 PM 9.59 49.262 0.315 7.14 724.2 0.42
11/8/2021 6:15:00 PM 9.63 49.334 0.315 7.09 4975 0.06
11/8/2021 6:30:00 PM 9.66 49.388 0.324 7.09 4975 0.18
11/8/2021 6:45:00 PM 9.65 49.37 0.305 7.13 4975 0.77
11/8/2021 7:00:00 PM 9.67 49.406 0.322 7.13 606.4 0.28
11/8/2021 7:15:00 PM 9.69 49.442 0.31 7.12 703.6 0.73
11/8/2021 7:30:00 PM 9.69 49.442 0.314 7.14 703.6 0.34
11/8/2021 7:45:00 PM 9.69 49.442 0.314 7.1 697.4 0.26
11/8/2021 8:00:00 PM 9.72 49.496 0.323 7.1 691.3 0.21
11/8/2021 8:15:00 PM 9.72 49.496 0.311 7.13 689.3 0.57
11/8/2021 8:30:00 PM 9.75 49.55 0.331 7.09 682.8 0.14
11/8/2021 8:45:00 PM 9.77 49.586 0.324 7.09 679.6 0.01
11/8/2021 9:00:00 PM 9.81 49.658 0.327 7.02 679.8 0.02
11/8/2021 9:15:00 PM 9.81 49.658 0.321 7.09 678.4 0.1
11/8/2021 9:30:00 PM 9.81 49.658 0.331 7.09 678.4 0.06
11/8/2021 9:45:00 PM 9.83 49.694 0.318 7.1 680.7 0.2
11/8/2021 10:00:00 PM 9.83 49.694 0.327 7.09 673.9 0.01
11/8/2021 10:15:00 PM 9.83 49.694 0.3 7.12 673.7 0.02
11/8/2021 10:30:00 PM 9.8 49.64 0.301 7.14 672.8 0.02
11/8/2021 10:45:00 PM 9.81 49.658 0.3 7.14 672.3 0.02
11/8/2021 11:00:00 PM 9.84 49.712 0.306 7.12 669.6 0.02
11/8/2021 11:15:00 PM 9.82 49.676 0.303 7.17 668.3 0.12
11/8/2021 11:30:00 PM 9.78 49.604 0.297 7.17 664.6 0.72
11/8/2021 11:45:00 PM 9.78 49.604 0.295 7.2 683.3 0.07
11/9/2021 12:00:00 AM 9.77 49.586 0.298 7.19 661.7 0.43
11/9/2021 12:15:00 AM 9.79 49.622 0.296 7.17 663 0.06
11/9/2021 12:30:00 AM 9.79 49.622 0.298 7.19 716.7 0.03
11/9/2021 12:45:00 AM 9.78 49.604 0.295 7.21 4975 0.04
11/9/2021 1:00:00 AM 9.78 49.604 0.298 7.19 689.6 0
11/9/2021 1:15:00 AM 9.74 49.532 0.294 7.21 719 0.21
11/9/2021 1:30:00 AM 9.73 49.514 0.292 7.21 715 0.02
11/9/2021 1:45:00 AM 9.72 49.496 0.291 7.2 705.3 0
11/9/2021 2:00:00 AM 9.68 49.424 0.291 7.25 710.6 0.01
11/9/2021 2:15:00 AM 9.68 49.424 0.295 7.27 709.4 0.08
11/9/2021 2:30:00 AM 9.71 49.478 0.302 7.23 701.7 0
11/9/2021 2:45:00 AM 9.69 49.442 0.297 7.21 702.7 0
11/9/2021 3:00:00 AM 9.7 49.46 0.303 7.2 692 0
11/9/2021 3:15:00 AM 9.67 49.406 0.302 7.22 693.5 0
11/9/2021 3:30:00 AM 9.61 49.298 0.3 7.26 731 0
11/9/2021 3:45:00 AM 9.59 49.262 0.299 7.23 731.1 0
11/9/2021 4:00:00 AM 9.59 49.262 0.303 7.26 727 0
11/9/2021 4:15:00 AM 9.52 49.136 0.294 7.29 724.2 0
11/9/2021 4:30:00 AM 9.45 49.01 0.291 7.35 719.2 0
11/9/2021 4:45:00 AM 9.47 49.046 0.29 7.3 714.3 0
11/9/2021 5:00:00 AM 9.4 48.92 0.284 7.35 716.2 0
11/9/2021 5:15:00 AM 9.42 48.956 0.289 7.31 718.5 0
11/9/2021 5:30:00 AM 9.43 48.974 0.293 7.28 711.3 0
11/9/2021 5:45:00 AM 9.45 49.01 0.3 7.25 719.2 0
11/9/2021 6:00:00 AM 9.42 48.956 0.296 7.26 736.2 0
11/9/2021 6:15:00 AM 9.42 48.956 0.297 7.27 1020 0
11/9/2021 6:30:00 AM 9.36 48.848 0.299 7.27 1005 0
11/9/2021 6:45:00 AM 9.34 48.812 0.291 7.26 1013 0
11/9/2021 7:00:00 AM 9.39 48.902 0.315 7.23 993.5 0
11/9/2021 7:15:00 AM 9.34 48.812 0.296 7.28 4975 0
11/9/2021 7:30:00 AM 9.34 48.812 0.299 7.27 4975 0
11/9/2021 7:45:00 AM 9.25 48.65 0.301 7.32 4975 0
11/9/2021 8:00:00 AM 9.19 48.542 0.291 7.36 1944 0
11/9/2021 8:15:00 AM 9.21 48.578 0.292 7.34 2214 0
11/9/2021 8:30:00 AM 9.17 48.506 0.287 7.37 2167 0
11/9/2021 8:45:00 AM 9.17 48.506 0.285 7.4 2154 0
11/9/2021 9:00:00 AM 9.22 48.596 0.292 7.38 2152 0
11/9/2021 9:15:00 AM 9.24 48.632 0.29 7.39 3068 0
11/9/2021 9:30:00 AM 9.25 48.65 0.286 7.41 3124 0
11/9/2021 9:45:00 AM 9.26 48.668 0.288 7.42 2056 0
11/9/2021 10:00:00 AM 9.31 48.758 0.29 7.38 2053 0
11/9/2021 10:15:00 AM 9.36 48.848 0.292 7.37 2040 0
11/9/2021 10:30:00 AM 9.4 48.92 0.292 7.35 2034 0
11/9/2021 10:45:00 AM 9.46 49.028 0.294 7.3 2034 0
11/9/2021 11:00:00 AM 9.54 49.172 0.301 7.26 2022 0
11/9/2021 11:15:00 AM 9.59 49.262 0.306 7.25 2024 0
11/9/2021 11:30:00 AM 9.66 49.388 0.315 7.23 1534 0
11/9/2021 11:45:00 AM 9.7 49.46 0.3 7.24 1541 0
11/9/2021 12:00:00 PM 9.76 49.568 0.296 7.24 1525 0
11/9/2021 12:15:00 PM 9.78 49.604 0.297 7.25 1501 0
11/9/2021 12:30:00 PM 9.83 49.694 0.323 7.25 1499 0
11/9/2021 12:45:00 PM 9.87 49.766 0.313 7.26 1519 0
11/9/2021 1:00:00 PM 9.92 49.856 0.31 7.28 1530 0
11/9/2021 1:15:00 PM 9.96 49.928 0.305 7.28 1518 0
11/9/2021 1:30:00 PM 10.02 50.036 0.315 7.24 1728 0
11/9/2021 1:45:00 PM 10.06 50.108 0.315 7.26 1699 0
11/9/2021 2:00:00 PM 10.1 50.18 0.313 7.27 1686 0
11/9/2021 2:15:00 PM 10.14 50.252 0.338 7.26 1673 0
11/9/2021 2:30:00 PM 10.19 50.342 0.325 7.28 1679 0
11/9/2021 2:45:00 PM 10.22 50.396 0.32 7.29 1688 0
11/9/2021 3:00:00 PM 10.26 50.468 0.314 7.28 1677 0
11/9/2021 3:15:00 PM 10.29 50.522 0.322 7.27 1672 0
11/9/2021 3:30:00 PM 10.32 50.576 0.307 7.31 1669 0
11/9/2021 3:45:00 PM 10.33 50.594 0.296 7.37 1690 0
11/9/2021 4:00:00 PM 10.34 50.612 0.292 7.41 1669 0
11/9/2021 4:15:00 PM 10.33 50.594 0.286 7.49 1663 0
11/9/2021 4:30:00 PM 10.35 50.63 0.278 7.5 1660 0
11/9/2021 4:45:00 PM 10.39 50.702 0.301 7.39 2150 0
11/9/2021 5:00:00 PM 10.39 50.702 0.302 7.42 2139 0
11/9/2021 5:15:00 PM 10.41 50.738 0.298 7.41 2134 0
11/9/2021 5:30:00 PM 10.39 50.702 0.291 7.5 2126 0
11/9/2021 5:45:00 PM 10.41 50.738 0.308 7.5 2124 0
11/9/2021 6:00:00 PM 10.42 50.756 0.305 7.51 2098 0
11/9/2021 6:15:00 PM 10.44 50.792 0.293 7.49 2087 0
11/9/2021 6:30:00 PM 10.45 50.81 0.308 7.49 2087 0
11/9/2021 6:45:00 PM 10.46 50.828 0.305 7.48 2083 0.03
11/9/2021 7:00:00 PM 10.45 50.81 0.294 7.55 2374 0
11/9/2021 7:15:00 PM 10.45 50.81 0.282 7.56 2339 0
11/9/2021 7:30:00 PM 10.48 50.864 0.29 7.55 2333 0
11/9/2021 7:45:00 PM 10.51 50.918 0.299 7.52 2300 0
11/9/2021 8:00:00 PM 10.52 50.936 0.29 7.53 2292 0
11/9/2021 8:15:00 PM 10.55 50.99 0.303 7.49 2282 0
11/9/2021 8:30:00 PM 10.56 51.008 0.299 7.49 2215 0
11/9/2021 8:45:00 PM 10.58 51.044 0.293 7.44 2184 0.01
11/9/2021 9:00:00 PM 10.58 51.044 0.3 7.49 2093 0
11/9/2021 9:15:00 PM 10.59 51.062 0.297 7.53 1937 0
11/9/2021 9:30:00 PM 10.62 51.116 0.301 7.49 1934 0
11/9/2021 9:45:00 PM 10.61 51.098 0.297 7.54 1920 0
11/9/2021 10:00:00 PM 10.65 51.17 0.298 7.46 1895 0
11/9/2021 10:15:00 PM 10.65 51.17 0.295 7.5 1886 0
11/9/2021 10:30:00 PM 10.64 51.152 0.288 7.56 1874 0
11/9/2021 10:45:00 PM 10.65 51.17 0.292 7.56 1878 0
11/9/2021 11:00:00 PM 10.66 51.188 0.289 7.55 1879 0
11/9/2021 11:15:00 PM 10.69 51.242 0.293 7.49 1868 0
11/9/2021 11:30:00 PM 10.7 51.26 0.291 7.52 1843 0
11/9/2021 11:45:00 PM 10.69 51.242 0.294 7.56 1855 0
11/10/2021 12:00:00 AM 10.71 51.278 0.296 7.53 1846 0
11/10/2021 12:15:00 AM 10.72 51.296 0.298 7.51 1838 0
11/10/2021 12:30:00 AM 10.72 51.296 0.296 7.52 1843 0
11/10/2021 12:45:00 AM 10.74 51.332 0.307 7.46 1824 0
11/10/2021 1:00:00 AM 10.74 51.332 0.306 7.48 1834 0
11/10/2021 1:15:00 AM 10.73 51.314 0.297 7.51 1878 0
11/10/2021 1:30:00 AM 10.71 51.278 0.293 7.51 1847 0
11/10/2021 1:45:00 AM 10.72 51.296 0.297 7.53 1845 0
11/10/2021 2:00:00 AM 10.71 51.278 0.293 7.56 1851 0
11/10/2021 2:15:00 AM 10.72 51.296 0.295 7.56 1837 0
11/10/2021 2:30:00 AM 10.72 51.296 0.294 7.57 1839 0
11/10/2021 2:45:00 AM 10.72 51.296 0.303 7.46 1844 0
11/10/2021 3:00:00 AM 10.73 51.314 0.303 7.54 1829 0
11/10/2021 3:15:00 AM 10.74 51.332 0.302 7.53 1832 0
11/10/2021 3:30:00 AM 10.73 51.314 0.305 7.55 1823 0
11/10/2021 3:45:00 AM 10.72 51.296 0.317 7.51 1766 0
11/10/2021 4:00:00 AM 10.74 51.332 0.3 7.49 1742 0
11/10/2021 4:15:00 AM 10.72 51.296 0.3 7.51 1728 0
11/10/2021 4:30:00 AM 10.71 51.278 0.296 7.53 1814 0
11/10/2021 4:45:00 AM 10.72 51.296 0.303 7.5 1836 0
11/10/2021 5:00:00 AM 10.71 51.278 0.298 7.47 2507 0
11/10/2021 5:15:00 AM 10.7 51.26 0.306 7.48 2201 0
11/10/2021 5:30:00 AM 10.69 51.242 0.296 7.49 2191 0
11/10/2021 5:45:00 AM 10.67 51.206 0.292 7.52 2327 0
11/10/2021 6:00:00 AM 10.66 51.188 0.295 7.51 2159 0
11/10/2021 6:15:00 AM 10.65 51.17 0.299 7.53 2145 0
11/10/2021 6:30:00 AM 10.63 51.134 0.294 7.52 2059 0
11/10/2021 6:45:00 AM 10.63 51.134 0.296 7.49 2043 0
11/10/2021 7:00:00 AM 10.63 51.134 0.296 7.53 1984 0
11/10/2021 7:15:00 AM 10.65 51.17 0.307 7.47 1985 0
11/10/2021 7:30:00 AM 10.61 51.098 0.305 7.52 1921 0
11/10/2021 7:45:00 AM 10.59 51.062 0.302 7.52 1895 0
11/10/2021 8:00:00 AM 10.61 51.098 0.3 7.53 1892 0
11/10/2021 8:15:00 AM 10.62 51.116 0.316 7.49 1800 0
11/10/2021 8:30:00 AM 10.6 51.08 0.303 7.47 1778 0
11/10/2021 8:45:00 AM 10.62 51.116 0.322 7.45 1757 0
11/10/2021 9:00:00 AM 10.63 51.134 0.314 7.42 1775 0
11/10/2021 9:15:00 AM 10.67 51.206 0.302 7.39 1822 0
11/10/2021 9:30:00 AM 10.7 51.26 0.311 7.41 1807 0
11/10/2021 9:45:00 AM 10.72 51.296 0.307 7.38 1785 0
11/10/2021 10:00:00 AM 10.77 51.386 0.309 7.36 1772 0
11/10/2021 10:15:00 AM 10.79 51.422 0.304 7.35 1430 0
11/10/2021 10:30:00 AM 10.8 51.44 0.312 7.36 1400 0
11/10/2021 10:45:00 AM 10.82 51.476 0.299 7.4 1392 0
11/10/2021 11:00:00 AM 10.85 51.53 0.33 7.36 1385 0
11/10/2021 11:15:00 AM 10.9 51.62 0.311 7.34 1388 0
11/10/2021 11:30:00 AM 10.93 51.674 0.306 7.35 1371 0
11/10/2021 11:45:00 AM 10.97 51.746 0.32 7.38 1363 0
11/10/2021 12:00:00 PM 11.01 51.818 0.304 7.37 1359 0
11/10/2021 12:15:00 PM 11.04 51.872 0.304 7.41 1363 0
11/10/2021 12:30:00 PM 11.09 51.962 0.296 7.4 1354 0
11/10/2021 12:45:00 PM 11.13 52.034 0.305 7.42 1334 0
11/10/2021 1:00:00 PM 11.17 52.106 0.304 7.45 1351 0
11/10/2021 1:15:00 PM 11.2 52.16 0.309 7.43 1328 0
11/10/2021 1:30:00 PM 11.24 52.232 0.296 7.44 1391 0
11/10/2021 1:45:00 PM 11.27 52.286 0.304 7.41 1375 0
11/10/2021 2:00:00 PM 11.31 52.358 0.284 7.45 1362 0
11/10/2021 2:15:00 PM 11.34 52.412 0.287 7.41 1356 0
11/10/2021 2:30:00 PM 11.37 52.466 0.292 7.42 1345 0
11/10/2021 2:45:00 PM 11.4 52.52 0.288 7.44 1319 0
11/10/2021 3:00:00 PM 11.42 52.556 0.291 7.52 1328 0
11/10/2021 3:15:00 PM 11.45 52.61 0.291 7.45 1316 0
11/10/2021 3:30:00 PM 11.47 52.646 0.287 7.54 1302 0
11/10/2021 3:45:00 PM 11.49 52.682 0.287 7.51 1297 0
11/10/2021 4:00:00 PM 11.5 52.7 0.29 7.53 1281 0
11/10/2021 4:15:00 PM 11.5 52.7 0.291 7.58 1268 0
11/10/2021 4:30:00 PM 11.51 52.718 0.29 7.61 1259 0
11/10/2021 4:45:00 PM 11.51 52.718 0.299 7.67 1245 0
11/10/2021 5:00:00 PM 11.51 52.718 0.297 7.6 1313 0
11/10/2021 5:15:00 PM 11.51 52.718 0.305 7.63 1174 0
11/10/2021 5:30:00 PM 11.51 52.718 0.295 7.58 1176 0
11/10/2021 5:45:00 PM 11.5 52.7 0.295 7.59 1370 0
11/10/2021 6:00:00 PM 11.48 52.664 0.298 7.44 1128 0
11/10/2021 6:15:00 PM 11.49 52.682 0.296 7.44 1055 0
11/10/2021 6:30:00 PM 11.47 52.646 0.294 7.46 1437 0
11/10/2021 6:45:00 PM 11.46 52.628 0.292 7.47 1468 0
11/10/2021 7:00:00 PM 11.46 52.628 0.299 7.45 1422 0
11/10/2021 7:15:00 PM 11.45 52.61 0.291 7.45 1404 0
11/10/2021 7:30:00 PM 11.43 52.574 0.292 7.5 1398 0
11/10/2021 7:45:00 PM 11.45 52.61 0.306 7.48 1456 0
11/10/2021 8:00:00 PM 11.45 52.61 0.295 7.41 1448 0
11/10/2021 8:15:00 PM 11.44 52.592 0.299 7.47 1440 0
11/10/2021 8:30:00 PM 11.43 52.574 0.298 7.45 1391 0
11/10/2021 8:45:00 PM 11.42 52.556 0.296 7.47 1384 0
11/10/2021 9:00:00 PM 11.43 52.574 0.301 7.44 1370 0
11/10/2021 9:15:00 PM 11.41 52.538 0.3 7.46 1371 0
11/10/2021 9:30:00 PM 11.4 52.52 0.306 7.49 1362 0
11/10/2021 9:45:00 PM 11.39 52.502 0.302 7.46 1366 0
11/10/2021 10:00:00 PM 11.38 52.484 0.301 7.43 1359 0
11/10/2021 10:15:00 PM 11.37 52.466 0.299 7.43 1357 0
11/10/2021 10:30:00 PM 11.33 52.394 0.302 7.46 1351 0
11/10/2021 10:45:00 PM 11.31 52.358 0.293 7.52 1350 0
11/10/2021 11:00:00 PM 11.31 52.358 0.302 7.49 1359 0
11/10/2021 11:15:00 PM 11.32 52.376 0.305 7.5 1356 0
11/10/2021 11:30:00 PM 11.29 52.322 0.303 7.5 1345 0
11/10/2021 11:45:00 PM 11.26 52.268 0.302 7.49 1333 0
11/11/2021 12:00:00 AM 11.28 52.304 0.303 7.46 1328 0
11/11/2021 12:15:00 AM 11.23 52.214 0.307 7.43 1332 0
11/11/2021 12:30:00 AM 11.2 52.16 0.306 7.46 1326 0
11/11/2021 12:45:00 AM 11.16 52.088 0.295 7.49 1336 0
11/11/2021 1:00:00 AM 11.15 52.07 0.315 7.47 1336 0
11/11/2021 1:15:00 AM 11.14 52.052 0.303 7.49 1334 0
11/11/2021 1:30:00 AM 11.08 51.944 0.309 7.52 1331 0
11/11/2021 1:45:00 AM 11.09 51.962 0.302 7.49 1326 0
11/11/2021 2:00:00 AM 11.06 51.908 0.312 7.48 1328 0
11/11/2021 2:15:00 AM 11.03 51.854 0.303 7.5 1322 0
11/11/2021 2:30:00 AM 10.96 51.728 0.305 7.53 1315 0
11/11/2021 2:45:00 AM 11 51.8 0.307 7.47 1311 0
11/11/2021 3:00:00 AM 10.95 51.71 0.306 7.45 1311 0
11/11/2021 3:15:00 AM 10.93 51.674 0.304 7.47 1309 0
11/11/2021 3:30:00 AM 10.92 51.656 0.315 7.45 1303 0
11/11/2021 3:45:00 AM 10.85 51.53 0.311 7.44 1307 0
11/11/2021 4:00:00 AM 10.83 51.494 0.306 7.44 1304 0
11/11/2021 4:15:00 AM 10.77 51.386 0.304 7.44 1300 0
11/11/2021 4:30:00 AM 10.77 51.386 0.311 7.43 1289 0
11/11/2021 4:45:00 AM 10.71 51.278 0.299 7.47 1290 0
11/11/2021 5:00:00 AM 10.66 51.188 0.295 7.5 1293 0
11/11/2021 5:15:00 AM 10.64 51.152 0.296 7.48 1304 0
11/11/2021 5:30:00 AM 10.58 51.044 0.292 7.51 1303 0
11/11/2021 5:45:00 AM 10.58 51.044 0.297 7.5 1302 0
11/11/2021 6:00:00 AM 10.6 51.08 0.308 7.42 1299 0
11/11/2021 6:15:00 AM 10.57 51.026 0.311 7.42 1302 0
11/11/2021 6:30:00 AM 10.52 50.936 0.31 7.42 1294 0
11/11/2021 6:45:00 AM 10.47 50.846 0.31 7.49 1282 0
11/11/2021 7:00:00 AM 10.46 50.828 0.319 7.43 1255 0
11/11/2021 7:15:00 AM 10.44 50.792 0.321 7.44 1248 0
11/11/2021 7:30:00 AM 10.37 50.666 0.298 7.45 1239 0
11/11/2021 7:45:00 AM 10.34 50.612 0.294 7.49 1228 0
11/11/2021 8:00:00 AM 10.3 50.54 0.29 7.48 1226 0
11/11/2021 8:15:00 AM 10.27 50.486 0.289 7.52 1227 0
11/11/2021 8:30:00 AM 10.32 50.576 0.297 7.5 1216 0
11/11/2021 8:45:00 AM 10.35 50.63 0.304 7.48 1212 0
11/11/2021 9:00:00 AM 10.38 50.684 0.307 7.44 1207 0
11/11/2021 9:15:00 AM 10.33 50.594 0.297 7.5 1185 0
11/11/2021 9:30:00 AM 10.34 50.612 0.298 7.52 1152 0
11/11/2021 9:45:00 AM 10.36 50.648 0.294 7.53 1118 0
11/11/2021 10:00:00 AM 10.39 50.702 0.3 7.55 1092 0
11/11/2021 10:15:00 AM 10.39 50.702 0.291 7.58 1078 0
11/11/2021 10:30:00 AM 10.39 50.702 0.288 7.63 1063 0
11/11/2021 10:45:00 AM 10.39 50.702 0.285 7.65 1057 0
11/11/2021 11:00:00 AM 10.47 50.846 0.288 7.65 1058 0
11/11/2021 11:15:00 AM 10.48 50.864 0.287 7.63 1042 0
11/11/2021 11:30:00 AM 10.5 50.9 0.283 7.67 1041 0
11/11/2021 11:45:00 AM 10.58 51.044 0.292 7.62 1077 0
11/11/2021 12:00:00 PM 10.61 51.098 0.291 7.65 1086 0
11/11/2021 12:15:00 PM 10.66 51.188 0.297 7.66 1090 0
11/11/2021 12:30:00 PM 10.72 51.296 0.304 7.66 1083 0
11/11/2021 12:45:00 PM 10.74 51.332 0.295 7.7 1070 0
11/11/2021 1:00:00 PM 10.76 51.368 0.29 7.72 1080 0
11/11/2021 1:15:00 PM 10.79 51.422 0.287 7.74 1079 0
11/11/2021 1:30:00 PM 10.83 51.494 0.286 7.75 1083 0
11/11/2021 1:45:00 PM 10.86 51.548 0.284 7.78 1085 0
11/11/2021 2:00:00 PM 10.91 51.638 0.29 7.77 1087 0
11/11/2021 2:15:00 PM 10.95 51.71 0.288 7.78 1086 0
11/11/2021 2:30:00 PM 10.98 51.764 0.288 7.8 1089 0
11/11/2021 2:45:00 PM 11.01 51.818 0.285 7.82 1088 0
11/11/2021 3:00:00 PM 11.03 51.854 0.286 7.86 1093 0
11/11/2021 3:15:00 PM 11.06 51.908 0.283 7.87 1092 0
11/11/2021 3:30:00 PM 11.1 51.98 0.285 7.85 1092 0
11/11/2021 3:45:00 PM 11.12 52.016 0.286 7.86 1090 0
11/11/2021 4:00:00 PM 11.15 52.07 0.295 7.86 1080 0
11/11/2021 4:15:00 PM 11.16 52.088 0.285 7.88 1086 0
11/11/2021 4:30:00 PM 11.17 52.106 0.284 7.87 1078 0
11/11/2021 4:45:00 PM 11.18 52.124 0.289 7.84 1077 0
11/11/2021 5:00:00 PM 11.19 52.142 0.294 7.83 1080 0
11/11/2021 5:15:00 PM 11.2 52.16 0.291 7.8 1078 0
11/11/2021 5:30:00 PM 11.21 52.178 0.301 7.74 1100 0
11/11/2021 5:45:00 PM 11.2 52.16 0.29 7.74 1101 0
11/11/2021 6:00:00 PM 11.23 52.214 0.296 7.81 1168 0
11/11/2021 6:15:00 PM 11.21 52.178 0.292 7.84 1184 0
11/11/2021 6:30:00 PM 11.24 52.232 0.297 7.83 1035 0
11/11/2021 6:45:00 PM 11.21 52.178 0.304 7.83 1038 0
11/11/2021 7:00:00 PM 11.21 52.178 0.3 7.87 1045 0
11/11/2021 7:15:00 PM 11.22 52.196 0.308 7.88 1049 0
11/11/2021 7:30:00 PM 11.2 52.16 0.293 7.89 1055 0
11/11/2021 7:45:00 PM 11.2 52.16 0.292 7.91 1067 0
11/11/2021 8:00:00 PM 11.22 52.196 0.291 7.89 1078 0
11/11/2021 8:15:00 PM 11.24 52.232 0.295 7.89 1081 0
11/11/2021 8:30:00 PM 11.24 52.232 0.291 7.92 1083 0
11/11/2021 8:45:00 PM 11.25 52.25 0.289 7.8 1116 0
11/11/2021 9:00:00 PM 11.28 52.304 0.291 7.81 1112 0
11/11/2021 9:15:00 PM 11.3 52.34 0.293 7.7 1108 0
11/11/2021 9:30:00 PM 11.33 52.394 0.291 7.69 1112 0
11/11/2021 9:45:00 PM 11.35 52.43 0.292 7.61 1113 0
11/11/2021 10:00:00 PM 11.35 52.43 0.291 7.61 1116 0
11/11/2021 10:15:00 PM 11.36 52.448 0.293 7.61 1116 0
11/11/2021 10:30:00 PM 11.37 52.466 0.29 7.6 1118 0
11/11/2021 10:45:00 PM 11.39 52.502 0.297 7.6 1115 0
11/11/2021 11:00:00 PM 11.4 52.52 0.294 7.58 1119 0
11/11/2021 11:15:00 PM 11.42 52.556 0.29 7.56 1120 0
11/11/2021 11:30:00 PM 11.44 52.592 0.289 7.57 1124 0
11/11/2021 11:45:00 PM 11.46 52.628 0.29 7.55 1131 0
11/12/2021 12:00:00 AM 11.48 52.664 0.29 7.54 1136 0
11/12/2021 12:15:00 AM 11.5 52.7 0.288 7.54 1124 0
11/12/2021 12:30:00 AM 11.52 52.736 0.288 7.53 1122 0
11/12/2021 12:45:00 AM 11.52 52.736 0.288 7.5 1163 0
11/12/2021 1:00:00 AM 11.54 52.772 0.29 7.5 1161 0
11/12/2021 1:15:00 AM 11.54 52.772 0.287 7.46 1267 0
11/12/2021 1:30:00 AM 11.56 52.808 0.287 7.48 1815 0
11/12/2021 1:45:00 AM 11.58 52.844 0.288 7.48 1844 0
11/12/2021 2:00:00 AM 11.6 52.88 0.288 7.47 1836 0
11/12/2021 2:15:00 AM 11.62 52.916 0.289 7.49 1870 0
11/12/2021 2:30:00 AM 11.64 52.952 0.288 7.46 2064 0
11/12/2021 2:45:00 AM 11.66 52.988 0.291 7.43 2058 0
11/12/2021 3:00:00 AM 11.68 53.024 0.294 7.49 2064 0
11/12/2021 3:15:00 AM 11.69 53.042 0.294 7.47 2083 0
11/12/2021 3:30:00 AM 11.71 53.078 0.292 7.47 2104 0
11/12/2021 3:45:00 AM 11.73 53.114 0.295 7.47 2143 0
11/12/2021 4:00:00 AM 11.75 53.15 0.294 7.47 2147 0
11/12/2021 4:15:00 AM 11.76 53.168 0.292 7.48 2150 0
11/12/2021 4:30:00 AM 11.78 53.204 0.294 7.48 2142 0
11/12/2021 4:45:00 AM 11.8 53.24 0.291 7.48 2156 0
11/12/2021 5:00:00 AM 11.83 53.294 0.292 7.48 2159 0
11/12/2021 5:15:00 AM 11.84 53.312 0.291 7.47 2103 0
11/12/2021 5:30:00 AM 11.87 53.366 0.292 7.47 2142 0
11/12/2021 5:45:00 AM 11.9 53.42 0.293 7.49 2082 0
11/12/2021 6:00:00 AM 11.92 53.456 0.293 7.47 2114 0
11/12/2021 6:15:00 AM 11.95 53.51 0.293 7.42 2161 0
11/12/2021 6:30:00 AM 11.98 53.564 0.284 7.43 2180 0
11/12/2021 6:45:00 AM 11.99 53.582 0.283 7.46 2176 0
11/12/2021 7:00:00 AM 12 53.6 0.28 7.48 2215 0
11/12/2021 7:15:00 AM 12.01 53.618 0.277 7.49 2230 0
11/12/2021 7:30:00 AM 12.03 53.654 0.277 7.49 2247 0
11/12/2021 7:45:00 AM 12.04 53.672 0.274 7.52 2258 0
11/12/2021 8:00:00 AM 12.07 53.726 0.272 7.49 2307 0
11/12/2021 8:15:00 AM 12.09 53.762 0.267 7.47 2429 0
11/12/2021 8:30:00 AM 12.11 53.798 0.263 7.46 2470 0
11/12/2021 8:45:00 AM 12.12 53.816 0.259 7.47 2404 0
11/12/2021 9:00:00 AM 12.13 53.834 0.257 7.46 2386 0
11/12/2021 9:15:00 AM 12.14 53.852 0.254 7.48 2367 0
11/12/2021 9:30:00 AM 12.15 53.87 0.255 7.47 2365 0
11/12/2021 9:45:00 AM 12.17 53.906 0.253 7.46 2362 0
11/12/2021 10:00:00 AM 12.2 53.96 0.253 7.45 2374 0
11/12/2021 10:15:00 AM 12.23 54.014 0.248 7.45 2772 0
11/12/2021 10:30:00 AM 12.28 54.104 0.243 7.43 3512 0
11/12/2021 10:45:00 AM 12.33 54.194 0.24 7.45 3510 0
11/12/2021 11:00:00 AM 12.38 54.284 0.237 7.44 2051 0
11/12/2021 11:15:00 AM 12.42 54.356 0.237 7.4 2054 0
11/12/2021 11:30:00 AM 12.45 54.41 0.237 7.41 2047 0
11/12/2021 11:45:00 AM 12.47 54.446 0.239 7.41 1929 0
11/12/2021 12:00:00 PM 12.49 54.482 0.244 7.35 1274 0
11/12/2021 12:15:00 PM 12.53 54.554 0.24 7.38 1275 0
11/12/2021 12:30:00 PM 12.55 54.59 0.237 7.41 983.1 0
11/12/2021 12:45:00 PM 12.6 54.68 0.236 7.37 1059 0
11/12/2021 1:00:00 PM 12.62 54.716 0.236 7.4 1048 0
11/12/2021 1:15:00 PM 12.64 54.752 0.237 7.43 651.8 0
11/12/2021 1:30:00 PM 12.66 54.788 0.239 7.45 680.1 0
11/12/2021 1:45:00 PM 12.7 54.86 0.232 7.45 691.3 0
11/12/2021 2:00:00 PM 12.73 54.914 0.231 7.45 695.1 0
11/12/2021 2:15:00 PM 12.74 54.932 0.234 7.42 700.2 0
11/12/2021 2:30:00 PM 12.79 55.022 0.226 7.42 704.6 0
11/12/2021 2:45:00 PM 12.8 55.04 0.223 7.44 663.7 0
11/12/2021 3:00:00 PM 12.81 55.058 0.219 7.45 670.1 0
11/12/2021 3:15:00 PM 12.8 55.04 0.22 7.46 690.1 0
11/12/2021 3:30:00 PM 12.8 55.04 0.218 7.36 715.2 0
11/12/2021 3:45:00 PM 12.78 55.004 0.219 7.26 793.7 0
11/12/2021 4:00:00 PM 12.77 54.986 0.222 7.32 847.8 0
11/12/2021 4:15:00 PM 12.76 54.968 0.221 7.39 843.7 0
11/12/2021 4:30:00 PM 12.75 54.95 0.222 7.28 590.2 0
11/12/2021 4:45:00 PM 12.74 54.932 0.224 7.28 632.7 0
11/12/2021 5:00:00 PM 12.75 54.95 0.226 7.31 649.7 0
11/12/2021 5:15:00 PM 12.75 54.95 0.227 7.34 662.4 0
11/12/2021 5:30:00 PM 12.74 54.932 0.225 7.36 677.2 0
11/12/2021 5:45:00 PM 12.74 54.932 0.222 7.36 730 0
11/12/2021 6:00:00 PM 12.73 54.914 0.219 7.41 750.8 0
11/12/2021 6:15:00 PM 12.72 54.896 0.214 7.43 763 0
11/12/2021 6:30:00 PM 12.71 54.878 0.21 7.43 759.9 0
11/12/2021 6:45:00 PM 12.7 54.86 0.205 7.43 766.7 0
11/12/2021 7:00:00 PM 12.69 54.842 0.2 7.43 792.2 0
11/12/2021 7:15:00 PM 12.67 54.806 0.198 7.42 812.5 0
11/12/2021 7:30:00 PM 12.64 54.752 0.194 7.44 843.5 0
11/12/2021 7:45:00 PM 12.62 54.716 0.192 7.28 818.4 0
11/12/2021 8:00:00 PM 12.59 54.662 0.191 7.28 801.3 0
11/12/2021 8:15:00 PM 12.56 54.608 0.188 7.29 814.8 0
11/12/2021 8:30:00 PM 12.53 54.554 0.186 7.26 811 0
11/12/2021 8:45:00 PM 12.5 54.5 0.183 7.23 789.6 0
11/12/2021 9:00:00 PM 12.48 54.464 0.183 7.15 885.7 0
11/12/2021 9:15:00 PM 12.45 54.41 0.183 7.24 925 0
11/12/2021 9:30:00 PM 12.39 54.302 0.187 7.26 1637 0.27
11/12/2021 9:45:00 PM 12.39 54.302 0.182 7.26 927.2 0
11/12/2021 10:00:00 PM 12.37 54.266 0.182 7.25 949 0.05
11/12/2021 10:15:00 PM 12.33 54.194 0.18 7.26 968.2 0
11/12/2021 10:30:00 PM 12.31 54.158 0.182 7.25 1017 0
11/12/2021 10:45:00 PM 12.29 54.122 0.182 7.21 996 0.02
11/12/2021 11:00:00 PM 12.26 54.068 0.182 7.2 863 0.05
11/12/2021 11:15:00 PM 12.24 54.032 0.182 7.2 882.6 0
11/12/2021 11:30:00 PM 12.22 53.996 0.18 7.21 891.2 0
11/12/2021 11:45:00 PM 12.19 53.942 0.185 7.24 897.3 0
11/13/2021 12:00:00 AM 12.16 53.888 0.192 7.23 899.4 0
11/13/2021 12:15:00 AM 12.13 53.834 0.198 7.24 900.8 0
11/13/2021 12:30:00 AM 12.1 53.78 0.183 7.24 910.9 0
11/13/2021 12:45:00 AM 12.06 53.708 0.19 7.26 912.9 0
11/13/2021 1:00:00 AM 12.04 53.672 0.175 7.23 922.1 0
11/13/2021 1:15:00 AM 12.02 53.636 0.179 7.23 924.4 0
11/13/2021 1:30:00 AM 11.99 53.582 0.177 7.23 934.9 0
11/13/2021 1:45:00 AM 11.96 53.528 0.188 7.21 941.9 0
11/13/2021 2:00:00 AM 11.94 53.492 0.188 7.18 938.1 0
11/13/2021 2:15:00 AM 11.92 53.456 0.198 7.17 948.1 0
11/13/2021 2:30:00 AM 11.91 53.438 0.208 7.2 976 0
11/13/2021 2:45:00 AM 11.91 53.438 0.214 7.26 978.2 0
11/13/2021 3:00:00 AM 11.9 53.42 0.22 7.31 989.9 0
11/13/2021 3:15:00 AM 11.88 53.384 0.224 7.39 1002 0
11/13/2021 3:30:00 AM 11.84 53.312 0.232 7.42 1124 0
11/13/2021 3:45:00 AM 11.8 53.24 0.236 7.43 796.5 0
11/13/2021 4:00:00 AM 11.77 53.186 0.252 7.55 181.9 0.59
11/13/2021 4:15:00 AM 11.74 53.132 0.255 7.52 101.7 1.98
11/13/2021 4:30:00 AM 11.72 53.096 0.258 7.52 105.3 3.25
11/13/2021 4:45:00 AM 11.68 53.024 0.259 7.52 107.2 3.64
11/13/2021 5:00:00 AM 11.64 52.952 0.268 7.56 108.6 4.89
11/13/2021 5:15:00 AM 11.6 52.88 0.266 7.62 107.6 3.22
11/13/2021 5:30:00 AM 11.53 52.754 0.27 7.57 102.7 5.5
11/13/2021 5:45:00 AM 11.48 52.664 0.27 7.56 102.3 3.51
11/13/2021 6:00:00 AM 11.48 52.664 0.274 7.58 103.1 3.46
11/13/2021 6:15:00 AM 11.47 52.646 0.273 7.62 104.7 4.35
11/13/2021 6:30:00 AM 11.43 52.574 0.269 7.64 104.7 4.21
11/13/2021 6:45:00 AM 11.42 52.556 0.265 7.71 105.1 5.94
11/13/2021 7:00:00 AM 11.41 52.538 0.264 7.68 102.7 3.76
11/13/2021 7:15:00 AM 11.37 52.466 0.268 7.72 102.5 3.56
11/13/2021 7:30:00 AM 11.35 52.43 0.256 7.61 105.7 3.15
11/13/2021 7:45:00 AM 11.31 52.358 0.261 7.63 106.6 1.36
11/13/2021 8:00:00 AM 11.29 52.322 0.258 7.65 47.88 1.56
11/13/2021 8:15:00 AM 11.27 52.286 0.259 7.62 51.41 3.47
11/13/2021 8:30:00 AM 11.27 52.286 0.256 7.63 52.6 2.81
11/13/2021 8:45:00 AM 11.28 52.304 0.263 7.62 53.07 2.82
11/13/2021 9:00:00 AM 11.29 52.322 0.269 7.61 48.44 3.74
11/13/2021 9:15:00 AM 11.28 52.304 0.277 7.58 53.89 2.5
11/13/2021 9:30:00 AM 11.27 52.286 0.279 7.57 54.71 3.75
11/13/2021 9:45:00 AM 11.29 52.322 0.278 7.59 55.06 3.67
11/13/2021 10:00:00 AM 11.3 52.34 0.29 7.57 43.28 2.04
11/13/2021 10:15:00 AM 11.27 52.286 0.294 7.57 43.45 0.93
11/13/2021 10:30:00 AM 11.23 52.214 0.288 7.63 43.5 1.6
11/13/2021 10:45:00 AM 11.2 52.16 0.279 7.66 42.99 0.69
11/13/2021 11:00:00 AM 11.17 52.106 0.269 7.69 43.29 0.26
11/13/2021 11:15:00 AM 11.14 52.052 0.264 7.68 44.08 4.55
11/13/2021 11:30:00 AM 11.12 52.016 0.259 7.54 43.22 7
11/13/2021 11:45:00 AM 11.07 51.926 0.238 7.5 43.35 8.55
11/13/2021 12:00:00 PM 11.05 51.89 0.238 7.48 37.07 8.19
11/13/2021 12:15:00 PM 11.02 51.836 0.221 7.48 37.53 8.23
11/13/2021 12:30:00 PM 11 51.8 0.225 7.45 37.67 8.51
11/13/2021 12:45:00 PM 11 51.8 0.228 7.42 37.7 8.62
11/13/2021 1:00:00 PM 11 51.8 0.231 7.45 37.79 8.41
11/13/2021 1:15:00 PM 11.02 51.836 0.237 7.43 37.64 8.51
11/13/2021 1:30:00 PM 11.01 51.818 0.242 7.48 37.67 8.51
11/13/2021 1:45:00 PM 11.01 51.818 0.244 7.49 37.68 8.49
11/13/2021 2:00:00 PM 11.01 51.818 0.248 7.56 37.69 8.4
11/13/2021 2:15:00 PM 11.01 51.818 0.247 7.61 37.68 8.43
11/13/2021 2:30:00 PM 10.99 51.782 0.245 7.67 37.75 8.35
11/13/2021 2:45:00 PM 10.97 51.746 0.242 7.64 37.93 8.79
11/13/2021 3:00:00 PM 10.96 51.728 0.242 7.58 37.88 8.48
11/13/2021 3:15:00 PM 10.95 51.71 0.243 7.57 38.04 7.23
11/13/2021 3:30:00 PM 10.98 51.764 0.249 7.58 40.85 7.63
11/13/2021 3:45:00 PM 11.02 51.836 0.273 7.58 39.63 4.87
11/13/2021 4:00:00 PM 11.03 51.854 0.281 7.67 43.54 6.97
11/13/2021 4:15:00 PM 11 51.8 0.28 7.65 43.02 7.74
11/13/2021 4:30:00 PM 10.97 51.746 0.283 7.58 45.03 6.35
11/13/2021 4:45:00 PM 10.94 51.692 0.283 7.55 43.9 4.08
11/13/2021 5:00:00 PM 10.9 51.62 0.277 7.54 43.75 1.55
11/13/2021 5:15:00 PM 10.84 51.512 0.272 7.51 44.5 0.38
11/13/2021 5:30:00 PM 10.82 51.476 0.272 7.47 44.35 0.7
11/13/2021 5:45:00 PM 10.84 51.512 0.275 7.46 44.47 0.49
11/13/2021 6:00:00 PM 10.83 51.494 0.255 7.4 44.39 0.6
11/13/2021 6:15:00 PM 10.79 51.422 0.262 7.28 44.47 0.51
11/13/2021 6:30:00 PM 10.76 51.368 0.276 7.27 44.13 0.49
11/13/2021 6:45:00 PM 10.7 51.26 0.304 7.25 44.18 1.03
11/13/2021 7:00:00 PM 10.71 51.278 0.323 7.36 44.35 0.68
11/13/2021 7:15:00 PM 10.72 51.296 0.329 7.45 43.9 2.4
11/13/2021 7:30:00 PM 10.67 51.206 0.334 7.45 43.97 0.95
11/13/2021 7:45:00 PM 10.65 51.17 0.335 7.45 43.96 0.01
11/13/2021 8:00:00 PM 10.62 51.116 0.331 7.47 44.03 0
11/13/2021 8:15:00 PM 10.6 51.08 0.321 7.55 44.09 0
11/13/2021 8:30:00 PM 10.59 51.062 0.326 7.51 44.31 0
11/13/2021 8:45:00 PM 10.6 51.08 0.33 7.48 44.32 0
11/13/2021 9:00:00 PM 10.57 51.026 0.337 7.45 44.13 0
11/13/2021 9:15:00 PM 10.53 50.954 0.331 7.42 44.33 0.01
11/13/2021 9:30:00 PM 10.47 50.846 0.331 7.47 44.48 0
11/13/2021 9:45:00 PM 10.4 50.72 0.32 7.56 44.41 0
11/13/2021 10:00:00 PM 10.33 50.594 0.293 7.59 44.36 0
11/13/2021 10:15:00 PM 10.29 50.522 0.29 7.5 44.42 0
11/13/2021 10:30:00 PM 10.26 50.468 0.29 7.49 44.48 0
11/13/2021 10:45:00 PM 10.19 50.342 0.279 7.49 44.41 0
11/13/2021 11:00:00 PM 10.17 50.306 0.271 7.5 44.48 0
11/13/2021 11:15:00 PM 10.13 50.234 0.27 7.5 44.64 0
11/13/2021 11:30:00 PM 10.08 50.144 0.266 7.51 44.66 0
11/13/2021 11:45:00 PM 10.07 50.126 0.267 7.51 44.71 0
11/14/2021 12:00:00 AM 10.03 50.054 0.266 7.53 44.8 0
11/14/2021 12:15:00 AM 10 50 0.268 7.55 44.83 0
11/14/2021 12:30:00 AM 9.94 49.892 0.266 7.54 44.62 0
11/14/2021 12:45:00 AM 9.91 49.838 0.26 7.56 44.76 0
11/14/2021 1:00:00 AM 9.88 49.784 0.259 7.56 44.81 0
11/14/2021 1:15:00 AM 9.85 49.73 0.257 7.61 45 0
11/14/2021 1:30:00 AM 9.8 49.64 0.257 7.63 44.91 0
11/14/2021 1:45:00 AM 9.75 49.55 0.255 7.61 45.03 0
11/14/2021 2:00:00 AM 9.73 49.514 0.255 7.65 45.05 0
11/14/2021 2:15:00 AM 9.7 49.46 0.247 7.64 45.27 0
11/14/2021 2:30:00 AM 9.69 49.442 0.247 7.64 45.26 0
11/14/2021 2:45:00 AM 9.65 49.37 0.248 7.65 45.33 0
11/14/2021 3:00:00 AM 9.51 49.118 0.247 7.58 45.67 0
11/14/2021 3:15:00 AM 9.47 49.046 0.245 7.58 45.72 0
11/14/2021 3:30:00 AM 9.41 48.938 0.249 7.5 46.06 0
11/14/2021 3:45:00 AM 9.41 48.938 0.248 7.42 46.2 0
11/14/2021 4:00:00 AM 9.4 48.92 0.248 7.39 46.34 0
11/14/2021 4:15:00 AM 9.38 48.884 0.25 7.39 46.39 0
11/14/2021 4:30:00 AM 9.37 48.866 0.242 7.39 46.41 0
11/14/2021 4:45:00 AM 9.35 48.83 0.248 7.37 46.25 0
11/14/2021 5:00:00 AM 9.27 48.686 0.251 7.39 46.23 0
11/14/2021 5:15:00 AM 9.27 48.686 0.257 7.43 46.32 0
11/14/2021 5:30:00 AM 9.19 48.542 0.258 7.46 46.39 0
11/14/2021 5:45:00 AM 9.16 48.488 0.254 7.49 46.42 0
11/14/2021 6:00:00 AM 9.12 48.416 0.253 7.44 46.28 0
11/14/2021 6:15:00 AM 9.1 48.38 0.253 7.39 46.45 0
11/14/2021 6:30:00 AM 9.1 48.38 0.252 7.38 46.27 0
11/14/2021 6:45:00 AM 9.08 48.344 0.251 7.38 46.35 0
11/14/2021 7:00:00 AM 9.05 48.29 0.253 7.4 46.2 0
11/14/2021 7:15:00 AM 9.02 48.236 0.25 7.39 46.37 0
11/14/2021 7:30:00 AM 9.02 48.236 0.251 7.37 46.33 0
11/14/2021 7:45:00 AM 8.98 48.164 0.253 7.39 46.36 0
11/14/2021 8:00:00 AM 8.98 48.164 0.252 7.4 46.59 0
11/14/2021 8:15:00 AM 8.94 48.092 0.25 7.38 46.69 0
11/14/2021 8:30:00 AM 8.96 48.128 0.254 7.37 46.66 0
11/14/2021 8:45:00 AM 8.89 48.002 0.256 7.4 46.69 0
11/14/2021 9:00:00 AM 8.91 48.038 0.241 7.4 46.69 0
11/14/2021 9:15:00 AM 8.92 48.056 0.253 7.37 46.93 0
11/14/2021 9:30:00 AM 8.9 48.02 0.253 7.37 46.86 0
11/14/2021 9:45:00 AM 8.91 48.038 0.248 7.41 46.93 0
11/14/2021 10:00:00 AM 8.9 48.02 0.245 7.32 47.13 0
11/14/2021 10:15:00 AM 8.93 48.074 0.244 7.29 45.31 0
11/14/2021 10:30:00 AM 8.95 48.11 0.244 7.3 45.89 0
11/14/2021 10:45:00 AM 8.97 48.146 0.243 7.3 46.16 0
11/14/2021 11:00:00 AM 8.99 48.182 0.243 7.29 46.21 0
11/14/2021 11:15:00 AM 9.01 48.218 0.242 7.29 46.45 0
11/14/2021 11:30:00 AM 9.03 48.254 0.241 7.29 46.5 0
11/14/2021 11:45:00 AM 9.05 48.29 0.24 7.28 46.47 0
11/14/2021 12:00:00 PM 9.11 48.398 0.242 7.29 46.48 0
11/14/2021 12:15:00 PM 9.17 48.506 0.242 7.3 46.5 0
11/14/2021 12:30:00 PM 9.13 48.434 0.245 7.33 46.59 0
11/14/2021 12:45:00 PM 9.16 48.488 0.245 7.34 46.69 0
11/14/2021 1:00:00 PM 9.18 48.524 0.245 7.36 46.67 0
11/14/2021 1:15:00 PM 9.19 48.542 0.245 7.39 46.56 0
11/14/2021 1:30:00 PM 9.19 48.542 0.245 7.4 46.64 0
11/14/2021 1:45:00 PM 9.21 48.578 0.243 7.38 46.71 0
11/14/2021 2:00:00 PM 9.25 48.65 0.242 7.36 46.72 0
11/14/2021 2:15:00 PM 9.28 48.704 0.242 7.39 46.89 0
11/14/2021 2:30:00 PM 9.3 48.74 0.242 7.38 46.77 0
11/14/2021 2:45:00 PM 9.33 48.794 0.241 7.4 46.97 0
11/14/2021 3:00:00 PM 9.34 48.812 0.24 7.37 47.01 0
11/14/2021 3:15:00 PM 9.34 48.812 0.24 7.37 47.13 0
11/14/2021 3:30:00 PM 9.39 48.902 0.242 7.36 47.18 0
11/14/2021 3:45:00 PM 9.43 48.974 0.242 7.36 47.32 0
11/14/2021 4:00:00 PM 9.44 48.992 0.243 7.37 47.32 0
11/14/2021 4:15:00 PM 9.42 48.956 0.244 7.37 47.32 0
11/14/2021 4:30:00 PM 9.46 49.028 0.243 7.37 47.47 0
11/14/2021 4:45:00 PM 9.41 48.938 0.245 7.38 47.57 0
11/14/2021 5:00:00 PM 9.46 49.028 0.246 7.37 47.5 0
11/14/2021 5:15:00 PM 9.45 49.01 0.244 7.4 47.54 0
11/14/2021 5:30:00 PM 9.45 49.01 0.245 7.42 47.77 0
11/14/2021 5:45:00 PM 9.45 49.01 0.247 7.42 47.63 0
11/14/2021 6:00:00 PM 9.42 48.956 0.248 7.43 47.74 0
11/14/2021 6:15:00 PM 9.45 49.01 0.247 7.43 47.93 0
11/14/2021 6:30:00 PM 9.41 48.938 0.248 7.42 48.02 0
11/14/2021 6:45:00 PM 9.38 48.884 0.247 7.35 48.15 0
11/14/2021 7:00:00 PM 9.39 48.902 0.247 7.35 48.25 0
11/14/2021 7:15:00 PM 9.39 48.902 0.249 7.34 48.21 0
11/14/2021 7:30:00 PM 9.37 48.866 0.247 7.34 48.28 0
11/14/2021 7:45:00 PM 9.38 48.884 0.247 7.35 48.72 0
11/14/2021 8:00:00 PM 9.42 48.956 0.247 7.36 48.22 0
11/14/2021 8:15:00 PM 9.39 48.902 0.249 7.39 48.32 0
11/14/2021 8:30:00 PM 9.33 48.794 0.251 7.39 48.58 0
11/14/2021 8:45:00 PM 9.34 48.812 0.248 7.38 48.61 0
11/14/2021 9:00:00 PM 9.3 48.74 0.248 7.39 48.61 0
11/14/2021 9:15:00 PM 9.34 48.812 0.25 7.41 48.71 0
11/14/2021 9:30:00 PM 9.31 48.758 0.251 7.44 48.83 0
11/14/2021 9:45:00 PM 9.33 48.794 0.248 7.45 48.97 0
11/14/2021 10:00:00 PM 9.33 48.794 0.248 7.45 49 0
11/14/2021 10:15:00 PM 9.31 48.758 0.244 7.47 48.92 0
11/14/2021 10:30:00 PM 9.34 48.812 0.246 7.46 49.15 0
11/14/2021 10:45:00 PM 9.29 48.722 0.244 7.48 49.32 0
11/14/2021 11:00:00 PM 9.36 48.848 0.247 7.49 49.29 0
11/14/2021 11:15:00 PM 9.35 48.83 0.248 7.49 49.4 0
11/14/2021 11:30:00 PM 9.29 48.722 0.251 7.48 49.52 0
11/14/2021 11:45:00 PM 9.27 48.686 0.252 7.49 49.68 0
11/15/2021 12:00:00 AM 9.19 48.542 0.25 7.49 49.73 0
11/15/2021 12:15:00 AM 9.2 48.56 0.248 7.47 49.78 0
11/15/2021 12:30:00 AM 9.18 48.524 0.248 7.49 49.68 0
11/15/2021 12:45:00 AM 9.16 48.488 0.249 7.48 49.74 0
11/15/2021 1:00:00 AM 9.16 48.488 0.249 7.5 50.16 0
11/15/2021 1:15:00 AM 9.13 48.434 0.249 7.5 49.96 0
11/15/2021 1:30:00 AM 9.12 48.416 0.248 7.48 50.16 0
11/15/2021 1:45:00 AM 9.1 48.38 0.248 7.48 50.35 0
11/15/2021 2:00:00 AM 9.16 48.488 0.249 7.47 50.32 0
11/15/2021 2:15:00 AM 9.15 48.47 0.25 7.47 50.37 0
11/15/2021 2:30:00 AM 9.14 48.452 0.247 7.5 50.99 0
11/15/2021 2:45:00 AM 9.14 48.452 0.248 7.49 51.2 0
11/15/2021 3:00:00 AM 9.14 48.452 0.25 7.47 51.1 0
11/15/2021 3:15:00 AM 9.11 48.398 0.247 7.5 51.28 0
11/15/2021 3:30:00 AM 9.09 48.362 0.24 7.52 51.53 0
11/15/2021 3:45:00 AM 9.08 48.344 0.232 7.53 51.81 0
11/15/2021 4:00:00 AM 9.09 48.362 0.236 7.54 51.66 0
11/15/2021 4:15:00 AM 9.07 48.326 0.232 7.53 51.54 0
11/15/2021 4:30:00 AM 9.12 48.416 0.234 7.52 51.56 0
11/15/2021 4:45:00 AM 9.04 48.272 0.236 7.53 51.63 0
11/15/2021 5:00:00 AM 9.04 48.272 0.243 7.54 51.83 0
11/15/2021 5:15:00 AM 9.04 48.272 0.243 7.54 51.83 0
11/15/2021 5:30:00 AM 9.02 48.236 0.243 7.54 51.83 0
11/15/2021 5:45:00 AM 9.01 48.218 0.242 7.54 51.91 0
11/15/2021 6:00:00 AM 8.97 48.146 0.241 7.53 52.05 0
11/15/2021 6:15:00 AM 8.99 48.182 0.241 7.53 51.9 0
11/15/2021 6:30:00 AM 9.01 48.218 0.243 7.53 51.99 0
11/15/2021 6:45:00 AM 9.02 48.236 0.243 7.52 52 0
11/15/2021 7:00:00 AM 9.02 48.236 0.244 7.51 52.4 0
11/15/2021 7:15:00 AM 9.03 48.254 0.244 7.51 52.57 0
11/15/2021 7:30:00 AM 9 48.2 0.244 7.52 52.59 0
11/15/2021 7:45:00 AM 8.95 48.11 0.243 7.55 52.44 0
11/15/2021 8:00:00 AM 8.94 48.092 0.243 7.57 52.78 0
11/15/2021 8:15:00 AM 8.93 48.074 0.242 7.57 53.02 0
11/15/2021 8:30:00 AM 8.92 48.056 0.242 7.55 53.08 0
11/15/2021 8:45:00 AM 8.95 48.11 0.242 7.57 52.99 0
11/15/2021 9:00:00 AM 8.98 48.164 0.242 7.56 53.4 0
11/15/2021 9:15:00 AM 9 48.2 0.244 7.51 53.3 0
11/15/2021 9:30:00 AM 8.99 48.182 0.243 7.5 53.42 0
11/15/2021 9:45:00 AM 8.99 48.182 0.243 7.48 53.4 0
11/15/2021 10:00:00 AM 9.02 48.236 0.243 7.46 53.65 0